<?xml version="1.0" encoding="UTF-8" standalone="no" ?><gpx xmlns="http://www.topografix.com/GPX/1/1" xmlns:gpxx="http://www.garmin.com/xmlschemas/GpxExtensions/v3" xmlns:wptx1="http://www.garmin.com/xmlschemas/WaypointExtension/v1" xmlns:gpxtpx="http://www.garmin.com/xmlschemas/TrackPointExtension/v1" creator="Astro 320" version="1.1" xmlns:xsi="http://www.w3.org/2001/XMLSchema-instance" xsi:schemaLocation="http://www.topografix.com/GPX/1/1 http://www.topografix.com/GPX/1/1/gpx.xsd http://www.garmin.com/xmlschemas/GpxExtensions/v3 http://www8.garmin.com/xmlschemas/GpxExtensionsv3.xsd http://www.garmin.com/xmlschemas/WaypointExtension/v1 http://www8.garmin.com/xmlschemas/WaypointExtensionv1.xsd http://www.garmin.com/xmlschemas/TrackPointExtension/v1 http://www.garmin.com/xmlschemas/TrackPointExtensionv1.xsd"><metadata><link href="http://www.garmin.com"><text>Garmin International</text></link><time>2026-04-22T13:39:26Z</time></metadata><trk><name>2026-04-22 16:39:22</name><extensions><gpxx:TrackExtension><gpxx:DisplayColor>Cyan</gpxx:DisplayColor></gpxx:TrackExtension></extensions><trkseg><trkpt lat="60.1689190976" lon="29.3743181415"><ele>28.50</ele><time>2026-02-28T11:00:20Z</time></trkpt><trkpt lat="60.1689121407" lon="29.3743296247"><ele>28.98</ele><time>2026-02-28T11:00:48Z</time></trkpt><trkpt lat="60.1689042617" lon="29.3743505795"><ele>29.46</ele><time>2026-02-28T11:01:14Z</time></trkpt><trkpt lat="60.1688937005" lon="29.3743344862"><ele>29.94</ele><time>2026-02-28T11:01:30Z</time></trkpt><trkpt lat="60.1688808762" lon="29.3743301276"><ele>29.94</ele><time>2026-02-28T11:01:51Z</time></trkpt><trkpt lat="60.1688766852" lon="29.3743220810"><ele>30.42</ele><time>2026-02-28T11:02:14Z</time></trkpt><trkpt lat="60.1688767690" lon="29.3743195664"><ele>30.42</ele><time>2026-02-28T11:02:36Z</time></trkpt><trkpt lat="60.1688775234" lon="29.3743162975"><ele>30.90</ele><time>2026-02-28T11:03:00Z</time></trkpt><trkpt lat="60.1688566525" lon="29.3743024673"><ele>31.38</ele><time>2026-02-28T11:03:27Z</time></trkpt><trkpt lat="60.1688650344" lon="29.3742724601"><ele>31.86</ele><time>2026-02-28T11:03:52Z</time></trkpt><trkpt lat="60.1688589156" lon="29.3742635753"><ele>31.86</ele><time>2026-02-28T11:04:16Z</time></trkpt><trkpt lat="60.1688683033" lon="29.3742712867"><ele>32.34</ele><time>2026-02-28T11:04:43Z</time></trkpt><trkpt lat="60.1688696444" lon="29.3742670957"><ele>32.34</ele><time>2026-02-28T11:05:04Z</time></trkpt><trkpt lat="60.1688786130" lon="29.3742681853"><ele>32.34</ele><time>2026-02-28T11:05:29Z</time></trkpt><trkpt lat="60.1688777748" lon="29.3742556963"><ele>32.34</ele><time>2026-02-28T11:05:58Z</time></trkpt><trkpt lat="60.1688882522" lon="29.3742258567"><ele>32.82</ele><time>2026-02-28T11:06:33Z</time></trkpt><trkpt lat="60.1688839775" lon="29.3742110208"><ele>33.30</ele><time>2026-02-28T11:07:06Z</time></trkpt><trkpt lat="60.1688824687" lon="29.3742126133"><ele>33.78</ele><time>2026-02-28T11:07:35Z</time></trkpt><trkpt lat="60.1688829716" lon="29.3742106017"><ele>33.78</ele><time>2026-02-28T11:08:03Z</time></trkpt><trkpt lat="60.1688832231" lon="29.3742118590"><ele>34.26</ele><time>2026-02-28T11:08:32Z</time></trkpt><trkpt lat="60.1688661240" lon="29.3742169719"><ele>34.74</ele><time>2026-02-28T11:08:55Z</time></trkpt><trkpt lat="60.1688325964" lon="29.3742446322"><ele>34.26</ele><time>2026-02-28T11:09:20Z</time></trkpt><trkpt lat="60.1688572392" lon="29.3742331490"><ele>34.74</ele><time>2026-02-28T11:09:27Z</time></trkpt><trkpt lat="60.1688526291" lon="29.3742263597"><ele>34.74</ele><time>2026-02-28T11:09:48Z</time></trkpt><trkpt lat="60.1688526291" lon="29.3742359988"><ele>34.74</ele><time>2026-02-28T11:10:05Z</time></trkpt><trkpt lat="60.1688499469" lon="29.3742473144"><ele>35.23</ele><time>2026-02-28T11:10:31Z</time></trkpt><trkpt lat="60.1688374579" lon="29.3742553610"><ele>35.71</ele><time>2026-02-28T11:11:04Z</time></trkpt><trkpt lat="60.1688566525" lon="29.3742499966"><ele>35.71</ele><time>2026-02-28T11:11:30Z</time></trkpt><trkpt lat="60.1688605919" lon="29.3742385972"><ele>36.19</ele><time>2026-02-28T11:11:55Z</time></trkpt><trkpt lat="60.1688570715" lon="29.3742421176"><ele>36.19</ele><time>2026-02-28T11:12:17Z</time></trkpt><trkpt lat="60.1688621007" lon="29.3742382620"><ele>36.67</ele><time>2026-02-28T11:12:38Z</time></trkpt><trkpt lat="60.1688659564" lon="29.3742280360"><ele>36.67</ele><time>2026-02-28T11:13:06Z</time></trkpt><trkpt lat="60.1688663755" lon="29.3742223363"><ele>37.15</ele><time>2026-02-28T11:13:35Z</time></trkpt><trkpt lat="60.1688714046" lon="29.3742250185"><ele>37.15</ele><time>2026-02-28T11:13:56Z</time></trkpt><trkpt lat="60.1688872464" lon="29.3742284551"><ele>37.63</ele><time>2026-02-28T11:14:24Z</time></trkpt><trkpt lat="60.1689157449" lon="29.3742482364"><ele>37.63</ele><time>2026-02-28T11:14:45Z</time></trkpt><trkpt lat="60.1688962150" lon="29.3742591329"><ele>38.11</ele><time>2026-02-28T11:15:11Z</time></trkpt><trkpt lat="60.1688739192" lon="29.3742891401"><ele>38.59</ele><time>2026-02-28T11:15:42Z</time></trkpt><trkpt lat="60.1688577421" lon="29.3743074127"><ele>38.59</ele><time>2026-02-28T11:16:07Z</time></trkpt><trkpt lat="60.1688794512" lon="29.3741839472"><ele>38.59</ele><time>2026-02-28T11:16:22Z</time></trkpt><trkpt lat="60.1688597538" lon="29.3741117790"><ele>39.07</ele><time>2026-02-28T11:16:43Z</time></trkpt><trkpt lat="60.1688709017" lon="29.3741236813"><ele>39.07</ele><time>2026-02-28T11:17:12Z</time></trkpt><trkpt lat="60.1688367035" lon="29.3740722165"><ele>39.07</ele><time>2026-02-28T11:17:33Z</time></trkpt><trkpt lat="60.1688273158" lon="29.3740332406"><ele>39.07</ele><time>2026-02-28T11:17:36Z</time></trkpt><trkpt lat="59.8383177258" lon="30.4269951582"><ele>40.99</ele><time>2026-04-22T06:13:20Z</time></trkpt><trkpt lat="59.8383261915" lon="30.4269899614"><ele>40.99</ele><time>2026-04-22T06:13:21Z</time></trkpt><trkpt lat="59.8384278640" lon="30.4270965792"><ele>40.99</ele><time>2026-04-22T06:13:33Z</time></trkpt><trkpt lat="59.8384173866" lon="30.4269010294"><ele>40.99</ele><time>2026-04-22T06:13:45Z</time></trkpt><trkpt lat="59.8384509981" lon="30.4261194170"><ele>39.07</ele><time>2026-04-22T06:13:57Z</time></trkpt><trkpt lat="59.8384926561" lon="30.4260729812"><ele>35.71</ele><time>2026-04-22T06:14:08Z</time></trkpt><trkpt lat="59.8385185562" lon="30.4260402918"><ele>32.34</ele><time>2026-04-22T06:14:25Z</time></trkpt><trkpt lat="59.8384960089" lon="30.4260774236"><ele>31.38</ele><time>2026-04-22T06:14:49Z</time></trkpt><trkpt lat="59.8384899739" lon="30.4260286409"><ele>31.86</ele><time>2026-04-22T06:15:00Z</time></trkpt><trkpt lat="59.8294472415" lon="30.4282661900"><ele>33.30</ele><time>2026-04-22T06:24:02Z</time></trkpt><trkpt lat="59.8294049967" lon="30.4282944370"><ele>33.30</ele><time>2026-04-22T06:24:09Z</time></trkpt><trkpt lat="59.8293942679" lon="30.4283654317"><ele>33.30</ele><time>2026-04-22T06:24:12Z</time></trkpt><trkpt lat="59.8292773403" lon="30.4292525724"><ele>33.30</ele><time>2026-04-22T06:24:27Z</time></trkpt><trkpt lat="59.8293949384" lon="30.4297258984"><ele>33.30</ele><time>2026-04-22T06:24:42Z</time></trkpt><trkpt lat="59.8293323256" lon="30.4277683049"><ele>33.78</ele><time>2026-04-22T06:27:14Z</time></trkpt><trkpt lat="59.8293592315" lon="30.4287114367"><ele>33.78</ele><time>2026-04-22T06:27:45Z</time></trkpt><trkpt lat="59.8294018954" lon="30.4286261089"><ele>33.78</ele><time>2026-04-22T06:28:10Z</time></trkpt><trkpt lat="59.8293940164" lon="30.4288105946"><ele>33.78</ele><time>2026-04-22T06:28:32Z</time></trkpt><trkpt lat="59.8293714691" lon="30.4287404381"><ele>33.78</ele><time>2026-04-22T06:28:48Z</time></trkpt><trkpt lat="59.8293509334" lon="30.4286384303"><ele>33.78</ele><time>2026-04-22T06:28:57Z</time></trkpt><trkpt lat="59.8292532843" lon="30.4286218341"><ele>33.78</ele><time>2026-04-22T06:29:32Z</time></trkpt><trkpt lat="59.8292399570" lon="30.4285789188"><ele>33.78</ele><time>2026-04-22T06:29:33Z</time></trkpt><trkpt lat="59.8292542901" lon="30.4285327345"><ele>33.78</ele><time>2026-04-22T06:29:34Z</time></trkpt><trkpt lat="59.8294565454" lon="30.4274868406"><ele>33.78</ele><time>2026-04-22T06:30:30Z</time></trkpt><trkpt lat="59.8295722157" lon="30.4260198399"><ele>33.78</ele><time>2026-04-22T06:30:42Z</time></trkpt><trkpt lat="59.8295553681" lon="30.4261542857"><ele>33.78</ele><time>2026-04-22T06:30:50Z</time></trkpt><trkpt lat="59.8294220120" lon="30.4268545099"><ele>33.78</ele><time>2026-04-22T06:30:59Z</time></trkpt><trkpt lat="59.8292284738" lon="30.4279897548"><ele>33.78</ele><time>2026-04-22T06:31:10Z</time></trkpt><trkpt lat="59.8292248696" lon="30.4280824587"><ele>33.78</ele><time>2026-04-22T06:31:13Z</time></trkpt><trkpt lat="59.8295353353" lon="30.4271475412"><ele>33.78</ele><time>2026-04-22T06:31:30Z</time></trkpt><trkpt lat="59.8294116184" lon="30.4199843667"><ele>33.78</ele><time>2026-04-22T06:32:07Z</time></trkpt><trkpt lat="59.8293522745" lon="30.4207958188"><ele>33.78</ele><time>2026-04-22T06:32:10Z</time></trkpt><trkpt lat="59.8294200841" lon="30.4208730999"><ele>33.78</ele><time>2026-04-22T06:32:11Z</time></trkpt><trkpt lat="59.8285974842" lon="30.4212265648"><ele>33.78</ele><time>2026-04-22T06:32:12Z</time></trkpt><trkpt lat="59.8280375730" lon="30.4214600008"><ele>33.78</ele><time>2026-04-22T06:32:13Z</time></trkpt><trkpt lat="59.8281335458" lon="30.4217518587"><ele>33.78</ele><time>2026-04-22T06:32:14Z</time></trkpt><trkpt lat="59.8281746171" lon="30.4220976960"><ele>33.78</ele><time>2026-04-22T06:32:15Z</time></trkpt><trkpt lat="59.8285492882" lon="30.4224704392"><ele>33.78</ele><time>2026-04-22T06:32:18Z</time></trkpt><trkpt lat="59.8286593426" lon="30.4225582816"><ele>33.78</ele><time>2026-04-22T06:32:19Z</time></trkpt><trkpt lat="59.8291010689" lon="30.4227934778"><ele>33.78</ele><time>2026-04-22T06:32:23Z</time></trkpt><trkpt lat="59.8296630755" lon="30.4229881056"><ele>33.78</ele><time>2026-04-22T06:32:31Z</time></trkpt><trkpt lat="59.8294857983" lon="30.4292952362"><ele>34.74</ele><time>2026-04-22T06:33:18Z</time></trkpt><trkpt lat="59.8295029812" lon="30.4295818973"><ele>34.74</ele><time>2026-04-22T06:33:34Z</time></trkpt><trkpt lat="59.0921161976" lon="29.9861618690"><ele>104.92</ele><time>2026-04-22T08:53:05Z</time></trkpt><trkpt lat="59.0921191312" lon="29.9861752801"><ele>104.92</ele><time>2026-04-22T08:53:06Z</time></trkpt><trkpt lat="59.0921346378" lon="29.9862450175"><ele>101.56</ele><time>2026-04-22T08:53:14Z</time></trkpt><trkpt lat="59.0921396669" lon="29.9862812273"><ele>97.71</ele><time>2026-04-22T08:53:19Z</time></trkpt><trkpt lat="59.0921408404" lon="29.9862950575"><ele>94.35</ele><time>2026-04-22T08:53:24Z</time></trkpt><trkpt lat="59.0921483003" lon="29.9862984940"><ele>90.98</ele><time>2026-04-22T08:53:29Z</time></trkpt><trkpt lat="59.0921599511" lon="29.9862511363"><ele>88.10</ele><time>2026-04-22T08:53:35Z</time></trkpt><trkpt lat="59.0921530779" lon="29.9862420838"><ele>85.21</ele><time>2026-04-22T08:53:44Z</time></trkpt><trkpt lat="59.0921508148" lon="29.9862181954"><ele>81.85</ele><time>2026-04-22T08:53:59Z</time></trkpt><trkpt lat="59.0921612922" lon="29.9862212129"><ele>78.97</ele><time>2026-04-22T08:54:19Z</time></trkpt><trkpt lat="59.0921592806" lon="29.9862588476"><ele>78.00</ele><time>2026-04-22T08:54:54Z</time></trkpt><trkpt lat="59.0921545029" lon="29.9862399045"><ele>78.48</ele><time>2026-04-22T08:55:33Z</time></trkpt><trkpt lat="59.0921615437" lon="29.9862333667"><ele>78.48</ele><time>2026-04-22T08:56:14Z</time></trkpt><trkpt lat="59.0921580233" lon="29.9862364680"><ele>78.48</ele><time>2026-04-22T08:56:47Z</time></trkpt><trkpt lat="59.0921624657" lon="29.9862445146"><ele>78.97</ele><time>2026-04-22T08:57:19Z</time></trkpt><trkpt lat="59.0921493899" lon="29.9862190336"><ele>79.45</ele><time>2026-04-22T08:57:56Z</time></trkpt><trkpt lat="59.0921441931" lon="29.9862283375"><ele>79.45</ele><time>2026-04-22T08:58:33Z</time></trkpt><trkpt lat="59.0921488032" lon="29.9862314388"><ele>79.93</ele><time>2026-04-22T08:59:10Z</time></trkpt><trkpt lat="59.0921633039" lon="29.9862465262"><ele>79.45</ele><time>2026-04-22T08:59:43Z</time></trkpt><trkpt lat="59.0921552572" lon="29.9862502981"><ele>79.93</ele><time>2026-04-22T09:00:21Z</time></trkpt><trkpt lat="59.0921539161" lon="29.9862426706"><ele>79.93</ele><time>2026-04-22T09:00:58Z</time></trkpt><trkpt lat="59.0921545867" lon="29.9862414133"><ele>79.93</ele><time>2026-04-22T09:01:35Z</time></trkpt><trkpt lat="59.0921571013" lon="29.9862423353"><ele>79.93</ele><time>2026-04-22T09:02:06Z</time></trkpt><trkpt lat="59.0921591129" lon="29.9862129986"><ele>79.93</ele><time>2026-04-22T09:02:43Z</time></trkpt><trkpt lat="59.0921690036" lon="29.9862163514"><ele>79.93</ele><time>2026-04-22T09:03:27Z</time></trkpt><trkpt lat="59.0921778884" lon="29.9862249009"><ele>79.93</ele><time>2026-04-22T09:04:03Z</time></trkpt><trkpt lat="59.0921808220" lon="29.9862331990"><ele>80.41</ele><time>2026-04-22T09:04:41Z</time></trkpt><trkpt lat="59.0921905451" lon="29.9862374738"><ele>79.93</ele><time>2026-04-22T09:05:04Z</time></trkpt><trkpt lat="59.0922026150" lon="29.9862396531"><ele>79.93</ele><time>2026-04-22T09:05:14Z</time></trkpt><trkpt lat="59.0922012739" lon="29.9862561654"><ele>79.93</ele><time>2026-04-22T09:05:34Z</time></trkpt><trkpt lat="59.0921991784" lon="29.9862624519"><ele>79.93</ele><time>2026-04-22T09:05:48Z</time></trkpt><trkpt lat="59.0921861026" lon="29.9862531479"><ele>79.93</ele><time>2026-04-22T09:06:05Z</time></trkpt><trkpt lat="59.0921683330" lon="29.9862047005"><ele>80.41</ele><time>2026-04-22T09:06:16Z</time></trkpt><trkpt lat="59.0921785589" lon="29.9862150941"><ele>80.41</ele><time>2026-04-22T09:06:25Z</time></trkpt><trkpt lat="59.0921716858" lon="29.9862309359"><ele>80.41</ele><time>2026-04-22T09:06:36Z</time></trkpt><trkpt lat="59.0921764635" lon="29.9862215482"><ele>80.41</ele><time>2026-04-22T09:06:56Z</time></trkpt><trkpt lat="59.0921809897" lon="29.9862300977"><ele>79.93</ele><time>2026-04-22T09:07:12Z</time></trkpt><trkpt lat="59.0921805706" lon="29.9862365518"><ele>79.93</ele><time>2026-04-22T09:07:27Z</time></trkpt><trkpt lat="59.0921886172" lon="29.9862424191"><ele>79.93</ele><time>2026-04-22T09:07:43Z</time></trkpt><trkpt lat="59.0921850968" lon="29.9862637091"><ele>80.41</ele><time>2026-04-22T09:07:57Z</time></trkpt><trkpt lat="59.0921835043" lon="29.9862826522"><ele>80.41</ele><time>2026-04-22T09:08:19Z</time></trkpt><trkpt lat="59.0922021121" lon="29.9863084685"><ele>80.41</ele><time>2026-04-22T09:08:31Z</time></trkpt><trkpt lat="59.0922236536" lon="29.9864811357"><ele>79.93</ele><time>2026-04-22T09:08:43Z</time></trkpt><trkpt lat="59.0922340471" lon="29.9865680560"><ele>79.93</ele><time>2026-04-22T09:08:48Z</time></trkpt><trkpt lat="59.0922435187" lon="29.9866350275"><ele>79.93</ele><time>2026-04-22T09:08:50Z</time></trkpt><trkpt lat="59.0922940616" lon="29.9868084490"><ele>79.93</ele><time>2026-04-22T09:09:01Z</time></trkpt><trkpt lat="59.0922996774" lon="29.9868314154"><ele>79.93</ele><time>2026-04-22T09:09:03Z</time></trkpt><trkpt lat="59.0923410002" lon="29.9869865645"><ele>79.93</ele><time>2026-04-22T09:09:09Z</time></trkpt><trkpt lat="59.0923296846" lon="29.9871428870"><ele>79.93</ele><time>2026-04-22T09:09:13Z</time></trkpt><trkpt lat="59.0923589375" lon="29.9873583019"><ele>79.93</ele><time>2026-04-22T09:09:20Z</time></trkpt><trkpt lat="59.0923652239" lon="29.9874303862"><ele>79.93</ele><time>2026-04-22T09:09:23Z</time></trkpt><trkpt lat="59.0924084745" lon="29.9875225034"><ele>79.93</ele><time>2026-04-22T09:09:29Z</time></trkpt><trkpt lat="59.0924280882" lon="29.9877107609"><ele>79.93</ele><time>2026-04-22T09:09:38Z</time></trkpt><trkpt lat="59.0924385656" lon="29.9879827537"><ele>79.93</ele><time>2026-04-22T09:09:50Z</time></trkpt><trkpt lat="59.0924789663" lon="29.9880977534"><ele>79.93</ele><time>2026-04-22T09:09:54Z</time></trkpt><trkpt lat="59.0925255697" lon="29.9882977456"><ele>79.93</ele><time>2026-04-22T09:10:03Z</time></trkpt><trkpt lat="59.0925598517" lon="29.9884693231"><ele>79.93</ele><time>2026-04-22T09:10:10Z</time></trkpt><trkpt lat="59.0925730113" lon="29.9885080475"><ele>79.93</ele><time>2026-04-22T09:10:11Z</time></trkpt><trkpt lat="59.0925811417" lon="29.9886076245"><ele>79.93</ele><time>2026-04-22T09:10:17Z</time></trkpt><trkpt lat="59.0926029347" lon="29.9886890128"><ele>79.93</ele><time>2026-04-22T09:10:21Z</time></trkpt><trkpt lat="59.0925972350" lon="29.9887465965"><ele>79.93</ele><time>2026-04-22T09:10:34Z</time></trkpt><trkpt lat="59.0926071256" lon="29.9887734186"><ele>79.45</ele><time>2026-04-22T09:10:42Z</time></trkpt><trkpt lat="59.0926196147" lon="29.9888012465"><ele>79.45</ele><time>2026-04-22T09:10:44Z</time></trkpt><trkpt lat="59.0926707443" lon="29.9889967125"><ele>79.45</ele><time>2026-04-22T09:10:56Z</time></trkpt><trkpt lat="59.0927174315" lon="29.9892351776"><ele>79.45</ele><time>2026-04-22T09:11:08Z</time></trkpt><trkpt lat="59.0927186050" lon="29.9892566353"><ele>79.45</ele><time>2026-04-22T09:11:09Z</time></trkpt><trkpt lat="59.0927216224" lon="29.9893033225"><ele>79.45</ele><time>2026-04-22T09:11:11Z</time></trkpt><trkpt lat="59.0927303396" lon="29.9893397838"><ele>79.45</ele><time>2026-04-22T09:11:13Z</time></trkpt><trkpt lat="59.0927587543" lon="29.9894063361"><ele>79.45</ele><time>2026-04-22T09:11:18Z</time></trkpt><trkpt lat="59.0927655436" lon="29.9895021413"><ele>79.45</ele><time>2026-04-22T09:11:21Z</time></trkpt><trkpt lat="59.0927915275" lon="29.9895516783"><ele>79.45</ele><time>2026-04-22T09:11:24Z</time></trkpt><trkpt lat="59.0928024240" lon="29.9895901512"><ele>79.45</ele><time>2026-04-22T09:11:26Z</time></trkpt><trkpt lat="59.0928287432" lon="29.9896545243"><ele>79.45</ele><time>2026-04-22T09:11:30Z</time></trkpt><trkpt lat="59.0928636119" lon="29.9896767363"><ele>79.45</ele><time>2026-04-22T09:11:34Z</time></trkpt><trkpt lat="59.0928690601" lon="29.9897638243"><ele>79.45</ele><time>2026-04-22T09:11:38Z</time></trkpt><trkpt lat="59.0929318406" lon="29.9898965936"><ele>79.45</ele><time>2026-04-22T09:11:48Z</time></trkpt><trkpt lat="59.0929410607" lon="29.9899146985"><ele>79.45</ele><time>2026-04-22T09:11:49Z</time></trkpt><trkpt lat="59.0929590818" lon="29.9901962467"><ele>79.45</ele><time>2026-04-22T09:12:00Z</time></trkpt><trkpt lat="59.0929657873" lon="29.9903095700"><ele>79.45</ele><time>2026-04-22T09:12:04Z</time></trkpt><trkpt lat="59.0929753426" lon="29.9904130865"><ele>79.45</ele><time>2026-04-22T09:12:08Z</time></trkpt><trkpt lat="59.0929998178" lon="29.9905150104"><ele>79.45</ele><time>2026-04-22T09:12:13Z</time></trkpt><trkpt lat="59.0930113010" lon="29.9905281700"><ele>79.45</ele><time>2026-04-22T09:12:14Z</time></trkpt><trkpt lat="59.0930531267" lon="29.9906994961"><ele>78.97</ele><time>2026-04-22T09:12:23Z</time></trkpt><trkpt lat="59.0930613410" lon="29.9907405674"><ele>78.97</ele><time>2026-04-22T09:12:25Z</time></trkpt><trkpt lat="59.0930969641" lon="29.9909148272"><ele>78.97</ele><time>2026-04-22T09:12:34Z</time></trkpt><trkpt lat="59.0931250434" lon="29.9910794478"><ele>78.97</ele><time>2026-04-22T09:12:39Z</time></trkpt><trkpt lat="59.0931377001" lon="29.9911158253"><ele>79.93</ele><time>2026-04-22T09:12:40Z</time></trkpt><trkpt lat="59.0931363590" lon="29.9912734888"><ele>79.93</ele><time>2026-04-22T09:12:42Z</time></trkpt><trkpt lat="59.0931360237" lon="29.9914004747"><ele>79.45</ele><time>2026-04-22T09:12:46Z</time></trkpt><trkpt lat="59.0931746643" lon="29.9916199967"><ele>79.45</ele><time>2026-04-22T09:12:56Z</time></trkpt><trkpt lat="59.0932182502" lon="29.9918251857"><ele>79.45</ele><time>2026-04-22T09:13:06Z</time></trkpt><trkpt lat="59.0932320803" lon="29.9920115992"><ele>79.45</ele><time>2026-04-22T09:13:19Z</time></trkpt><trkpt lat="59.0932488441" lon="29.9922357313"><ele>79.45</ele><time>2026-04-22T09:13:30Z</time></trkpt><trkpt lat="59.0933251195" lon="29.9925159384"><ele>79.45</ele><time>2026-04-22T09:13:42Z</time></trkpt><trkpt lat="59.0933276340" lon="29.9925410841"><ele>79.45</ele><time>2026-04-22T09:13:43Z</time></trkpt><trkpt lat="59.0933407936" lon="29.9926388171"><ele>79.45</ele><time>2026-04-22T09:13:47Z</time></trkpt><trkpt lat="59.0933477506" lon="29.9926626217"><ele>79.45</ele><time>2026-04-22T09:13:48Z</time></trkpt><trkpt lat="59.0933530312" lon="29.9926881026"><ele>79.45</ele><time>2026-04-22T09:13:49Z</time></trkpt><trkpt lat="59.0933532827" lon="29.9927093089"><ele>79.45</ele><time>2026-04-22T09:13:50Z</time></trkpt><trkpt lat="59.0933541209" lon="29.9927312694"><ele>79.45</ele><time>2026-04-22T09:13:51Z</time></trkpt><trkpt lat="59.0933605749" lon="29.9927507993"><ele>79.45</ele><time>2026-04-22T09:13:52Z</time></trkpt><trkpt lat="59.0933617484" lon="29.9928994104"><ele>79.45</ele><time>2026-04-22T09:13:59Z</time></trkpt><trkpt lat="59.0933730640" lon="29.9930247199"><ele>79.45</ele><time>2026-04-22T09:14:05Z</time></trkpt><trkpt lat="59.0933941025" lon="29.9931097124"><ele>79.45</ele><time>2026-04-22T09:14:10Z</time></trkpt><trkpt lat="59.0933930967" lon="29.9931320921"><ele>79.45</ele><time>2026-04-22T09:14:11Z</time></trkpt><trkpt lat="59.0934354253" lon="29.9932838883"><ele>80.41</ele><time>2026-04-22T09:14:20Z</time></trkpt><trkpt lat="59.0934582241" lon="29.9934120476"><ele>79.45</ele><time>2026-04-22T09:14:30Z</time></trkpt><trkpt lat="59.0934494231" lon="29.9934396241"><ele>79.45</ele><time>2026-04-22T09:14:31Z</time></trkpt><trkpt lat="59.0934320726" lon="29.9935361836"><ele>78.97</ele><time>2026-04-22T09:14:41Z</time></trkpt><trkpt lat="59.0934230201" lon="29.9935378600"><ele>78.97</ele><time>2026-04-22T09:14:42Z</time></trkpt><trkpt lat="59.0933883190" lon="29.9935370218"><ele>78.97</ele><time>2026-04-22T09:14:52Z</time></trkpt><trkpt lat="59.0933667775" lon="29.9935136363"><ele>78.97</ele><time>2026-04-22T09:15:07Z</time></trkpt><trkpt lat="59.0933220182" lon="29.9934563041"><ele>78.97</ele><time>2026-04-22T09:15:16Z</time></trkpt><trkpt lat="59.0933138877" lon="29.9934395403"><ele>78.97</ele><time>2026-04-22T09:15:19Z</time></trkpt><trkpt lat="59.0932713915" lon="29.9933312461"><ele>78.97</ele><time>2026-04-22T09:15:31Z</time></trkpt><trkpt lat="59.0932308231" lon="29.9932230357"><ele>78.97</ele><time>2026-04-22T09:15:41Z</time></trkpt><trkpt lat="59.0931076929" lon="29.9932014104"><ele>78.97</ele><time>2026-04-22T09:15:53Z</time></trkpt><trkpt lat="59.0930602513" lon="29.9931636080"><ele>78.00</ele><time>2026-04-22T09:16:04Z</time></trkpt><trkpt lat="59.0930540487" lon="29.9931413960"><ele>78.00</ele><time>2026-04-22T09:16:06Z</time></trkpt><trkpt lat="59.0930561442" lon="29.9931030069"><ele>78.00</ele><time>2026-04-22T09:16:10Z</time></trkpt><trkpt lat="59.0930671245" lon="29.9930899311"><ele>78.00</ele><time>2026-04-22T09:16:14Z</time></trkpt><trkpt lat="59.0930438228" lon="29.9929023441"><ele>78.00</ele><time>2026-04-22T09:16:26Z</time></trkpt><trkpt lat="59.0929934476" lon="29.9928037729"><ele>78.00</ele><time>2026-04-22T09:16:36Z</time></trkpt><trkpt lat="59.0929514542" lon="29.9927430879"><ele>78.00</ele><time>2026-04-22T09:16:46Z</time></trkpt><trkpt lat="59.0928821359" lon="29.9926860910"><ele>78.97</ele><time>2026-04-22T09:16:59Z</time></trkpt><trkpt lat="59.0928065311" lon="29.9926764518"><ele>78.97</ele><time>2026-04-22T09:17:09Z</time></trkpt><trkpt lat="59.0927574132" lon="29.9926506355"><ele>78.97</ele><time>2026-04-22T09:17:29Z</time></trkpt><trkpt lat="59.0927295852" lon="29.9926457740"><ele>78.97</ele><time>2026-04-22T09:17:35Z</time></trkpt><trkpt lat="59.0927051939" lon="29.9926476181"><ele>78.97</ele><time>2026-04-22T09:17:37Z</time></trkpt><trkpt lat="59.0926420782" lon="29.9926467799"><ele>78.97</ele><time>2026-04-22T09:17:47Z</time></trkpt><trkpt lat="59.0926067065" lon="29.9925830774"><ele>78.97</ele><time>2026-04-22T09:17:57Z</time></trkpt><trkpt lat="59.0925079677" lon="29.9925384019"><ele>78.97</ele><time>2026-04-22T09:18:09Z</time></trkpt><trkpt lat="59.0924254060" lon="29.9925377313"><ele>78.97</ele><time>2026-04-22T09:18:19Z</time></trkpt><trkpt lat="59.0923650563" lon="29.9925285950"><ele>78.97</ele><time>2026-04-22T09:18:25Z</time></trkpt><trkpt lat="59.0922694188" lon="29.9925252423"><ele>78.48</ele><time>2026-04-22T09:18:37Z</time></trkpt><trkpt lat="59.0922243241" lon="29.9924602825"><ele>78.48</ele><time>2026-04-22T09:18:47Z</time></trkpt><trkpt lat="59.0921429358" lon="29.9924385734"><ele>78.48</ele><time>2026-04-22T09:18:57Z</time></trkpt><trkpt lat="59.0920502320" lon="29.9924128409"><ele>78.48</ele><time>2026-04-22T09:19:08Z</time></trkpt><trkpt lat="59.0919758007" lon="29.9924604502"><ele>78.48</ele><time>2026-04-22T09:19:20Z</time></trkpt><trkpt lat="59.0919543430" lon="29.9924156908"><ele>78.00</ele><time>2026-04-22T09:19:28Z</time></trkpt><trkpt lat="59.0918487310" lon="29.9923571013"><ele>78.00</ele><time>2026-04-22T09:19:37Z</time></trkpt><trkpt lat="59.0917592961" lon="29.9923302792"><ele>78.00</ele><time>2026-04-22T09:19:43Z</time></trkpt><trkpt lat="59.0917067416" lon="29.9923528265"><ele>78.48</ele><time>2026-04-22T09:19:54Z</time></trkpt><trkpt lat="59.0917024668" lon="29.9923499767"><ele>78.48</ele><time>2026-04-22T09:19:56Z</time></trkpt><trkpt lat="59.0915878024" lon="29.9923057202"><ele>78.48</ele><time>2026-04-22T09:20:08Z</time></trkpt><trkpt lat="59.0915038157" lon="29.9922377430"><ele>78.48</ele><time>2026-04-22T09:20:19Z</time></trkpt><trkpt lat="59.0914034005" lon="29.9922289420"><ele>78.48</ele><time>2026-04-22T09:20:28Z</time></trkpt><trkpt lat="59.0912812762" lon="29.9921984319"><ele>78.48</ele><time>2026-04-22T09:20:39Z</time></trkpt><trkpt lat="59.0912055876" lon="29.9921546783"><ele>78.97</ele><time>2026-04-22T09:20:50Z</time></trkpt><trkpt lat="59.0911637619" lon="29.9921215698"><ele>78.48</ele><time>2026-04-22T09:21:01Z</time></trkpt><trkpt lat="59.0910998080" lon="29.9921291135"><ele>78.48</ele><time>2026-04-22T09:21:12Z</time></trkpt><trkpt lat="59.0909886640" lon="29.9921083264"><ele>78.48</ele><time>2026-04-22T09:21:23Z</time></trkpt><trkpt lat="59.0909370314" lon="29.9920744635"><ele>78.48</ele><time>2026-04-22T09:21:35Z</time></trkpt><trkpt lat="59.0908527933" lon="29.9920400139"><ele>78.48</ele><time>2026-04-22T09:21:48Z</time></trkpt><trkpt lat="59.0907471813" lon="29.9920177180"><ele>78.48</ele><time>2026-04-22T09:21:59Z</time></trkpt><trkpt lat="59.0907009970" lon="29.9919581227"><ele>78.97</ele><time>2026-04-22T09:22:10Z</time></trkpt><trkpt lat="59.0906258952" lon="29.9919045623"><ele>78.97</ele><time>2026-04-22T09:22:21Z</time></trkpt><trkpt lat="59.0905703232" lon="29.9919219129"><ele>79.45</ele><time>2026-04-22T09:22:31Z</time></trkpt><trkpt lat="59.0905128233" lon="29.9919163808"><ele>79.45</ele><time>2026-04-22T09:22:41Z</time></trkpt><trkpt lat="59.0904585924" lon="29.9919105973"><ele>79.45</ele><time>2026-04-22T09:22:48Z</time></trkpt><trkpt lat="59.0903843287" lon="29.9918643292"><ele>79.45</ele><time>2026-04-22T09:22:59Z</time></trkpt><trkpt lat="59.0902974084" lon="29.9918686878"><ele>79.45</ele><time>2026-04-22T09:23:07Z</time></trkpt><trkpt lat="59.0902660601" lon="29.9918259401"><ele>79.45</ele><time>2026-04-22T09:23:18Z</time></trkpt><trkpt lat="59.0901646391" lon="29.9918110203"><ele>79.93</ele><time>2026-04-22T09:23:28Z</time></trkpt><trkpt lat="59.0900975000" lon="29.9917897303"><ele>79.93</ele><time>2026-04-22T09:23:39Z</time></trkpt><trkpt lat="59.0900222305" lon="29.9917471502"><ele>79.93</ele><time>2026-04-22T09:23:49Z</time></trkpt><trkpt lat="59.0899559297" lon="29.9917200767"><ele>79.93</ele><time>2026-04-22T09:24:00Z</time></trkpt><trkpt lat="59.0898795705" lon="29.9917119462"><ele>79.93</ele><time>2026-04-22T09:24:10Z</time></trkpt><trkpt lat="59.0898033790" lon="29.9916849565"><ele>79.93</ele><time>2026-04-22T09:24:20Z</time></trkpt><trkpt lat="59.0897180513" lon="29.9916511774"><ele>79.45</ele><time>2026-04-22T09:24:32Z</time></trkpt><trkpt lat="59.0895698592" lon="29.9915973656"><ele>79.45</ele><time>2026-04-22T09:24:44Z</time></trkpt><trkpt lat="59.0894599725" lon="29.9915607367"><ele>79.45</ele><time>2026-04-22T09:24:56Z</time></trkpt><trkpt lat="59.0893940069" lon="29.9915247783"><ele>79.45</ele><time>2026-04-22T09:25:08Z</time></trkpt><trkpt lat="59.0892526042" lon="29.9915148038"><ele>79.93</ele><time>2026-04-22T09:25:21Z</time></trkpt><trkpt lat="59.0891757421" lon="29.9914865568"><ele>80.41</ele><time>2026-04-22T09:25:33Z</time></trkpt><trkpt lat="59.0890916716" lon="29.9914291408"><ele>79.93</ele><time>2026-04-22T09:25:45Z</time></trkpt><trkpt lat="59.0889599081" lon="29.9913573079"><ele>80.41</ele><time>2026-04-22T09:25:56Z</time></trkpt><trkpt lat="59.0888750833" lon="29.9913281389"><ele>80.89</ele><time>2026-04-22T09:26:07Z</time></trkpt><trkpt lat="59.0887932759" lon="29.9913122132"><ele>80.89</ele><time>2026-04-22T09:26:17Z</time></trkpt><trkpt lat="59.0887102950" lon="29.9912656099"><ele>80.89</ele><time>2026-04-22T09:26:28Z</time></trkpt><trkpt lat="59.0886139870" lon="29.9912105408"><ele>81.37</ele><time>2026-04-22T09:26:39Z</time></trkpt><trkpt lat="59.0884903539" lon="29.9911978003"><ele>80.89</ele><time>2026-04-22T09:26:51Z</time></trkpt><trkpt lat="59.0884730872" lon="29.9912102893"><ele>80.89</ele><time>2026-04-22T09:26:53Z</time></trkpt><trkpt lat="59.0884238016" lon="29.9912053440"><ele>80.89</ele><time>2026-04-22T09:26:59Z</time></trkpt><trkpt lat="59.0883341990" lon="29.9911814556"><ele>80.89</ele><time>2026-04-22T09:27:10Z</time></trkpt><trkpt lat="59.0882839076" lon="29.9911196809"><ele>80.89</ele><time>2026-04-22T09:27:20Z</time></trkpt><trkpt lat="59.0882009268" lon="29.9910691381"><ele>80.41</ele><time>2026-04-22T09:27:31Z</time></trkpt><trkpt lat="59.0881407447" lon="29.9910495244"><ele>80.41</ele><time>2026-04-22T09:27:41Z</time></trkpt><trkpt lat="59.0881176945" lon="29.9910613429"><ele>80.41</ele><time>2026-04-22T09:27:46Z</time></trkpt><trkpt lat="59.0880192909" lon="29.9910518713"><ele>80.41</ele><time>2026-04-22T09:27:58Z</time></trkpt><trkpt lat="59.0879188757" lon="29.9910538830"><ele>79.93</ele><time>2026-04-22T09:28:08Z</time></trkpt><trkpt lat="59.0879077278" lon="29.9910502788"><ele>79.93</ele><time>2026-04-22T09:28:09Z</time></trkpt><trkpt lat="59.0877499804" lon="29.9909691419"><ele>79.93</ele><time>2026-04-22T09:28:21Z</time></trkpt><trkpt lat="59.0876222402" lon="29.9909090437"><ele>79.93</ele><time>2026-04-22T09:28:32Z</time></trkpt><trkpt lat="59.0876137745" lon="29.9909070320"><ele>79.93</ele><time>2026-04-22T09:28:33Z</time></trkpt><trkpt lat="59.0875176340" lon="29.9909103848"><ele>79.93</ele><time>2026-04-22T09:28:43Z</time></trkpt><trkpt lat="59.0874006227" lon="29.9909099657"><ele>79.45</ele><time>2026-04-22T09:28:55Z</time></trkpt><trkpt lat="59.0873255208" lon="29.9908674695"><ele>79.45</ele><time>2026-04-22T09:29:06Z</time></trkpt><trkpt lat="59.0872686077" lon="29.9908459280"><ele>79.45</ele><time>2026-04-22T09:29:17Z</time></trkpt><trkpt lat="59.0871353354" lon="29.9908231292"><ele>78.97</ele><time>2026-04-22T09:29:28Z</time></trkpt><trkpt lat="59.0870306455" lon="29.9907731730"><ele>78.00</ele><time>2026-04-22T09:29:39Z</time></trkpt><trkpt lat="59.0869512688" lon="29.9907067046"><ele>78.00</ele><time>2026-04-22T09:29:50Z</time></trkpt><trkpt lat="59.0869059227" lon="29.9907005019"><ele>77.52</ele><time>2026-04-22T09:30:01Z</time></trkpt><trkpt lat="59.0868541226" lon="29.9906972330"><ele>77.52</ele><time>2026-04-22T09:30:12Z</time></trkpt><trkpt lat="59.0867878217" lon="29.9906992447"><ele>77.52</ele><time>2026-04-22T09:30:25Z</time></trkpt><trkpt lat="59.0867018234" lon="29.9907245580"><ele>77.04</ele><time>2026-04-22T09:30:42Z</time></trkpt><trkpt lat="59.0866538789" lon="29.9906699080"><ele>77.04</ele><time>2026-04-22T09:30:58Z</time></trkpt><trkpt lat="59.0866525378" lon="29.9906637892"><ele>78.48</ele><time>2026-04-22T09:31:07Z</time></trkpt><trkpt lat="59.0866088681" lon="29.9906001706"><ele>78.48</ele><time>2026-04-22T09:31:33Z</time></trkpt><trkpt lat="59.0865993127" lon="29.9905767851"><ele>78.48</ele><time>2026-04-22T09:31:56Z</time></trkpt><trkpt lat="59.0865569841" lon="29.9905632064"><ele>78.48</ele><time>2026-04-22T09:32:15Z</time></trkpt><trkpt lat="59.0865372866" lon="29.9905670621"><ele>78.48</ele><time>2026-04-22T09:32:35Z</time></trkpt><trkpt lat="59.0865288209" lon="29.9905710015"><ele>78.48</ele><time>2026-04-22T09:32:37Z</time></trkpt><trkpt lat="59.0864667948" lon="29.9906309322"><ele>78.48</ele><time>2026-04-22T09:32:44Z</time></trkpt><trkpt lat="59.0864095464" lon="29.9906479474"><ele>78.48</ele><time>2026-04-22T09:32:53Z</time></trkpt><trkpt lat="59.0863118973" lon="29.9906344526"><ele>78.48</ele><time>2026-04-22T09:33:00Z</time></trkpt><trkpt lat="59.0862724185" lon="29.9906346202"><ele>78.48</ele><time>2026-04-22T09:33:03Z</time></trkpt><trkpt lat="59.0862398967" lon="29.9906062894"><ele>78.48</ele><time>2026-04-22T09:33:06Z</time></trkpt><trkpt lat="59.0861502104" lon="29.9905585125"><ele>78.48</ele><time>2026-04-22T09:33:13Z</time></trkpt><trkpt lat="59.0860220511" lon="29.9904757831"><ele>78.48</ele><time>2026-04-22T09:33:27Z</time></trkpt><trkpt lat="59.0859668981" lon="29.9904324487"><ele>78.48</ele><time>2026-04-22T09:33:37Z</time></trkpt><trkpt lat="59.0859088954" lon="29.9904149305"><ele>78.48</ele><time>2026-04-22T09:33:47Z</time></trkpt><trkpt lat="59.0858649742" lon="29.9904290121"><ele>78.48</ele><time>2026-04-22T09:33:51Z</time></trkpt><trkpt lat="59.0857733600" lon="29.9904072192"><ele>78.48</ele><time>2026-04-22T09:34:00Z</time></trkpt><trkpt lat="59.0857498907" lon="29.9904066324"><ele>78.48</ele><time>2026-04-22T09:34:03Z</time></trkpt><trkpt lat="59.0856418479" lon="29.9903784692"><ele>78.00</ele><time>2026-04-22T09:34:14Z</time></trkpt><trkpt lat="59.0856236592" lon="29.9903542455"><ele>78.00</ele><time>2026-04-22T09:34:17Z</time></trkpt><trkpt lat="59.0855697636" lon="29.9903267529"><ele>78.00</ele><time>2026-04-22T09:34:28Z</time></trkpt><trkpt lat="59.0855574422" lon="29.9903041217"><ele>78.00</ele><time>2026-04-22T09:34:31Z</time></trkpt><trkpt lat="59.0854380839" lon="29.9902741984"><ele>78.00</ele><time>2026-04-22T09:34:43Z</time></trkpt><trkpt lat="59.0853018779" lon="29.9902114179"><ele>78.00</ele><time>2026-04-22T09:34:56Z</time></trkpt><trkpt lat="59.0852606390" lon="29.9901845958"><ele>78.00</ele><time>2026-04-22T09:35:01Z</time></trkpt><trkpt lat="59.0851830225" lon="29.9901441950"><ele>78.00</ele><time>2026-04-22T09:35:11Z</time></trkpt><trkpt lat="59.0851214156" lon="29.9901287723"><ele>78.00</ele><time>2026-04-22T09:35:20Z</time></trkpt><trkpt lat="59.0851132851" lon="29.9901209772"><ele>78.00</ele><time>2026-04-22T09:35:23Z</time></trkpt><trkpt lat="59.0850890614" lon="29.9901027046"><ele>78.00</ele><time>2026-04-22T09:35:25Z</time></trkpt><trkpt lat="59.0850588027" lon="29.9900842644"><ele>78.00</ele><time>2026-04-22T09:35:27Z</time></trkpt><trkpt lat="59.0849700384" lon="29.9900578614"><ele>77.52</ele><time>2026-04-22T09:35:36Z</time></trkpt><trkpt lat="59.0849230997" lon="29.9900473002"><ele>77.52</ele><time>2026-04-22T09:35:46Z</time></trkpt><trkpt lat="59.0848481655" lon="29.9900333863"><ele>77.52</ele><time>2026-04-22T09:35:57Z</time></trkpt><trkpt lat="59.0848008916" lon="29.9900089949"><ele>77.52</ele><time>2026-04-22T09:36:09Z</time></trkpt><trkpt lat="59.0847071819" lon="29.9899736233"><ele>77.52</ele><time>2026-04-22T09:36:21Z</time></trkpt><trkpt lat="59.0846927650" lon="29.9899572786"><ele>77.52</ele><time>2026-04-22T09:36:24Z</time></trkpt><trkpt lat="59.0845657792" lon="29.9899149500"><ele>77.52</ele><time>2026-04-22T09:36:32Z</time></trkpt><trkpt lat="59.0845174994" lon="29.9899004493"><ele>77.52</ele><time>2026-04-22T09:36:40Z</time></trkpt><trkpt lat="59.0844843909" lon="29.9898196477"><ele>77.52</ele><time>2026-04-22T09:36:51Z</time></trkpt><trkpt lat="59.0844654478" lon="29.9897945020"><ele>77.52</ele><time>2026-04-22T09:37:01Z</time></trkpt><trkpt lat="59.0844130609" lon="29.9896753952"><ele>77.04</ele><time>2026-04-22T09:37:11Z</time></trkpt><trkpt lat="59.0844030026" lon="29.9896019697"><ele>77.04</ele><time>2026-04-22T09:37:27Z</time></trkpt><trkpt lat="59.0843232069" lon="29.9895018898"><ele>77.04</ele><time>2026-04-22T09:37:40Z</time></trkpt><trkpt lat="59.0842035972" lon="29.9894131254"><ele>77.04</ele><time>2026-04-22T09:37:55Z</time></trkpt><trkpt lat="59.0840585902" lon="29.9893735629"><ele>77.04</ele><time>2026-04-22T09:38:07Z</time></trkpt><trkpt lat="59.0840103943" lon="29.9893911649"><ele>77.04</ele><time>2026-04-22T09:38:18Z</time></trkpt><trkpt lat="59.0839194506" lon="29.9893223494"><ele>77.04</ele><time>2026-04-22T09:38:30Z</time></trkpt><trkpt lat="59.0838641301" lon="29.9893324915"><ele>77.52</ele><time>2026-04-22T09:38:43Z</time></trkpt><trkpt lat="59.0838285070" lon="29.9894330744"><ele>77.52</ele><time>2026-04-22T09:38:54Z</time></trkpt><trkpt lat="59.0838682372" lon="29.9895624071"><ele>77.52</ele><time>2026-04-22T09:39:06Z</time></trkpt><trkpt lat="59.0838506352" lon="29.9895923305"><ele>77.52</ele><time>2026-04-22T09:39:11Z</time></trkpt><trkpt lat="59.0837819036" lon="29.9897319730"><ele>77.52</ele><time>2026-04-22T09:39:22Z</time></trkpt><trkpt lat="59.0837171115" lon="29.9897467252"><ele>77.52</ele><time>2026-04-22T09:39:34Z</time></trkpt><trkpt lat="59.0836627968" lon="29.9896884710"><ele>77.52</ele><time>2026-04-22T09:39:46Z</time></trkpt><trkpt lat="59.0836370643" lon="29.9896530993"><ele>77.52</ele><time>2026-04-22T09:39:51Z</time></trkpt><trkpt lat="59.0835610405" lon="29.9896284565"><ele>77.52</ele><time>2026-04-22T09:40:01Z</time></trkpt><trkpt lat="59.0834555123" lon="29.9896374252"><ele>77.52</ele><time>2026-04-22T09:40:10Z</time></trkpt><trkpt lat="59.0833928157" lon="29.9896190688"><ele>77.52</ele><time>2026-04-22T09:40:24Z</time></trkpt><trkpt lat="59.0833379980" lon="29.9895998742"><ele>77.52</ele><time>2026-04-22T09:40:35Z</time></trkpt><trkpt lat="59.0833274368" lon="29.9896156322"><ele>77.52</ele><time>2026-04-22T09:40:56Z</time></trkpt><trkpt lat="59.0833255928" lon="29.9896399397"><ele>77.52</ele><time>2026-04-22T09:41:17Z</time></trkpt><trkpt lat="59.0833223239" lon="29.9896489922"><ele>77.52</ele><time>2026-04-22T09:41:35Z</time></trkpt><trkpt lat="59.0833220724" lon="29.9896507524"><ele>77.52</ele><time>2026-04-22T09:41:56Z</time></trkpt><trkpt lat="59.0833228268" lon="29.9896480702"><ele>77.52</ele><time>2026-04-22T09:42:19Z</time></trkpt><trkpt lat="59.0833245870" lon="29.9896553624"><ele>77.52</ele><time>2026-04-22T09:42:41Z</time></trkpt><trkpt lat="59.0833297838" lon="29.9896570388"><ele>78.48</ele><time>2026-04-22T09:43:01Z</time></trkpt><trkpt lat="59.0833281074" lon="29.9896604754"><ele>78.48</ele><time>2026-04-22T09:43:18Z</time></trkpt><trkpt lat="59.0833265986" lon="29.9896672647"><ele>78.48</ele><time>2026-04-22T09:43:34Z</time></trkpt><trkpt lat="59.0833285265" lon="29.9896376766"><ele>78.48</ele><time>2026-04-22T09:43:50Z</time></trkpt><trkpt lat="59.0833281912" lon="29.9896339048"><ele>78.48</ele><time>2026-04-22T09:44:13Z</time></trkpt><trkpt lat="59.0833224915" lon="29.9896266125"><ele>78.48</ele><time>2026-04-22T09:44:36Z</time></trkpt><trkpt lat="59.0833165403" lon="29.9896329828"><ele>78.97</ele><time>2026-04-22T09:44:57Z</time></trkpt><trkpt lat="59.0833090805" lon="29.9896294624"><ele>78.00</ele><time>2026-04-22T09:45:21Z</time></trkpt><trkpt lat="59.0832711104" lon="29.9896337371"><ele>78.00</ele><time>2026-04-22T09:45:39Z</time></trkpt><trkpt lat="59.0832203999" lon="29.9895816017"><ele>78.00</ele><time>2026-04-22T09:45:50Z</time></trkpt><trkpt lat="59.0831472259" lon="29.9895391893"><ele>78.00</ele><time>2026-04-22T09:45:59Z</time></trkpt><trkpt lat="59.0830669273" lon="29.9895447213"><ele>78.97</ele><time>2026-04-22T09:46:11Z</time></trkpt><trkpt lat="59.0829935856" lon="29.9895019736"><ele>78.97</ele><time>2026-04-22T09:46:22Z</time></trkpt><trkpt lat="59.0828742273" lon="29.9894560408"><ele>78.97</ele><time>2026-04-22T09:46:32Z</time></trkpt><trkpt lat="59.0827730577" lon="29.9894463178"><ele>78.97</ele><time>2026-04-22T09:46:42Z</time></trkpt><trkpt lat="59.0827153064" lon="29.9893577211"><ele>78.97</ele><time>2026-04-22T09:46:53Z</time></trkpt><trkpt lat="59.0826279670" lon="29.9892998021"><ele>78.97</ele><time>2026-04-22T09:47:05Z</time></trkpt><trkpt lat="59.0825932659" lon="29.9892482534"><ele>79.45</ele><time>2026-04-22T09:47:16Z</time></trkpt><trkpt lat="59.0825513564" lon="29.9892355967"><ele>79.93</ele><time>2026-04-22T09:47:25Z</time></trkpt><trkpt lat="59.0824321657" lon="29.9892563000"><ele>79.93</ele><time>2026-04-22T09:47:36Z</time></trkpt><trkpt lat="59.0823066048" lon="29.9892409611"><ele>79.93</ele><time>2026-04-22T09:47:48Z</time></trkpt><trkpt lat="59.0822124761" lon="29.9891890772"><ele>79.45</ele><time>2026-04-22T09:48:00Z</time></trkpt><trkpt lat="59.0821740031" lon="29.9891826231"><ele>79.45</ele><time>2026-04-22T09:48:06Z</time></trkpt><trkpt lat="59.0820506215" lon="29.9892049190"><ele>79.93</ele><time>2026-04-22T09:48:18Z</time></trkpt><trkpt lat="59.0819327720" lon="29.9891838804"><ele>79.93</ele><time>2026-04-22T09:48:31Z</time></trkpt><trkpt lat="59.0818274114" lon="29.9892209284"><ele>79.93</ele><time>2026-04-22T09:48:44Z</time></trkpt><trkpt lat="59.0817450173" lon="29.9891350977"><ele>79.93</ele><time>2026-04-22T09:48:55Z</time></trkpt><trkpt lat="59.0816843323" lon="29.9891129695"><ele>79.93</ele><time>2026-04-22T09:49:01Z</time></trkpt><trkpt lat="59.0815593582" lon="29.9890973791"><ele>79.93</ele><time>2026-04-22T09:49:13Z</time></trkpt><trkpt lat="59.0814343002" lon="29.9890179187"><ele>79.93</ele><time>2026-04-22T09:49:25Z</time></trkpt><trkpt lat="59.0813266765" lon="29.9889668729"><ele>79.93</ele><time>2026-04-22T09:49:38Z</time></trkpt><trkpt lat="59.0812661592" lon="29.9889369495"><ele>79.93</ele><time>2026-04-22T09:49:48Z</time></trkpt><trkpt lat="59.0811986849" lon="29.9888962135"><ele>79.93</ele><time>2026-04-22T09:49:54Z</time></trkpt><trkpt lat="59.0810839366" lon="29.9888744205"><ele>78.97</ele><time>2026-04-22T09:50:08Z</time></trkpt><trkpt lat="59.0809550229" lon="29.9888758454"><ele>78.00</ele><time>2026-04-22T09:50:22Z</time></trkpt><trkpt lat="59.0808230080" lon="29.9888206925"><ele>78.00</ele><time>2026-04-22T09:50:34Z</time></trkpt><trkpt lat="59.0807131212" lon="29.9888143223"><ele>77.52</ele><time>2026-04-22T09:50:47Z</time></trkpt><trkpt lat="59.0806105267" lon="29.9887930322"><ele>77.52</ele><time>2026-04-22T09:50:58Z</time></trkpt><trkpt lat="59.0805578046" lon="29.9887496140"><ele>77.52</ele><time>2026-04-22T09:51:05Z</time></trkpt><trkpt lat="59.0805318207" lon="29.9887186009"><ele>77.52</ele><time>2026-04-22T09:51:09Z</time></trkpt><trkpt lat="59.0804522764" lon="29.9886725005"><ele>77.52</ele><time>2026-04-22T09:51:21Z</time></trkpt><trkpt lat="59.0803386178" lon="29.9886516295"><ele>77.52</ele><time>2026-04-22T09:51:31Z</time></trkpt><trkpt lat="59.0803023241" lon="29.9886561558"><ele>77.52</ele><time>2026-04-22T09:51:35Z</time></trkpt><trkpt lat="59.0802092012" lon="29.9886144977"><ele>77.52</ele><time>2026-04-22T09:51:46Z</time></trkpt><trkpt lat="59.0801262204" lon="29.9886087980"><ele>77.52</ele><time>2026-04-22T09:51:54Z</time></trkpt><trkpt lat="59.0800580755" lon="29.9885724206"><ele>77.52</ele><time>2026-04-22T09:52:00Z</time></trkpt><trkpt lat="59.0800249670" lon="29.9885770306"><ele>77.52</ele><time>2026-04-22T09:52:03Z</time></trkpt><trkpt lat="59.0799066145" lon="29.9884936307"><ele>77.52</ele><time>2026-04-22T09:52:16Z</time></trkpt><trkpt lat="59.0798110608" lon="29.9884510506"><ele>78.48</ele><time>2026-04-22T09:52:26Z</time></trkpt><trkpt lat="59.0797316842" lon="29.9884368014"><ele>78.48</ele><time>2026-04-22T09:52:36Z</time></trkpt><trkpt lat="59.0797052812" lon="29.9884015135"><ele>78.48</ele><time>2026-04-22T09:52:39Z</time></trkpt><trkpt lat="59.0796476975" lon="29.9883781280"><ele>78.48</ele><time>2026-04-22T09:52:45Z</time></trkpt><trkpt lat="59.0795631241" lon="29.9883674830"><ele>78.48</ele><time>2026-04-22T09:52:57Z</time></trkpt><trkpt lat="59.0795502998" lon="29.9883644655"><ele>78.48</ele><time>2026-04-22T09:53:05Z</time></trkpt><trkpt lat="59.0794505551" lon="29.9883869290"><ele>78.48</ele><time>2026-04-22T09:53:16Z</time></trkpt><trkpt lat="59.0793122537" lon="29.9883413315"><ele>78.48</ele><time>2026-04-22T09:53:27Z</time></trkpt><trkpt lat="59.0793000162" lon="29.9883311894"><ele>79.45</ele><time>2026-04-22T09:53:44Z</time></trkpt><trkpt lat="59.0792924725" lon="29.9883197900"><ele>79.93</ele><time>2026-04-22T09:54:13Z</time></trkpt><trkpt lat="59.0792850126" lon="29.9883182812"><ele>79.93</ele><time>2026-04-22T09:54:47Z</time></trkpt><trkpt lat="59.0792777203" lon="29.9883248191"><ele>79.93</ele><time>2026-04-22T09:55:08Z</time></trkpt><trkpt lat="59.0792720206" lon="29.9883230589"><ele>80.41</ele><time>2026-04-22T09:55:31Z</time></trkpt><trkpt lat="59.0792022832" lon="29.9882840831"><ele>80.41</ele><time>2026-04-22T09:55:42Z</time></trkpt><trkpt lat="59.0790917259" lon="29.9882430956"><ele>80.41</ele><time>2026-04-22T09:55:55Z</time></trkpt><trkpt lat="59.0789631475" lon="29.9881736096"><ele>80.41</ele><time>2026-04-22T09:56:08Z</time></trkpt><trkpt lat="59.0788741317" lon="29.9881254137"><ele>80.41</ele><time>2026-04-22T09:56:19Z</time></trkpt><trkpt lat="59.0787827689" lon="29.9881496374"><ele>80.41</ele><time>2026-04-22T09:56:31Z</time></trkpt><trkpt lat="59.0787115227" lon="29.9881383218"><ele>80.41</ele><time>2026-04-22T09:56:43Z</time></trkpt><trkpt lat="59.0786802582" lon="29.9881187081"><ele>80.41</ele><time>2026-04-22T09:56:49Z</time></trkpt><trkpt lat="59.0785925835" lon="29.9881047104"><ele>80.41</ele><time>2026-04-22T09:57:00Z</time></trkpt><trkpt lat="59.0785227623" lon="29.9880966637"><ele>78.97</ele><time>2026-04-22T09:57:11Z</time></trkpt><trkpt lat="59.0785036515" lon="29.9881015252"><ele>78.97</ele><time>2026-04-22T09:57:44Z</time></trkpt><trkpt lat="59.0784892347" lon="29.9880843423"><ele>78.97</ele><time>2026-04-22T09:58:05Z</time></trkpt><trkpt lat="59.0784817748" lon="29.9880669080"><ele>78.97</ele><time>2026-04-22T09:58:26Z</time></trkpt><trkpt lat="59.0784777515" lon="29.9880491383"><ele>78.97</ele><time>2026-04-22T09:58:54Z</time></trkpt><trkpt lat="59.0784814395" lon="29.9880493898"><ele>78.97</ele><time>2026-04-22T09:59:19Z</time></trkpt><trkpt lat="59.0784801822" lon="29.9880643934"><ele>78.97</ele><time>2026-04-22T09:59:51Z</time></trkpt><trkpt lat="59.0784759913" lon="29.9880724400"><ele>80.41</ele><time>2026-04-22T10:00:01Z</time></trkpt><trkpt lat="59.0784785897" lon="29.9880908802"><ele>80.41</ele><time>2026-04-22T10:00:18Z</time></trkpt><trkpt lat="59.0784733091" lon="29.9881056324"><ele>80.41</ele><time>2026-04-22T10:00:44Z</time></trkpt><trkpt lat="59.0784692857" lon="29.9881143495"><ele>80.41</ele><time>2026-04-22T10:01:07Z</time></trkpt><trkpt lat="59.0784756560" lon="29.9881286826"><ele>80.41</ele><time>2026-04-22T10:01:12Z</time></trkpt><trkpt lat="59.0784766618" lon="29.9881739449"><ele>80.41</ele><time>2026-04-22T10:01:15Z</time></trkpt><trkpt lat="59.0784724709" lon="29.9882801436"><ele>80.41</ele><time>2026-04-22T10:01:27Z</time></trkpt><trkpt lat="59.0784360934" lon="29.9884136673"><ele>80.41</ele><time>2026-04-22T10:01:36Z</time></trkpt><trkpt lat="59.0784113668" lon="29.9885195307"><ele>80.41</ele><time>2026-04-22T10:01:44Z</time></trkpt><trkpt lat="59.0783885680" lon="29.9886478577"><ele>79.93</ele><time>2026-04-22T10:01:53Z</time></trkpt><trkpt lat="59.0783770848" lon="29.9886885099"><ele>79.93</ele><time>2026-04-22T10:01:55Z</time></trkpt><trkpt lat="59.0783507656" lon="29.9887837283"><ele>79.93</ele><time>2026-04-22T10:02:01Z</time></trkpt><trkpt lat="59.0782762505" lon="29.9888729118"><ele>79.45</ele><time>2026-04-22T10:02:15Z</time></trkpt><trkpt lat="59.0782630071" lon="29.9889610894"><ele>79.45</ele><time>2026-04-22T10:02:26Z</time></trkpt><trkpt lat="59.0782387834" lon="29.9890506919"><ele>79.45</ele><time>2026-04-22T10:02:35Z</time></trkpt><trkpt lat="59.0782267135" lon="29.9890739098"><ele>79.45</ele><time>2026-04-22T10:02:39Z</time></trkpt><trkpt lat="59.0782299824" lon="29.9892735668"><ele>79.45</ele><time>2026-04-22T10:02:52Z</time></trkpt><trkpt lat="59.0782590676" lon="29.9893952720"><ele>79.45</ele><time>2026-04-22T10:03:03Z</time></trkpt><trkpt lat="59.0782743227" lon="29.9894487485"><ele>79.45</ele><time>2026-04-22T10:03:08Z</time></trkpt><trkpt lat="59.0783073474" lon="29.9896014668"><ele>79.45</ele><time>2026-04-22T10:03:21Z</time></trkpt><trkpt lat="59.0783118736" lon="29.9896152131"><ele>78.97</ele><time>2026-04-22T10:03:33Z</time></trkpt><trkpt lat="59.0782891586" lon="29.9896681029"><ele>78.97</ele><time>2026-04-22T10:03:41Z</time></trkpt><trkpt lat="59.0782309044" lon="29.9897507485"><ele>78.97</ele><time>2026-04-22T10:03:51Z</time></trkpt><trkpt lat="59.0781998076" lon="29.9897922389"><ele>78.97</ele><time>2026-04-22T10:04:01Z</time></trkpt><trkpt lat="59.0781789366" lon="29.9898234196"><ele>78.97</ele><time>2026-04-22T10:04:08Z</time></trkpt><trkpt lat="59.0781673696" lon="29.9899103399"><ele>78.97</ele><time>2026-04-22T10:04:22Z</time></trkpt><trkpt lat="59.0781630110" lon="29.9899612181"><ele>78.97</ele><time>2026-04-22T10:04:36Z</time></trkpt><trkpt lat="59.0781589039" lon="29.9900235794"><ele>78.97</ele><time>2026-04-22T10:05:05Z</time></trkpt><trkpt lat="59.0781857260" lon="29.9900601245"><ele>78.48</ele><time>2026-04-22T10:05:35Z</time></trkpt><trkpt lat="59.0781850554" lon="29.9900922272"><ele>78.48</ele><time>2026-04-22T10:06:02Z</time></trkpt><trkpt lat="59.0781874023" lon="29.9900885392"><ele>79.45</ele><time>2026-04-22T10:06:37Z</time></trkpt><trkpt lat="59.0782023221" lon="29.9901098292"><ele>79.45</ele><time>2026-04-22T10:07:07Z</time></trkpt><trkpt lat="59.0782092791" lon="29.9901189655"><ele>79.45</ele><time>2026-04-22T10:07:29Z</time></trkpt><trkpt lat="59.0782054234" lon="29.9901491404"><ele>78.97</ele><time>2026-04-22T10:07:45Z</time></trkpt><trkpt lat="59.0781966224" lon="29.9902023654"><ele>78.97</ele><time>2026-04-22T10:07:56Z</time></trkpt><trkpt lat="59.0781987179" lon="29.9902486335"><ele>78.97</ele><time>2026-04-22T10:08:08Z</time></trkpt><trkpt lat="59.0781753324" lon="29.9903426785"><ele>78.97</ele><time>2026-04-22T10:08:21Z</time></trkpt><trkpt lat="59.0781651065" lon="29.9904317781"><ele>78.97</ele><time>2026-04-22T10:08:34Z</time></trkpt><trkpt lat="59.0781636816" lon="29.9904884398"><ele>78.97</ele><time>2026-04-22T10:08:46Z</time></trkpt><trkpt lat="59.0781585686" lon="29.9905747734"><ele>78.97</ele><time>2026-04-22T10:08:59Z</time></trkpt><trkpt lat="59.0781288967" lon="29.9906650465"><ele>78.97</ele><time>2026-04-22T10:09:09Z</time></trkpt><trkpt lat="59.0781112947" lon="29.9907302577"><ele>79.45</ele><time>2026-04-22T10:09:21Z</time></trkpt><trkpt lat="59.0781076066" lon="29.9907771125"><ele>79.45</ele><time>2026-04-22T10:09:32Z</time></trkpt><trkpt lat="59.0780983865" lon="29.9908048566"><ele>79.45</ele><time>2026-04-22T10:09:47Z</time></trkpt><trkpt lat="59.0780991409" lon="29.9908399768"><ele>79.45</ele><time>2026-04-22T10:09:59Z</time></trkpt><trkpt lat="59.0780906752" lon="29.9908909388"><ele>78.97</ele><time>2026-04-22T10:10:13Z</time></trkpt><trkpt lat="59.0780575667" lon="29.9909509532"><ele>78.97</ele><time>2026-04-22T10:10:25Z</time></trkpt><trkpt lat="59.0780608356" lon="29.9910006579"><ele>78.97</ele><time>2026-04-22T10:10:37Z</time></trkpt><trkpt lat="59.0780480113" lon="29.9910198525"><ele>78.97</ele><time>2026-04-22T10:10:48Z</time></trkpt><trkpt lat="59.0780312475" lon="29.9910553917"><ele>78.97</ele><time>2026-04-22T10:11:05Z</time></trkpt><trkpt lat="59.0780117176" lon="29.9911173340"><ele>78.97</ele><time>2026-04-22T10:11:24Z</time></trkpt><trkpt lat="59.0780208539" lon="29.9911685474"><ele>78.97</ele><time>2026-04-22T10:11:40Z</time></trkpt><trkpt lat="59.0780117176" lon="29.9912300706"><ele>78.97</ele><time>2026-04-22T10:11:54Z</time></trkpt><trkpt lat="59.0780164953" lon="29.9912643526"><ele>78.00</ele><time>2026-04-22T10:12:11Z</time></trkpt><trkpt lat="59.0780175850" lon="29.9912598263"><ele>78.00</ele><time>2026-04-22T10:12:12Z</time></trkpt><trkpt lat="59.0780055150" lon="29.9913143087"><ele>78.00</ele><time>2026-04-22T10:12:24Z</time></trkpt><trkpt lat="59.0780214407" lon="29.9913441483"><ele>78.00</ele><time>2026-04-22T10:12:44Z</time></trkpt><trkpt lat="59.0780313313" lon="29.9913508538"><ele>78.00</ele><time>2026-04-22T10:13:00Z</time></trkpt><trkpt lat="59.0780318342" lon="29.9913533684"><ele>78.00</ele><time>2026-04-22T10:13:11Z</time></trkpt><trkpt lat="59.0779966302" lon="29.9913884047"><ele>78.00</ele><time>2026-04-22T10:13:22Z</time></trkpt><trkpt lat="59.0779843088" lon="29.9913955294"><ele>78.00</ele><time>2026-04-22T10:13:47Z</time></trkpt><trkpt lat="59.0779934451" lon="29.9914667755"><ele>78.00</ele><time>2026-04-22T10:13:59Z</time></trkpt><trkpt lat="59.0779685508" lon="29.9915135466"><ele>78.97</ele><time>2026-04-22T10:14:10Z</time></trkpt><trkpt lat="59.0779650304" lon="29.9915436376"><ele>78.97</ele><time>2026-04-22T10:14:23Z</time></trkpt><trkpt lat="59.0779289044" lon="29.9916189071"><ele>78.97</ele><time>2026-04-22T10:14:37Z</time></trkpt><trkpt lat="59.0778877493" lon="29.9917116947"><ele>78.00</ele><time>2026-04-22T10:14:54Z</time></trkpt><trkpt lat="59.0778651182" lon="29.9917770736"><ele>78.00</ele><time>2026-04-22T10:15:15Z</time></trkpt><trkpt lat="59.0778504498" lon="29.9917885568"><ele>78.00</ele><time>2026-04-22T10:15:42Z</time></trkpt><trkpt lat="59.0778465103" lon="29.9917940889"><ele>78.00</ele><time>2026-04-22T10:16:07Z</time></trkpt><trkpt lat="59.0778338537" lon="29.9917941727"><ele>78.00</ele><time>2026-04-22T10:16:25Z</time></trkpt><trkpt lat="59.0778208617" lon="29.9918208271"><ele>78.00</ele><time>2026-04-22T10:16:41Z</time></trkpt><trkpt lat="59.0777898487" lon="29.9918569531"><ele>78.00</ele><time>2026-04-22T10:16:54Z</time></trkpt><trkpt lat="59.0777643677" lon="29.9919365812"><ele>78.00</ele><time>2026-04-22T10:17:08Z</time></trkpt><trkpt lat="59.0777212847" lon="29.9920626450"><ele>78.00</ele><time>2026-04-22T10:17:18Z</time></trkpt><trkpt lat="59.0776416566" lon="29.9923022836"><ele>79.45</ele><time>2026-04-22T10:17:31Z</time></trkpt><trkpt lat="59.0775692370" lon="29.9924668204"><ele>79.45</ele><time>2026-04-22T10:17:45Z</time></trkpt><trkpt lat="59.0774709173" lon="29.9926510546"><ele>79.45</ele><time>2026-04-22T10:17:57Z</time></trkpt><trkpt lat="59.0774177760" lon="29.9927871767"><ele>79.45</ele><time>2026-04-22T10:18:08Z</time></trkpt><trkpt lat="59.0773513075" lon="29.9929823074"><ele>79.45</ele><time>2026-04-22T10:18:22Z</time></trkpt><trkpt lat="59.0773472842" lon="29.9930013344"><ele>80.41</ele><time>2026-04-22T10:18:43Z</time></trkpt><trkpt lat="59.0773535706" lon="29.9930277374"><ele>80.89</ele><time>2026-04-22T10:19:03Z</time></trkpt><trkpt lat="59.0774183627" lon="29.9931002408"><ele>80.89</ele><time>2026-04-22T10:19:14Z</time></trkpt><trkpt lat="59.0775469411" lon="29.9932503607"><ele>80.89</ele><time>2026-04-22T10:19:27Z</time></trkpt><trkpt lat="59.0776605997" lon="29.9933787715"><ele>80.89</ele><time>2026-04-22T10:19:39Z</time></trkpt><trkpt lat="59.0776925348" lon="29.9934856407"><ele>80.89</ele><time>2026-04-22T10:19:54Z</time></trkpt><trkpt lat="59.0777329355" lon="29.9935340881"><ele>80.89</ele><time>2026-04-22T10:20:10Z</time></trkpt><trkpt lat="59.0777508728" lon="29.9935736507"><ele>80.89</ele><time>2026-04-22T10:20:27Z</time></trkpt><trkpt lat="59.0777579136" lon="29.9935810268"><ele>80.89</ele><time>2026-04-22T10:20:34Z</time></trkpt><trkpt lat="59.0777231287" lon="29.9936598167"><ele>80.89</ele><time>2026-04-22T10:20:44Z</time></trkpt><trkpt lat="59.0777460113" lon="29.9937299732"><ele>80.89</ele><time>2026-04-22T10:20:56Z</time></trkpt><trkpt lat="59.0777411498" lon="29.9938576296"><ele>80.41</ele><time>2026-04-22T10:21:09Z</time></trkpt><trkpt lat="59.0777035151" lon="29.9940532632"><ele>80.41</ele><time>2026-04-22T10:21:21Z</time></trkpt><trkpt lat="59.0777025092" lon="29.9941228330"><ele>80.41</ele><time>2026-04-22T10:21:27Z</time></trkpt><trkpt lat="59.0776965581" lon="29.9941552710"><ele>80.41</ele><time>2026-04-22T10:21:29Z</time></trkpt><trkpt lat="59.0776154213" lon="29.9943096656"><ele>80.41</ele><time>2026-04-22T10:21:42Z</time></trkpt><trkpt lat="59.0775940474" lon="29.9942851067"><ele>80.89</ele><time>2026-04-22T10:21:57Z</time></trkpt><trkpt lat="59.0775825642" lon="29.9942835979"><ele>80.89</ele><time>2026-04-22T10:21:59Z</time></trkpt><trkpt lat="59.0775376372" lon="29.9944125954"><ele>80.89</ele><time>2026-04-22T10:22:10Z</time></trkpt><trkpt lat="59.0775114857" lon="29.9944706820"><ele>80.89</ele><time>2026-04-22T10:22:14Z</time></trkpt><trkpt lat="59.0774568357" lon="29.9945558421"><ele>80.89</ele><time>2026-04-22T10:22:25Z</time></trkpt><trkpt lat="59.0773797221" lon="29.9946230650"><ele>80.89</ele><time>2026-04-22T10:22:36Z</time></trkpt><trkpt lat="59.0772970766" lon="29.9947265815"><ele>80.89</ele><time>2026-04-22T10:22:46Z</time></trkpt><trkpt lat="59.0772023611" lon="29.9948407430"><ele>80.89</ele><time>2026-04-22T10:22:57Z</time></trkpt><trkpt lat="59.0771850105" lon="29.9949626159"><ele>80.89</ele><time>2026-04-22T10:23:07Z</time></trkpt><trkpt lat="59.0771389939" lon="29.9951828923"><ele>80.89</ele><time>2026-04-22T10:23:19Z</time></trkpt><trkpt lat="59.0771045443" lon="29.9952626880"><ele>80.89</ele><time>2026-04-22T10:23:27Z</time></trkpt><trkpt lat="59.0770142712" lon="29.9953112192"><ele>80.89</ele><time>2026-04-22T10:23:38Z</time></trkpt><trkpt lat="59.0769839287" lon="29.9953594152"><ele>81.37</ele><time>2026-04-22T10:23:50Z</time></trkpt><trkpt lat="59.0769847669" lon="29.9953999836"><ele>81.37</ele><time>2026-04-22T10:24:09Z</time></trkpt><trkpt lat="59.0770397522" lon="29.9954972137"><ele>81.37</ele><time>2026-04-22T10:24:20Z</time></trkpt><trkpt lat="59.0770486370" lon="29.9955045898"><ele>81.37</ele><time>2026-04-22T10:24:21Z</time></trkpt><trkpt lat="59.0771431848" lon="29.9955894146"><ele>81.37</ele><time>2026-04-22T10:24:31Z</time></trkpt><trkpt lat="59.0772212204" lon="29.9955619220"><ele>81.37</ele><time>2026-04-22T10:24:39Z</time></trkpt><trkpt lat="59.0773051232" lon="29.9954381213"><ele>81.37</ele><time>2026-04-22T10:24:50Z</time></trkpt><trkpt lat="59.0773979109" lon="29.9953242950"><ele>81.85</ele><time>2026-04-22T10:25:03Z</time></trkpt><trkpt lat="59.0774173569" lon="29.9952924438"><ele>81.85</ele><time>2026-04-22T10:25:06Z</time></trkpt><trkpt lat="59.0774656367" lon="29.9951296672"><ele>81.85</ele><time>2026-04-22T10:25:18Z</time></trkpt><trkpt lat="59.0775129944" lon="29.9950697366"><ele>81.85</ele><time>2026-04-22T10:25:27Z</time></trkpt><trkpt lat="59.0775393136" lon="29.9950939603"><ele>81.85</ele><time>2026-04-22T10:25:42Z</time></trkpt><trkpt lat="59.0775519703" lon="29.9951208662"><ele>81.85</ele><time>2026-04-22T10:25:47Z</time></trkpt><trkpt lat="59.0775677282" lon="29.9951474369"><ele>81.85</ele><time>2026-04-22T10:25:49Z</time></trkpt><trkpt lat="59.0775988251" lon="29.9952351116"><ele>81.85</ele><time>2026-04-22T10:25:56Z</time></trkpt><trkpt lat="59.0776217915" lon="29.9953507818"><ele>81.85</ele><time>2026-04-22T10:26:02Z</time></trkpt><trkpt lat="59.0776615217" lon="29.9955154862"><ele>82.33</ele><time>2026-04-22T10:26:13Z</time></trkpt><trkpt lat="59.0776854102" lon="29.9956230260"><ele>82.33</ele><time>2026-04-22T10:26:20Z</time></trkpt><trkpt lat="59.0776861645" lon="29.9957005586"><ele>82.33</ele><time>2026-04-22T10:26:23Z</time></trkpt><trkpt lat="59.0777317621" lon="29.9958134629"><ele>82.33</ele><time>2026-04-22T10:26:32Z</time></trkpt><trkpt lat="59.0777335223" lon="29.9958727229"><ele>82.33</ele><time>2026-04-22T10:26:35Z</time></trkpt><trkpt lat="59.0777546447" lon="29.9959396105"><ele>80.89</ele><time>2026-04-22T10:26:39Z</time></trkpt><trkpt lat="59.0777722467" lon="29.9960004631"><ele>80.89</ele><time>2026-04-22T10:26:43Z</time></trkpt><trkpt lat="59.0777951293" lon="29.9960407801"><ele>81.37</ele><time>2026-04-22T10:26:46Z</time></trkpt><trkpt lat="59.0778026730" lon="29.9960787501"><ele>82.81</ele><time>2026-04-22T10:26:48Z</time></trkpt><trkpt lat="59.0778266452" lon="29.9961393513"><ele>83.77</ele><time>2026-04-22T10:26:52Z</time></trkpt><trkpt lat="59.0778440796" lon="29.9963054806"><ele>83.29</ele><time>2026-04-22T10:27:04Z</time></trkpt><trkpt lat="59.0778903477" lon="29.9964079913"><ele>83.29</ele><time>2026-04-22T10:27:16Z</time></trkpt><trkpt lat="59.0779227018" lon="29.9965170398"><ele>82.33</ele><time>2026-04-22T10:27:26Z</time></trkpt><trkpt lat="59.0779270604" lon="29.9966973346"><ele>82.33</ele><time>2026-04-22T10:27:36Z</time></trkpt><trkpt lat="59.0779235400" lon="29.9969010148"><ele>81.85</ele><time>2026-04-22T10:27:47Z</time></trkpt><trkpt lat="59.0779267251" lon="29.9969461095"><ele>81.85</ele><time>2026-04-22T10:27:51Z</time></trkpt><trkpt lat="59.0779066924" lon="29.9969567545"><ele>81.85</ele><time>2026-04-22T10:27:53Z</time></trkpt><trkpt lat="59.0778087080" lon="29.9969587661"><ele>81.85</ele><time>2026-04-22T10:28:06Z</time></trkpt><trkpt lat="59.0778049361" lon="29.9970643781"><ele>81.85</ele><time>2026-04-22T10:28:17Z</time></trkpt><trkpt lat="59.0778240468" lon="29.9970544875"><ele>81.85</ele><time>2026-04-22T10:28:27Z</time></trkpt><trkpt lat="59.0778328478" lon="29.9970329460"><ele>81.85</ele><time>2026-04-22T10:28:50Z</time></trkpt><trkpt lat="59.0778354462" lon="29.9970207922"><ele>81.85</ele><time>2026-04-22T10:29:16Z</time></trkpt><trkpt lat="59.0778366197" lon="29.9970325269"><ele>81.85</ele><time>2026-04-22T10:29:31Z</time></trkpt><trkpt lat="59.0779601689" lon="29.9971476942"><ele>81.85</ele><time>2026-04-22T10:29:47Z</time></trkpt><trkpt lat="59.0780660324" lon="29.9972409848"><ele>81.85</ele><time>2026-04-22T10:29:58Z</time></trkpt><trkpt lat="59.0781849716" lon="29.9973253906"><ele>81.85</ele><time>2026-04-22T10:30:14Z</time></trkpt><trkpt lat="59.0782858897" lon="29.9974425696"><ele>80.89</ele><time>2026-04-22T10:30:27Z</time></trkpt><trkpt lat="59.0783737320" lon="29.9974310026"><ele>80.89</ele><time>2026-04-22T10:30:39Z</time></trkpt><trkpt lat="59.0785432141" lon="29.9974604230"><ele>80.41</ele><time>2026-04-22T10:30:53Z</time></trkpt><trkpt lat="59.0786495805" lon="29.9975091219"><ele>80.41</ele><time>2026-04-22T10:31:07Z</time></trkpt><trkpt lat="59.0787246823" lon="29.9975105468"><ele>80.41</ele><time>2026-04-22T10:31:18Z</time></trkpt><trkpt lat="59.0787986945" lon="29.9975389615"><ele>79.93</ele><time>2026-04-22T10:31:30Z</time></trkpt><trkpt lat="59.0788900573" lon="29.9976354372"><ele>79.45</ele><time>2026-04-22T10:31:43Z</time></trkpt><trkpt lat="59.0789133590" lon="29.9976694677"><ele>78.97</ele><time>2026-04-22T10:31:46Z</time></trkpt><trkpt lat="59.0789851081" lon="29.9977385346"><ele>78.97</ele><time>2026-04-22T10:32:00Z</time></trkpt><trkpt lat="59.0790246706" lon="29.9977887422"><ele>78.97</ele><time>2026-04-22T10:32:21Z</time></trkpt><trkpt lat="59.0790519956" lon="29.9978103675"><ele>78.97</ele><time>2026-04-22T10:32:26Z</time></trkpt><trkpt lat="59.0791001916" lon="29.9978649337"><ele>78.97</ele><time>2026-04-22T10:32:40Z</time></trkpt><trkpt lat="59.0791077353" lon="29.9978365190"><ele>79.93</ele><time>2026-04-22T10:33:09Z</time></trkpt><trkpt lat="59.0791105852" lon="29.9978204258"><ele>79.93</ele><time>2026-04-22T10:33:26Z</time></trkpt><trkpt lat="59.0791182127" lon="29.9978262931"><ele>79.93</ele><time>2026-04-22T10:33:55Z</time></trkpt><trkpt lat="59.0791193023" lon="29.9978407938"><ele>80.41</ele><time>2026-04-22T10:34:13Z</time></trkpt><trkpt lat="59.0791244991" lon="29.9978718907"><ele>80.41</ele><time>2026-04-22T10:34:33Z</time></trkpt><trkpt lat="59.0791525785" lon="29.9979847949"><ele>80.41</ele><time>2026-04-22T10:34:42Z</time></trkpt><trkpt lat="59.0791571047" lon="29.9981663469"><ele>80.41</ele><time>2026-04-22T10:34:55Z</time></trkpt><trkpt lat="59.0791544225" lon="29.9982567038"><ele>80.41</ele><time>2026-04-22T10:35:01Z</time></trkpt><trkpt lat="59.0791572724" lon="29.9984772317"><ele>80.41</ele><time>2026-04-22T10:35:16Z</time></trkpt><trkpt lat="59.0791840944" lon="29.9986273516"><ele>80.41</ele><time>2026-04-22T10:35:27Z</time></trkpt><trkpt lat="59.0791871957" lon="29.9986759666"><ele>78.97</ele><time>2026-04-22T10:35:29Z</time></trkpt><trkpt lat="59.0791934822" lon="29.9988129269"><ele>78.97</ele><time>2026-04-22T10:35:41Z</time></trkpt><trkpt lat="59.0791996010" lon="29.9989791401"><ele>78.97</ele><time>2026-04-22T10:35:54Z</time></trkpt><trkpt lat="59.0792265069" lon="29.9991614465"><ele>78.97</ele><time>2026-04-22T10:36:04Z</time></trkpt><trkpt lat="59.0792333800" lon="29.9992772005"><ele>78.97</ele><time>2026-04-22T10:36:16Z</time></trkpt><trkpt lat="59.0792555083" lon="29.9992966466"><ele>78.97</ele><time>2026-04-22T10:36:20Z</time></trkpt><trkpt lat="59.0792767145" lon="29.9994645361"><ele>78.97</ele><time>2026-04-22T10:36:32Z</time></trkpt><trkpt lat="59.0792757086" lon="29.9995959643"><ele>78.97</ele><time>2026-04-22T10:36:48Z</time></trkpt><trkpt lat="59.0792994294" lon="29.9996742513"><ele>78.97</ele><time>2026-04-22T10:37:06Z</time></trkpt><trkpt lat="59.0793174505" lon="29.9997784384"><ele>78.97</ele><time>2026-04-22T10:37:19Z</time></trkpt><trkpt lat="59.0793514811" lon="29.9998536240"><ele>79.93</ele><time>2026-04-22T10:37:34Z</time></trkpt><trkpt lat="59.0793986712" lon="29.9999994691"><ele>80.41</ele><time>2026-04-22T10:37:47Z</time></trkpt><trkpt lat="59.0794656426" lon="30.0001901574"><ele>80.41</ele><time>2026-04-22T10:38:02Z</time></trkpt><trkpt lat="59.0794776287" lon="30.0004249346"><ele>80.41</ele><time>2026-04-22T10:38:20Z</time></trkpt><trkpt lat="59.0795642138" lon="30.0006975979"><ele>77.52</ele><time>2026-04-22T10:38:36Z</time></trkpt><trkpt lat="59.0795674827" lon="30.0009615440"><ele>80.89</ele><time>2026-04-22T10:38:46Z</time></trkpt><trkpt lat="59.0795683209" lon="30.0011591893"><ele>81.85</ele><time>2026-04-22T10:39:02Z</time></trkpt><trkpt lat="59.0796131641" lon="30.0014445931"><ele>81.85</ele><time>2026-04-22T10:39:18Z</time></trkpt><trkpt lat="59.0796463564" lon="30.0018537976"><ele>80.41</ele><time>2026-04-22T10:39:32Z</time></trkpt><trkpt lat="59.0796623658" lon="30.0020906702"><ele>80.41</ele><time>2026-04-22T10:39:45Z</time></trkpt><trkpt lat="59.0796551574" lon="30.0023197476"><ele>80.41</ele><time>2026-04-22T10:40:01Z</time></trkpt><trkpt lat="59.0796319395" lon="30.0025405269"><ele>80.41</ele><time>2026-04-22T10:40:15Z</time></trkpt><trkpt lat="59.0796234738" lon="30.0026815943"><ele>80.41</ele><time>2026-04-22T10:40:31Z</time></trkpt><trkpt lat="59.0796261560" lon="30.0028039701"><ele>80.41</ele><time>2026-04-22T10:40:45Z</time></trkpt><trkpt lat="59.0796321910" lon="30.0029320456"><ele>80.41</ele><time>2026-04-22T10:41:00Z</time></trkpt><trkpt lat="59.0796021838" lon="30.0031216443"><ele>80.41</ele><time>2026-04-22T10:41:20Z</time></trkpt><trkpt lat="59.0796485357" lon="30.0031894539"><ele>80.41</ele><time>2026-04-22T10:41:34Z</time></trkpt><trkpt lat="59.0796766151" lon="30.0034166034"><ele>80.41</ele><time>2026-04-22T10:41:46Z</time></trkpt><trkpt lat="59.0796841588" lon="30.0036857463"><ele>80.41</ele><time>2026-04-22T10:42:01Z</time></trkpt><trkpt lat="59.0796877630" lon="30.0038667116"><ele>80.41</ele><time>2026-04-22T10:42:16Z</time></trkpt><trkpt lat="59.0797035210" lon="30.0039564818"><ele>80.41</ele><time>2026-04-22T10:42:26Z</time></trkpt><trkpt lat="59.0797317680" lon="30.0041140616"><ele>80.41</ele><time>2026-04-22T10:42:38Z</time></trkpt><trkpt lat="59.0797627810" lon="30.0041735731"><ele>80.41</ele><time>2026-04-22T10:42:53Z</time></trkpt><trkpt lat="59.0797892679" lon="30.0043371040"><ele>80.41</ele><time>2026-04-22T10:43:06Z</time></trkpt><trkpt lat="59.0798060317" lon="30.0046572927"><ele>80.41</ele><time>2026-04-22T10:43:18Z</time></trkpt><trkpt lat="59.0798250586" lon="30.0047021359"><ele>80.41</ele><time>2026-04-22T10:43:20Z</time></trkpt><trkpt lat="59.0799305029" lon="30.0049522519"><ele>80.41</ele><time>2026-04-22T10:43:35Z</time></trkpt><trkpt lat="59.0799564030" lon="30.0049587060"><ele>80.41</ele><time>2026-04-22T10:43:39Z</time></trkpt><trkpt lat="59.0800429881" lon="30.0048898906"><ele>80.41</ele><time>2026-04-22T10:43:51Z</time></trkpt><trkpt lat="59.0800613444" lon="30.0047468953"><ele>80.41</ele><time>2026-04-22T10:44:03Z</time></trkpt><trkpt lat="59.0800816286" lon="30.0046064146"><ele>80.41</ele><time>2026-04-22T10:44:14Z</time></trkpt><trkpt lat="59.0800880827" lon="30.0044853799"><ele>80.41</ele><time>2026-04-22T10:44:27Z</time></trkpt><trkpt lat="59.0800847299" lon="30.0044619106"><ele>81.37</ele><time>2026-04-22T10:44:51Z</time></trkpt><trkpt lat="59.0800941177" lon="30.0044887327"><ele>80.89</ele><time>2026-04-22T10:45:10Z</time></trkpt><trkpt lat="59.0800947882" lon="30.0044882298"><ele>80.89</ele><time>2026-04-22T10:45:25Z</time></trkpt><trkpt lat="59.0800964646" lon="30.0044749025"><ele>81.37</ele><time>2026-04-22T10:45:51Z</time></trkpt><trkpt lat="59.0800999850" lon="30.0044362620"><ele>81.37</ele><time>2026-04-22T10:46:05Z</time></trkpt><trkpt lat="59.0801428165" lon="30.0043658540"><ele>81.37</ele><time>2026-04-22T10:46:14Z</time></trkpt><trkpt lat="59.0801985562" lon="30.0042988826"><ele>81.37</ele><time>2026-04-22T10:46:27Z</time></trkpt><trkpt lat="59.0802073572" lon="30.0042962003"><ele>81.37</ele><time>2026-04-22T10:46:28Z</time></trkpt><trkpt lat="59.0802547988" lon="30.0042605773"><ele>80.89</ele><time>2026-04-22T10:46:32Z</time></trkpt><trkpt lat="59.0803312417" lon="30.0041294005"><ele>80.89</ele><time>2026-04-22T10:46:44Z</time></trkpt><trkpt lat="59.0803921781" lon="30.0040835515"><ele>80.89</ele><time>2026-04-22T10:46:53Z</time></trkpt><trkpt lat="59.0804574732" lon="30.0040276442"><ele>80.89</ele><time>2026-04-22T10:47:06Z</time></trkpt><trkpt lat="59.0805138834" lon="30.0039838068"><ele>79.93</ele><time>2026-04-22T10:47:17Z</time></trkpt><trkpt lat="59.0805858001" lon="30.0039171707"><ele>79.93</ele><time>2026-04-22T10:47:29Z</time></trkpt><trkpt lat="59.0807204135" lon="30.0038889237"><ele>79.93</ele><time>2026-04-22T10:47:42Z</time></trkpt><trkpt lat="59.0807969403" lon="30.0038866606"><ele>79.93</ele><time>2026-04-22T10:47:52Z</time></trkpt><trkpt lat="59.0808390174" lon="30.0038756803"><ele>79.93</ele><time>2026-04-22T10:47:57Z</time></trkpt><trkpt lat="59.0809370019" lon="30.0037928671"><ele>79.93</ele><time>2026-04-22T10:48:09Z</time></trkpt><trkpt lat="59.0810214076" lon="30.0037279073"><ele>79.93</ele><time>2026-04-22T10:48:22Z</time></trkpt><trkpt lat="59.0810945816" lon="30.0036727544"><ele>79.45</ele><time>2026-04-22T10:48:32Z</time></trkpt><trkpt lat="59.0811695158" lon="30.0036290009"><ele>79.45</ele><time>2026-04-22T10:48:48Z</time></trkpt><trkpt lat="59.0812949929" lon="30.0034801383"><ele>79.45</ele><time>2026-04-22T10:49:00Z</time></trkpt><trkpt lat="59.0814073104" lon="30.0033908710"><ele>79.45</ele><time>2026-04-22T10:49:11Z</time></trkpt><trkpt lat="59.0814936440" lon="30.0033238996"><ele>78.97</ele><time>2026-04-22T10:49:22Z</time></trkpt><trkpt lat="59.0816064645" lon="30.0032264180"><ele>78.97</ele><time>2026-04-22T10:49:33Z</time></trkpt><trkpt lat="59.0816998389" lon="30.0031447783"><ele>78.48</ele><time>2026-04-22T10:49:47Z</time></trkpt><trkpt lat="59.0818025172" lon="30.0030783098"><ele>78.00</ele><time>2026-04-22T10:49:58Z</time></trkpt><trkpt lat="59.0818984900" lon="30.0030130986"><ele>78.00</ele><time>2026-04-22T10:50:13Z</time></trkpt><trkpt lat="59.0820342768" lon="30.0029618014"><ele>78.00</ele><time>2026-04-22T10:50:26Z</time></trkpt><trkpt lat="59.0821583290" lon="30.0029103365"><ele>78.00</ele><time>2026-04-22T10:50:48Z</time></trkpt><trkpt lat="59.0822086204" lon="30.0028321333"><ele>77.52</ele><time>2026-04-22T10:51:01Z</time></trkpt><trkpt lat="59.0822436567" lon="30.0026947539"><ele>77.04</ele><time>2026-04-22T10:51:26Z</time></trkpt><trkpt lat="59.0822582413" lon="30.0026416127"><ele>77.04</ele><time>2026-04-22T10:51:33Z</time></trkpt><trkpt lat="59.0822635219" lon="30.0025112741"><ele>77.04</ele><time>2026-04-22T10:51:45Z</time></trkpt><trkpt lat="59.0822657850" lon="30.0024449732"><ele>77.04</ele><time>2026-04-22T10:51:56Z</time></trkpt><trkpt lat="59.0822679643" lon="30.0022614095"><ele>78.48</ele><time>2026-04-22T10:52:06Z</time></trkpt><trkpt lat="59.0822350234" lon="30.0019702222"><ele>78.48</ele><time>2026-04-22T10:52:16Z</time></trkpt><trkpt lat="59.0822118893" lon="30.0017034262"><ele>78.48</ele><time>2026-04-22T10:52:25Z</time></trkpt><trkpt lat="59.0821829718" lon="30.0015095528"><ele>78.48</ele><time>2026-04-22T10:52:38Z</time></trkpt><trkpt lat="59.0821766015" lon="30.0014208723"><ele>78.48</ele><time>2026-04-22T10:53:02Z</time></trkpt><trkpt lat="59.0821701474" lon="30.0014177710"><ele>78.48</ele><time>2026-04-22T10:53:06Z</time></trkpt><trkpt lat="59.0820646193" lon="30.0014810544"><ele>78.48</ele><time>2026-04-22T10:53:19Z</time></trkpt><trkpt lat="59.0819550678" lon="30.0015405659"><ele>78.48</ele><time>2026-04-22T10:53:29Z</time></trkpt><trkpt lat="59.0818630345" lon="30.0015613530"><ele>78.48</ele><time>2026-04-22T10:53:37Z</time></trkpt><trkpt lat="59.0817741025" lon="30.0016054418"><ele>78.48</ele><time>2026-04-22T10:53:47Z</time></trkpt><trkpt lat="59.0816984978" lon="30.0016545597"><ele>78.48</ele><time>2026-04-22T10:54:00Z</time></trkpt><trkpt lat="59.0816521458" lon="30.0016891770"><ele>78.48</ele><time>2026-04-22T10:54:11Z</time></trkpt><trkpt lat="59.0815840010" lon="30.0017097127"><ele>78.48</ele><time>2026-04-22T10:54:22Z</time></trkpt><trkpt lat="59.0815199632" lon="30.0017161667"><ele>78.48</ele><time>2026-04-22T10:54:36Z</time></trkpt><trkpt lat="59.0814635530" lon="30.0017423183"><ele>78.48</ele><time>2026-04-22T10:54:50Z</time></trkpt><trkpt lat="59.0814332105" lon="30.0017497782"><ele>78.48</ele><time>2026-04-22T10:55:03Z</time></trkpt><trkpt lat="59.0813831706" lon="30.0017703138"><ele>78.48</ele><time>2026-04-22T10:55:15Z</time></trkpt><trkpt lat="59.0813130978" lon="30.0018113013"><ele>78.48</ele><time>2026-04-22T10:55:27Z</time></trkpt><trkpt lat="59.0812432766" lon="30.0018448289"><ele>78.97</ele><time>2026-04-22T10:55:42Z</time></trkpt><trkpt lat="59.0811986011" lon="30.0018943660"><ele>78.97</ele><time>2026-04-22T10:55:55Z</time></trkpt><trkpt lat="59.0811271872" lon="30.0019436516"><ele>78.97</ele><time>2026-04-22T10:56:07Z</time></trkpt><trkpt lat="59.0810788237" lon="30.0019451603"><ele>78.97</ele><time>2026-04-22T10:56:23Z</time></trkpt><trkpt lat="59.0809843596" lon="30.0019444898"><ele>78.97</ele><time>2026-04-22T10:56:37Z</time></trkpt><trkpt lat="59.0808936674" lon="30.0019654445"><ele>78.97</ele><time>2026-04-22T10:56:49Z</time></trkpt><trkpt lat="59.0807714593" lon="30.0020324159"><ele>78.97</ele><time>2026-04-22T10:57:02Z</time></trkpt><trkpt lat="59.0807014704" lon="30.0021031592"><ele>78.97</ele><time>2026-04-22T10:57:15Z</time></trkpt><trkpt lat="59.0806602314" lon="30.0021529477"><ele>78.97</ele><time>2026-04-22T10:57:28Z</time></trkpt><trkpt lat="59.0806319844" lon="30.0021911692"><ele>79.45</ele><time>2026-04-22T10:57:35Z</time></trkpt><trkpt lat="59.0805265401" lon="30.0022354256"><ele>79.93</ele><time>2026-04-22T10:57:50Z</time></trkpt><trkpt lat="59.0804685373" lon="30.0022671092"><ele>80.41</ele><time>2026-04-22T10:58:04Z</time></trkpt><trkpt lat="59.0803698823" lon="30.0023281295"><ele>80.89</ele><time>2026-04-22T10:58:20Z</time></trkpt><trkpt lat="59.0801712312" lon="30.0024557021"><ele>80.89</ele><time>2026-04-22T10:58:31Z</time></trkpt><trkpt lat="59.0800563991" lon="30.0024970248"><ele>80.89</ele><time>2026-04-22T10:58:41Z</time></trkpt><trkpt lat="59.0800180938" lon="30.0025086757"><ele>80.89</ele><time>2026-04-22T10:58:44Z</time></trkpt><trkpt lat="59.0798358712" lon="30.0025286246"><ele>80.89</ele><time>2026-04-22T10:58:58Z</time></trkpt><trkpt lat="59.0797590930" lon="30.0025996193"><ele>80.89</ele><time>2026-04-22T10:59:14Z</time></trkpt><trkpt lat="59.0797435027" lon="30.0025787484"><ele>81.37</ele><time>2026-04-22T10:59:30Z</time></trkpt><trkpt lat="59.0796975698" lon="30.0024695322"><ele>81.37</ele><time>2026-04-22T10:59:43Z</time></trkpt><trkpt lat="59.0796747711" lon="30.0022951886"><ele>81.37</ele><time>2026-04-22T10:59:59Z</time></trkpt><trkpt lat="59.0796490386" lon="30.0021741539"><ele>81.37</ele><time>2026-04-22T11:00:03Z</time></trkpt><trkpt lat="59.0796127450" lon="30.0019099563"><ele>81.37</ele><time>2026-04-22T11:00:15Z</time></trkpt><trkpt lat="59.0795684885" lon="30.0016073696"><ele>81.37</ele><time>2026-04-22T11:00:29Z</time></trkpt><trkpt lat="59.0795506351" lon="30.0014792942"><ele>81.37</ele><time>2026-04-22T11:00:40Z</time></trkpt><trkpt lat="59.0795297641" lon="30.0013607740"><ele>81.37</ele><time>2026-04-22T11:00:49Z</time></trkpt><trkpt lat="59.0795040317" lon="30.0012657233"><ele>81.37</ele><time>2026-04-22T11:01:11Z</time></trkpt><trkpt lat="59.0795784630" lon="30.0012306031"><ele>81.85</ele><time>2026-04-22T11:01:27Z</time></trkpt><trkpt lat="59.0797404014" lon="30.0011684094"><ele>81.85</ele><time>2026-04-22T11:01:41Z</time></trkpt><trkpt lat="59.0798160061" lon="30.0011285115"><ele>81.85</ele><time>2026-04-22T11:01:57Z</time></trkpt><trkpt lat="59.0798377991" lon="30.0011162739"><ele>81.85</ele><time>2026-04-22T11:02:05Z</time></trkpt><trkpt lat="59.0799483564" lon="30.0011558365"><ele>81.85</ele><time>2026-04-22T11:02:18Z</time></trkpt><trkpt lat="59.0800500289" lon="30.0011160225"><ele>81.85</ele><time>2026-04-22T11:02:32Z</time></trkpt><trkpt lat="59.0802351851" lon="30.0010399986"><ele>81.85</ele><time>2026-04-22T11:02:46Z</time></trkpt><trkpt lat="59.0803454071" lon="30.0010581035"><ele>81.85</ele><time>2026-04-22T11:02:58Z</time></trkpt><trkpt lat="59.0805390291" lon="30.0009616278"><ele>80.89</ele><time>2026-04-22T11:03:12Z</time></trkpt><trkpt lat="59.0806578845" lon="30.0008241646"><ele>80.89</ele><time>2026-04-22T11:03:21Z</time></trkpt><trkpt lat="59.0807117801" lon="30.0008024555"><ele>80.89</ele><time>2026-04-22T11:03:33Z</time></trkpt><trkpt lat="59.0807572939" lon="30.0008070655"><ele>80.89</ele><time>2026-04-22T11:03:47Z</time></trkpt><trkpt lat="59.0808044840" lon="30.0007942412"><ele>80.89</ele><time>2026-04-22T11:04:00Z</time></trkpt><trkpt lat="59.0808361676" lon="30.0007778127"><ele>80.89</ele><time>2026-04-22T11:04:15Z</time></trkpt><trkpt lat="59.0808567032" lon="30.0007684249"><ele>80.89</ele><time>2026-04-22T11:04:29Z</time></trkpt><trkpt lat="59.0808779094" lon="30.0007672515"><ele>80.89</ele><time>2026-04-22T11:04:43Z</time></trkpt><trkpt lat="59.0808983613" lon="30.0007581990"><ele>80.89</ele><time>2026-04-22T11:04:57Z</time></trkpt><trkpt lat="59.0809203219" lon="30.0007592887"><ele>80.89</ele><time>2026-04-22T11:05:12Z</time></trkpt><trkpt lat="59.0809328947" lon="30.0007601269"><ele>80.89</ele><time>2026-04-22T11:05:26Z</time></trkpt><trkpt lat="59.0809530113" lon="30.0007705204"><ele>80.89</ele><time>2026-04-22T11:05:38Z</time></trkpt><trkpt lat="59.0809800848" lon="30.0007666647"><ele>81.37</ele><time>2026-04-22T11:05:53Z</time></trkpt><trkpt lat="59.0810370818" lon="30.0008330494"><ele>81.37</ele><time>2026-04-22T11:06:08Z</time></trkpt><trkpt lat="59.0812500659" lon="30.0009689201"><ele>81.37</ele><time>2026-04-22T11:06:19Z</time></trkpt><trkpt lat="59.0813441947" lon="30.0010034535"><ele>81.37</ele><time>2026-04-22T11:06:29Z</time></trkpt><trkpt lat="59.0814912133" lon="30.0010433514"><ele>80.89</ele><time>2026-04-22T11:06:41Z</time></trkpt><trkpt lat="59.0816030279" lon="30.0010869373"><ele>80.89</ele><time>2026-04-22T11:06:53Z</time></trkpt><trkpt lat="59.0818228014" lon="30.0011654757"><ele>80.41</ele><time>2026-04-22T11:07:05Z</time></trkpt><trkpt lat="59.0819030162" lon="30.0011342112"><ele>80.41</ele><time>2026-04-22T11:07:27Z</time></trkpt><trkpt lat="59.0819045249" lon="30.0011323672"><ele>80.41</ele><time>2026-04-22T11:07:30Z</time></trkpt><trkpt lat="59.0818646271" lon="30.0011686608"><ele>80.41</ele><time>2026-04-22T11:07:38Z</time></trkpt><trkpt lat="59.0818453487" lon="30.0011918787"><ele>80.41</ele><time>2026-04-22T11:07:43Z</time></trkpt><trkpt lat="59.0817766171" lon="30.0011801440"><ele>80.41</ele><time>2026-04-22T11:07:55Z</time></trkpt><trkpt lat="59.0817694925" lon="30.0011874363"><ele>80.41</ele><time>2026-04-22T11:07:57Z</time></trkpt><trkpt lat="59.0817162674" lon="30.0012404099"><ele>79.93</ele><time>2026-04-22T11:08:10Z</time></trkpt><trkpt lat="59.0816558339" lon="30.0012730155"><ele>79.93</ele><time>2026-04-22T11:08:22Z</time></trkpt><trkpt lat="59.0815469529" lon="30.0012466125"><ele>80.41</ele><time>2026-04-22T11:08:34Z</time></trkpt><trkpt lat="59.0814400837" lon="30.0012226403"><ele>80.41</ele><time>2026-04-22T11:08:44Z</time></trkpt><trkpt lat="59.0814146027" lon="30.0012197904"><ele>80.41</ele><time>2026-04-22T11:08:46Z</time></trkpt><trkpt lat="59.0813727770" lon="30.0012148451"><ele>80.41</ele><time>2026-04-22T11:08:49Z</time></trkpt><trkpt lat="59.0812460426" lon="30.0011404138"><ele>79.93</ele><time>2026-04-22T11:09:02Z</time></trkpt><trkpt lat="59.0811903868" lon="30.0010859314"><ele>79.93</ele><time>2026-04-22T11:09:12Z</time></trkpt><trkpt lat="59.0811291151" lon="30.0010322034"><ele>79.93</ele><time>2026-04-22T11:09:24Z</time></trkpt><trkpt lat="59.0810817573" lon="30.0009771343"><ele>79.93</ele><time>2026-04-22T11:09:36Z</time></trkpt><trkpt lat="59.0810713638" lon="30.0009250827"><ele>79.45</ele><time>2026-04-22T11:09:54Z</time></trkpt><trkpt lat="59.0810696036" lon="30.0008517411"><ele>79.45</ele><time>2026-04-22T11:10:09Z</time></trkpt><trkpt lat="59.0810711123" lon="30.0008195546"><ele>79.45</ele><time>2026-04-22T11:10:29Z</time></trkpt><trkpt lat="59.0810758900" lon="30.0007852726"><ele>79.45</ele><time>2026-04-22T11:10:43Z</time></trkpt><trkpt lat="59.0810906421" lon="30.0007338915"><ele>79.45</ele><time>2026-04-22T11:10:58Z</time></trkpt><trkpt lat="59.0811047237" lon="30.0006601308"><ele>79.45</ele><time>2026-04-22T11:11:07Z</time></trkpt><trkpt lat="59.0811648220" lon="30.0005081668"><ele>79.45</ele><time>2026-04-22T11:11:19Z</time></trkpt><trkpt lat="59.0812325478" lon="30.0004080869"><ele>78.97</ele><time>2026-04-22T11:11:32Z</time></trkpt><trkpt lat="59.0812599566" lon="30.0003618188"><ele>78.97</ele><time>2026-04-22T11:11:42Z</time></trkpt><trkpt lat="59.0813138522" lon="30.0003640819"><ele>78.97</ele><time>2026-04-22T11:11:54Z</time></trkpt><trkpt lat="59.0813498106" lon="30.0003321469"><ele>78.97</ele><time>2026-04-22T11:12:06Z</time></trkpt><trkpt lat="59.0813813265" lon="30.0002806820"><ele>78.97</ele><time>2026-04-22T11:12:21Z</time></trkpt><trkpt lat="59.0814125072" lon="30.0002562068"><ele>79.45</ele><time>2026-04-22T11:12:32Z</time></trkpt><trkpt lat="59.0814806521" lon="30.0002272055"><ele>79.45</ele><time>2026-04-22T11:12:44Z</time></trkpt><trkpt lat="59.0815267526" lon="30.0001686160"><ele>78.97</ele><time>2026-04-22T11:12:56Z</time></trkpt><trkpt lat="59.0816319454" lon="30.0000733975"><ele>78.97</ele><time>2026-04-22T11:13:09Z</time></trkpt><trkpt lat="59.0817410778" lon="29.9999469984"><ele>78.97</ele><time>2026-04-22T11:13:21Z</time></trkpt><trkpt lat="59.0819450095" lon="29.9997958727"><ele>78.97</ele><time>2026-04-22T11:13:38Z</time></trkpt><trkpt lat="59.0819417406" lon="29.9996782746"><ele>78.97</ele><time>2026-04-22T11:13:48Z</time></trkpt><trkpt lat="59.0819296706" lon="29.9994605128"><ele>78.97</ele><time>2026-04-22T11:14:01Z</time></trkpt><trkpt lat="59.0819316823" lon="29.9994419888"><ele>78.97</ele><time>2026-04-22T11:14:02Z</time></trkpt><trkpt lat="59.0819102246" lon="29.9991032761"><ele>78.97</ele><time>2026-04-22T11:14:12Z</time></trkpt><trkpt lat="59.0818942990" lon="29.9989574309"><ele>79.45</ele><time>2026-04-22T11:14:25Z</time></trkpt><trkpt lat="59.0818408225" lon="29.9987423513"><ele>79.45</ele><time>2026-04-22T11:14:34Z</time></trkpt><trkpt lat="59.0818378050" lon="29.9987300299"><ele>80.41</ele><time>2026-04-22T11:14:50Z</time></trkpt><trkpt lat="59.0818375535" lon="29.9987246655"><ele>80.41</ele><time>2026-04-22T11:14:58Z</time></trkpt><trkpt lat="59.0818420798" lon="29.9987163674"><ele>79.93</ele><time>2026-04-22T11:15:11Z</time></trkpt><trkpt lat="59.0817710850" lon="29.9987404235"><ele>79.93</ele><time>2026-04-22T11:15:25Z</time></trkpt><trkpt lat="59.0815938916" lon="29.9988177884"><ele>78.97</ele><time>2026-04-22T11:15:40Z</time></trkpt><trkpt lat="59.0815198794" lon="29.9988989253"><ele>78.97</ele><time>2026-04-22T11:15:52Z</time></trkpt><trkpt lat="59.0814272594" lon="29.9989622086"><ele>78.97</ele><time>2026-04-22T11:16:04Z</time></trkpt><trkpt lat="59.0813967492" lon="29.9989574309"><ele>78.97</ele><time>2026-04-22T11:16:16Z</time></trkpt><trkpt lat="59.0812589508" lon="29.9989094026"><ele>78.48</ele><time>2026-04-22T11:16:29Z</time></trkpt><trkpt lat="59.0812291950" lon="29.9988966621"><ele>79.45</ele><time>2026-04-22T11:16:43Z</time></trkpt><trkpt lat="59.0812136047" lon="29.9988913815"><ele>79.45</ele><time>2026-04-22T11:16:55Z</time></trkpt><trkpt lat="59.0811707731" lon="29.9988845084"><ele>79.45</ele><time>2026-04-22T11:17:10Z</time></trkpt><trkpt lat="59.0811514948" lon="29.9988886993"><ele>79.45</ele><time>2026-04-22T11:17:22Z</time></trkpt><trkpt lat="59.0811231639" lon="29.9988933932"><ele>79.45</ele><time>2026-04-22T11:17:32Z</time></trkpt><trkpt lat="59.0810900554" lon="29.9989291001"><ele>79.45</ele><time>2026-04-22T11:17:37Z</time></trkpt><trkpt lat="59.0810017101" lon="29.9989945628"><ele>79.45</ele><time>2026-04-22T11:17:48Z</time></trkpt><trkpt lat="59.0809082519" lon="29.9991061259"><ele>79.45</ele><time>2026-04-22T11:18:01Z</time></trkpt><trkpt lat="59.0808710363" lon="29.9991601054"><ele>79.45</ele><time>2026-04-22T11:18:13Z</time></trkpt><trkpt lat="59.0807651728" lon="29.9992665555"><ele>79.45</ele><time>2026-04-22T11:18:28Z</time></trkpt><trkpt lat="59.0806405339" lon="29.9994498678"><ele>79.45</ele><time>2026-04-22T11:18:53Z</time></trkpt><trkpt lat="59.0805984568" lon="29.9994709902"><ele>79.45</ele><time>2026-04-22T11:19:06Z</time></trkpt><trkpt lat="59.0805536136" lon="29.9994983152"><ele>79.45</ele><time>2026-04-22T11:19:16Z</time></trkpt><trkpt lat="59.0805101953" lon="29.9995237123"><ele>79.45</ele><time>2026-04-22T11:19:23Z</time></trkpt><trkpt lat="59.0804921743" lon="29.9995408114"><ele>79.45</ele><time>2026-04-22T11:19:25Z</time></trkpt><trkpt lat="59.0804100316" lon="29.9995851517"><ele>79.45</ele><time>2026-04-22T11:19:37Z</time></trkpt><trkpt lat="59.0803617518" lon="29.9996063579"><ele>79.45</ele><time>2026-04-22T11:19:49Z</time></trkpt><trkpt lat="59.0803094488" lon="29.9996353593"><ele>79.93</ele><time>2026-04-22T11:20:00Z</time></trkpt><trkpt lat="59.0802482609" lon="29.9996491894"><ele>79.93</ele><time>2026-04-22T11:20:10Z</time></trkpt><trkpt lat="59.0801891685" lon="29.9996461719"><ele>79.93</ele><time>2026-04-22T11:20:22Z</time></trkpt><trkpt lat="59.0801360272" lon="29.9996807892"><ele>79.93</ele><time>2026-04-22T11:20:33Z</time></trkpt><trkpt lat="59.0801003203" lon="29.9997159932"><ele>79.93</ele><time>2026-04-22T11:20:45Z</time></trkpt><trkpt lat="59.0800656192" lon="29.9997358583"><ele>79.93</ele><time>2026-04-22T11:20:57Z</time></trkpt><trkpt lat="59.0800215304" lon="29.9997874070"><ele>79.93</ele><time>2026-04-22T11:21:11Z</time></trkpt><trkpt lat="59.0799766872" lon="29.9997864012"><ele>80.41</ele><time>2026-04-22T11:21:32Z</time></trkpt><trkpt lat="59.0799416509" lon="29.9997857306"><ele>80.41</ele><time>2026-04-22T11:21:47Z</time></trkpt><trkpt lat="59.0798879229" lon="29.9997667037"><ele>80.41</ele><time>2026-04-22T11:21:58Z</time></trkpt><trkpt lat="59.0798343625" lon="29.9997244589"><ele>80.41</ele><time>2026-04-22T11:22:10Z</time></trkpt><trkpt lat="59.0798132401" lon="29.9996766821"><ele>79.45</ele><time>2026-04-22T11:22:18Z</time></trkpt><trkpt lat="59.0797442570" lon="29.9995129835"><ele>79.45</ele><time>2026-04-22T11:22:28Z</time></trkpt><trkpt lat="59.0796119906" lon="29.9992969818"><ele>79.45</ele><time>2026-04-22T11:22:40Z</time></trkpt><trkpt lat="59.0795539040" lon="29.9991706666"><ele>79.45</ele><time>2026-04-22T11:22:53Z</time></trkpt><trkpt lat="59.0795621183" lon="29.9991352111"><ele>80.89</ele><time>2026-04-22T11:22:58Z</time></trkpt><trkpt lat="59.0795556642" lon="29.9991106521"><ele>81.85</ele><time>2026-04-22T11:23:18Z</time></trkpt><trkpt lat="59.0795487072" lon="29.9991011806"><ele>80.41</ele><time>2026-04-22T11:23:32Z</time></trkpt><trkpt lat="59.0795438457" lon="29.9990948103"><ele>79.45</ele><time>2026-04-22T11:23:51Z</time></trkpt><trkpt lat="59.0795382299" lon="29.9990881886"><ele>79.45</ele><time>2026-04-22T11:24:16Z</time></trkpt><trkpt lat="59.0795234777" lon="29.9990501348"><ele>80.89</ele><time>2026-04-22T11:24:37Z</time></trkpt><trkpt lat="59.0794693306" lon="29.9989090674"><ele>80.89</ele><time>2026-04-22T11:24:44Z</time></trkpt><trkpt lat="59.0794860106" lon="29.9988614582"><ele>79.93</ele><time>2026-04-22T11:25:00Z</time></trkpt><trkpt lat="59.0794821549" lon="29.9988637213"><ele>79.93</ele><time>2026-04-22T11:25:16Z</time></trkpt><trkpt lat="59.0795233101" lon="29.9988544174"><ele>79.93</ele><time>2026-04-22T11:25:30Z</time></trkpt><trkpt lat="59.0795405768" lon="29.9988283496"><ele>79.93</ele><time>2026-04-22T11:25:53Z</time></trkpt><trkpt lat="59.0795417503" lon="29.9988272600"><ele>79.93</ele><time>2026-04-22T11:26:16Z</time></trkpt><trkpt lat="59.0795860067" lon="29.9987983424"><ele>79.93</ele><time>2026-04-22T11:26:26Z</time></trkpt><trkpt lat="59.0796543192" lon="29.9987868592"><ele>79.93</ele><time>2026-04-22T11:26:37Z</time></trkpt><trkpt lat="59.0796949714" lon="29.9987778906"><ele>79.93</ele><time>2026-04-22T11:26:48Z</time></trkpt><trkpt lat="59.0797760244" lon="29.9987199716"><ele>79.93</ele><time>2026-04-22T11:26:59Z</time></trkpt><trkpt lat="59.0798091330" lon="29.9987171218"><ele>79.93</ele><time>2026-04-22T11:27:10Z</time></trkpt><trkpt lat="59.0798672196" lon="29.9986699317"><ele>79.93</ele><time>2026-04-22T11:27:29Z</time></trkpt><trkpt lat="59.0799286589" lon="29.9985957518"><ele>79.93</ele><time>2026-04-22T11:27:41Z</time></trkpt><trkpt lat="59.0800464246" lon="29.9986090790"><ele>79.93</ele><time>2026-04-22T11:27:53Z</time></trkpt><trkpt lat="59.0801981371" lon="29.9985732883"><ele>79.93</ele><time>2026-04-22T11:28:06Z</time></trkpt><trkpt lat="59.0802231990" lon="29.9985405151"><ele>79.45</ele><time>2026-04-22T11:28:30Z</time></trkpt><trkpt lat="59.0802315809" lon="29.9985320494"><ele>79.45</ele><time>2026-04-22T11:28:54Z</time></trkpt><trkpt lat="59.0802305751" lon="29.9985249247"><ele>79.45</ele><time>2026-04-22T11:29:19Z</time></trkpt><trkpt lat="59.0802301560" lon="29.9985235836"><ele>79.45</ele><time>2026-04-22T11:29:47Z</time></trkpt><trkpt lat="59.0802642703" lon="29.9985323846"><ele>79.45</ele><time>2026-04-22T11:29:59Z</time></trkpt><trkpt lat="59.0803032462" lon="29.9984956719"><ele>79.45</ele><time>2026-04-22T11:30:14Z</time></trkpt><trkpt lat="59.0804100316" lon="29.9984213244"><ele>79.45</ele><time>2026-04-22T11:30:29Z</time></trkpt><trkpt lat="59.0805075131" lon="29.9983902276"><ele>81.37</ele><time>2026-04-22T11:30:44Z</time></trkpt><trkpt lat="59.0806222614" lon="29.9983141199"><ele>81.85</ele><time>2026-04-22T11:30:56Z</time></trkpt><trkpt lat="59.0807388537" lon="29.9982826877"><ele>80.41</ele><time>2026-04-22T11:31:05Z</time></trkpt><trkpt lat="59.0808609780" lon="29.9982670136"><ele>80.41</ele><time>2026-04-22T11:31:18Z</time></trkpt><trkpt lat="59.0809530113" lon="29.9982397724"><ele>80.41</ele><time>2026-04-22T11:31:29Z</time></trkpt><trkpt lat="59.0809864551" lon="29.9982273672"><ele>80.41</ele><time>2026-04-22T11:31:35Z</time></trkpt><trkpt lat="59.0810830984" lon="29.9980888981"><ele>80.41</ele><time>2026-04-22T11:31:46Z</time></trkpt><trkpt lat="59.0810996108" lon="29.9980255309"><ele>80.41</ele><time>2026-04-22T11:31:50Z</time></trkpt><trkpt lat="59.0811794065" lon="29.9979085196"><ele>79.93</ele><time>2026-04-22T11:32:02Z</time></trkpt><trkpt lat="59.0812055580" lon="29.9978684541"><ele>80.41</ele><time>2026-04-22T11:32:05Z</time></trkpt><trkpt lat="59.0812944900" lon="29.9977354333"><ele>80.89</ele><time>2026-04-22T11:32:17Z</time></trkpt><trkpt lat="59.0813914686" lon="29.9975597486"><ele>81.37</ele><time>2026-04-22T11:32:32Z</time></trkpt><trkpt lat="59.0814300254" lon="29.9974701460"><ele>81.37</ele><time>2026-04-22T11:32:42Z</time></trkpt><trkpt lat="59.0814603679" lon="29.9973923620"><ele>81.85</ele><time>2026-04-22T11:32:51Z</time></trkpt><trkpt lat="59.0815259144" lon="29.9972533062"><ele>81.85</ele><time>2026-04-22T11:33:04Z</time></trkpt><trkpt lat="59.0815454442" lon="29.9972388893"><ele>82.33</ele><time>2026-04-22T11:33:33Z</time></trkpt><trkpt lat="59.0815435164" lon="29.9972419068"><ele>82.33</ele><time>2026-04-22T11:33:48Z</time></trkpt><trkpt lat="59.0815461986" lon="29.9972397275"><ele>83.29</ele><time>2026-04-22T11:34:05Z</time></trkpt><trkpt lat="59.0815518983" lon="29.9972482771"><ele>82.81</ele><time>2026-04-22T11:34:21Z</time></trkpt><trkpt lat="59.0815503895" lon="29.9972533062"><ele>82.81</ele><time>2026-04-22T11:34:34Z</time></trkpt><trkpt lat="59.0815612022" lon="29.9972560722"><ele>82.81</ele><time>2026-04-22T11:34:53Z</time></trkpt><trkpt lat="59.0815668181" lon="29.9972484447"><ele>82.81</ele><time>2026-04-22T11:35:18Z</time></trkpt><trkpt lat="59.0815679915" lon="29.9972581677"><ele>82.81</ele><time>2026-04-22T11:35:33Z</time></trkpt><trkpt lat="59.0815676562" lon="29.9972525518"><ele>82.81</ele><time>2026-04-22T11:35:50Z</time></trkpt><trkpt lat="59.0815673210" lon="29.9972512946"><ele>82.81</ele><time>2026-04-22T11:36:07Z</time></trkpt><trkpt lat="59.0815604478" lon="29.9972507078"><ele>82.81</ele><time>2026-04-22T11:36:22Z</time></trkpt><trkpt lat="59.0815702546" lon="29.9971667212"><ele>82.81</ele><time>2026-04-22T11:36:35Z</time></trkpt><trkpt lat="59.0816032793" lon="29.9970696587"><ele>82.81</ele><time>2026-04-22T11:36:45Z</time></trkpt><trkpt lat="59.0816213842" lon="29.9970243126"><ele>82.81</ele><time>2026-04-22T11:36:51Z</time></trkpt><trkpt lat="59.0816181991" lon="29.9969843309"><ele>82.81</ele><time>2026-04-22T11:36:53Z</time></trkpt><trkpt lat="59.0816042852" lon="29.9969404936"><ele>82.81</ele><time>2026-04-22T11:36:55Z</time></trkpt><trkpt lat="59.0815856773" lon="29.9967665691"><ele>83.29</ele><time>2026-04-22T11:37:04Z</time></trkpt><trkpt lat="59.0815781336" lon="29.9964985158"><ele>82.81</ele><time>2026-04-22T11:37:15Z</time></trkpt><trkpt lat="59.0815664828" lon="29.9963430315"><ele>82.81</ele><time>2026-04-22T11:37:27Z</time></trkpt><trkpt lat="59.0815681592" lon="29.9962675106"><ele>82.81</ele><time>2026-04-22T11:37:30Z</time></trkpt><trkpt lat="59.0815398283" lon="29.9961971026"><ele>82.81</ele><time>2026-04-22T11:37:34Z</time></trkpt><trkpt lat="59.0815140121" lon="29.9959888961"><ele>82.81</ele><time>2026-04-22T11:37:43Z</time></trkpt><trkpt lat="59.0815056302" lon="29.9959458131"><ele>82.81</ele><time>2026-04-22T11:37:45Z</time></trkpt><trkpt lat="59.0814929735" lon="29.9958101101"><ele>82.81</ele><time>2026-04-22T11:37:53Z</time></trkpt><trkpt lat="59.0814805683" lon="29.9957363494"><ele>81.37</ele><time>2026-04-22T11:38:06Z</time></trkpt><trkpt lat="59.0814579371" lon="29.9957653508"><ele>81.37</ele><time>2026-04-22T11:38:21Z</time></trkpt><trkpt lat="59.0814021975" lon="29.9958376866"><ele>81.37</ele><time>2026-04-22T11:38:29Z</time></trkpt><trkpt lat="59.0813643113" lon="29.9958561268"><ele>81.37</ele><time>2026-04-22T11:38:33Z</time></trkpt><trkpt lat="59.0813121758" lon="29.9958289694"><ele>81.37</ele><time>2026-04-22T11:38:43Z</time></trkpt><trkpt lat="59.0811727848" lon="29.9959129561"><ele>82.33</ele><time>2026-04-22T11:38:55Z</time></trkpt><trkpt lat="59.0810422786" lon="29.9959439691"><ele>82.33</ele><time>2026-04-22T11:39:07Z</time></trkpt><trkpt lat="59.0810063202" lon="29.9959898181"><ele>82.33</ele><time>2026-04-22T11:39:20Z</time></trkpt><trkpt lat="59.0809981897" lon="29.9960914068"><ele>82.33</ele><time>2026-04-22T11:39:30Z</time></trkpt><trkpt lat="59.0809921548" lon="29.9962191470"><ele>82.33</ele><time>2026-04-22T11:39:38Z</time></trkpt><trkpt lat="59.0809481498" lon="29.9963124376"><ele>82.81</ele><time>2026-04-22T11:39:44Z</time></trkpt><trkpt lat="59.0809123591" lon="29.9964084104"><ele>83.29</ele><time>2026-04-22T11:39:51Z</time></trkpt><trkpt lat="59.0808268636" lon="29.9963851087"><ele>83.29</ele><time>2026-04-22T11:40:01Z</time></trkpt><trkpt lat="59.0808197390" lon="29.9963789061"><ele>83.29</ele><time>2026-04-22T11:40:02Z</time></trkpt><trkpt lat="59.0807864629" lon="29.9963810854"><ele>83.29</ele><time>2026-04-22T11:40:06Z</time></trkpt><trkpt lat="59.0807406977" lon="29.9963674229"><ele>83.29</ele><time>2026-04-22T11:40:10Z</time></trkpt><trkpt lat="59.0806884784" lon="29.9963954184"><ele>83.29</ele><time>2026-04-22T11:40:18Z</time></trkpt><trkpt lat="59.0806830302" lon="29.9965209793"><ele>83.29</ele><time>2026-04-22T11:40:28Z</time></trkpt><trkpt lat="59.0806588903" lon="29.9966938142"><ele>82.81</ele><time>2026-04-22T11:40:39Z</time></trkpt><trkpt lat="59.0806517657" lon="29.9968143459"><ele>82.81</ele><time>2026-04-22T11:40:49Z</time></trkpt><trkpt lat="59.0806309786" lon="29.9968221411"><ele>83.29</ele><time>2026-04-22T11:40:59Z</time></trkpt><trkpt lat="59.0806264523" lon="29.9968287628"><ele>83.29</ele><time>2026-04-22T11:41:03Z</time></trkpt><trkpt lat="59.0805914160" lon="29.9968347140"><ele>83.29</ele><time>2026-04-22T11:41:06Z</time></trkpt><trkpt lat="59.0805151407" lon="29.9968373124"><ele>83.29</ele><time>2026-04-22T11:41:18Z</time></trkpt><trkpt lat="59.0804231912" lon="29.9968444370"><ele>83.29</ele><time>2026-04-22T11:41:29Z</time></trkpt><trkpt lat="59.0803823713" lon="29.9968483765"><ele>82.33</ele><time>2026-04-22T11:41:38Z</time></trkpt><trkpt lat="59.0803529508" lon="29.9968736898"><ele>81.85</ele><time>2026-04-22T11:41:51Z</time></trkpt><trkpt lat="59.0802815370" lon="29.9969240651"><ele>81.85</ele><time>2026-04-22T11:42:00Z</time></trkpt><trkpt lat="59.0801646095" lon="29.9969321117"><ele>81.85</ele><time>2026-04-22T11:42:13Z</time></trkpt><trkpt lat="59.0800840594" lon="29.9969385657"><ele>80.89</ele><time>2026-04-22T11:42:22Z</time></trkpt><trkpt lat="59.0800417308" lon="29.9969461095"><ele>80.89</ele><time>2026-04-22T11:42:32Z</time></trkpt><trkpt lat="59.0799561515" lon="29.9969723448"><ele>80.89</ele><time>2026-04-22T11:42:43Z</time></trkpt><trkpt lat="59.0798655432" lon="29.9970039446"><ele>80.89</ele><time>2026-04-22T11:42:53Z</time></trkpt><trkpt lat="59.0797735099" lon="29.9970544875"><ele>80.41</ele><time>2026-04-22T11:43:07Z</time></trkpt><trkpt lat="59.0797119867" lon="29.9970772862"><ele>79.93</ele><time>2026-04-22T11:43:19Z</time></trkpt><trkpt lat="59.0796383936" lon="29.9970730115"><ele>79.93</ele><time>2026-04-22T11:43:31Z</time></trkpt><trkpt lat="59.0795897786" lon="29.9970789626"><ele>80.89</ele><time>2026-04-22T11:43:42Z</time></trkpt><trkpt lat="59.0795433428" lon="29.9971079640"><ele>80.89</ele><time>2026-04-22T11:43:54Z</time></trkpt><trkpt lat="59.0795181971" lon="29.9971110653"><ele>80.89</ele><time>2026-04-22T11:44:15Z</time></trkpt><trkpt lat="59.0794712584" lon="29.9970985763"><ele>80.41</ele><time>2026-04-22T11:44:28Z</time></trkpt><trkpt lat="59.0794212185" lon="29.9970920384"><ele>80.41</ele><time>2026-04-22T11:44:42Z</time></trkpt><trkpt lat="59.0793477930" lon="29.9970709998"><ele>80.41</ele><time>2026-04-22T11:44:54Z</time></trkpt><trkpt lat="59.0792887844" lon="29.9970822316"><ele>80.41</ele><time>2026-04-22T11:45:02Z</time></trkpt><trkpt lat="59.0792270098" lon="29.9970938824"><ele>80.41</ele><time>2026-04-22T11:45:13Z</time></trkpt><trkpt lat="59.0791964997" lon="29.9971127417"><ele>80.41</ele><time>2026-04-22T11:45:26Z</time></trkpt><trkpt lat="59.0791699290" lon="29.9971025158"><ele>80.41</ele><time>2026-04-22T11:45:35Z</time></trkpt><trkpt lat="59.0791309532" lon="29.9970717542"><ele>80.41</ele><time>2026-04-22T11:45:47Z</time></trkpt><trkpt lat="59.0790988505" lon="29.9970672280"><ele>80.89</ele><time>2026-04-22T11:45:59Z</time></trkpt><trkpt lat="59.0790627245" lon="29.9970798008"><ele>80.89</ele><time>2026-04-22T11:46:09Z</time></trkpt><trkpt lat="59.0790277719" lon="29.9970270786"><ele>80.89</ele><time>2026-04-22T11:46:22Z</time></trkpt><trkpt lat="59.0789731219" lon="29.9969406612"><ele>80.89</ele><time>2026-04-22T11:46:34Z</time></trkpt><trkpt lat="59.0789340623" lon="29.9968151003"><ele>81.37</ele><time>2026-04-22T11:46:45Z</time></trkpt><trkpt lat="59.0788782388" lon="29.9965607934"><ele>81.37</ele><time>2026-04-22T11:46:57Z</time></trkpt><trkpt lat="59.0788364131" lon="29.9963690154"><ele>81.85</ele><time>2026-04-22T11:47:07Z</time></trkpt><trkpt lat="59.0787883010" lon="29.9963737931"><ele>81.85</ele><time>2026-04-22T11:47:17Z</time></trkpt><trkpt lat="59.0787139535" lon="29.9963760562"><ele>81.85</ele><time>2026-04-22T11:47:27Z</time></trkpt><trkpt lat="59.0786684398" lon="29.9963857792"><ele>81.85</ele><time>2026-04-22T11:47:38Z</time></trkpt><trkpt lat="59.0786392707" lon="29.9963970948"><ele>81.85</ele><time>2026-04-22T11:47:52Z</time></trkpt><trkpt lat="59.0786189865" lon="29.9963897187"><ele>81.37</ele><time>2026-04-22T11:48:07Z</time></trkpt><trkpt lat="59.0785728861" lon="29.9965320434"><ele>81.37</ele><time>2026-04-22T11:48:17Z</time></trkpt><trkpt lat="59.0785220079" lon="29.9966156948"><ele>81.37</ele><time>2026-04-22T11:48:28Z</time></trkpt><trkpt lat="59.0785039030" lon="29.9965515733"><ele>81.37</ele><time>2026-04-22T11:48:48Z</time></trkpt><trkpt lat="59.0784899052" lon="29.9965203926"><ele>81.37</ele><time>2026-04-22T11:48:55Z</time></trkpt><trkpt lat="59.0784862172" lon="29.9963411875"><ele>81.37</ele><time>2026-04-22T11:49:06Z</time></trkpt><trkpt lat="59.0784887318" lon="29.9963239208"><ele>81.85</ele><time>2026-04-22T11:49:22Z</time></trkpt><trkpt lat="59.0784887318" lon="29.9962940812"><ele>81.85</ele><time>2026-04-22T11:49:37Z</time></trkpt><trkpt lat="59.0784909111" lon="29.9962804187"><ele>82.33</ele><time>2026-04-22T11:49:57Z</time></trkpt><trkpt lat="59.0784883965" lon="29.9962454662"><ele>82.33</ele><time>2026-04-22T11:50:10Z</time></trkpt><trkpt lat="59.0784912463" lon="29.9961369205"><ele>82.33</ele><time>2026-04-22T11:50:22Z</time></trkpt><trkpt lat="59.0784893185" lon="29.9960586336"><ele>81.37</ele><time>2026-04-22T11:50:41Z</time></trkpt><trkpt lat="59.0784954373" lon="29.9959254451"><ele>81.37</ele><time>2026-04-22T11:50:56Z</time></trkpt><trkpt lat="59.0785175655" lon="29.9958846252"><ele>81.37</ele><time>2026-04-22T11:51:05Z</time></trkpt><trkpt lat="59.0786229260" lon="29.9957172386"><ele>80.89</ele><time>2026-04-22T11:51:13Z</time></trkpt><trkpt lat="59.0787546895" lon="29.9956682045"><ele>80.89</ele><time>2026-04-22T11:51:26Z</time></trkpt><trkpt lat="59.0788379218" lon="29.9955570605"><ele>80.89</ele><time>2026-04-22T11:51:41Z</time></trkpt><trkpt lat="59.0789316315" lon="29.9954869878"><ele>80.89</ele><time>2026-04-22T11:51:53Z</time></trkpt><trkpt lat="59.0790857747" lon="29.9954730738"><ele>80.89</ele><time>2026-04-22T11:52:08Z</time></trkpt><trkpt lat="59.0791664086" lon="29.9954307452"><ele>80.89</ele><time>2026-04-22T11:52:23Z</time></trkpt><trkpt lat="59.0791884530" lon="29.9955390394"><ele>80.89</ele><time>2026-04-22T11:52:35Z</time></trkpt><trkpt lat="59.0792011097" lon="29.9956058431"><ele>80.89</ele><time>2026-04-22T11:52:39Z</time></trkpt><trkpt lat="59.0792166162" lon="29.9957642611"><ele>80.41</ele><time>2026-04-22T11:52:49Z</time></trkpt><trkpt lat="59.0792386606" lon="29.9958758242"><ele>80.41</ele><time>2026-04-22T11:53:02Z</time></trkpt><trkpt lat="59.0792536642" lon="29.9959057476"><ele>80.41</ele><time>2026-04-22T11:53:19Z</time></trkpt><trkpt lat="59.0792846773" lon="29.9959389400"><ele>80.41</ele><time>2026-04-22T11:53:39Z</time></trkpt><trkpt lat="59.0793316998" lon="29.9959016405"><ele>80.41</ele><time>2026-04-22T11:53:49Z</time></trkpt><trkpt lat="59.0793667361" lon="29.9958795961"><ele>80.41</ele><time>2026-04-22T11:54:02Z</time></trkpt><trkpt lat="59.0793868527" lon="29.9958671071"><ele>80.41</ele><time>2026-04-22T11:54:11Z</time></trkpt><trkpt lat="59.0794552490" lon="29.9957775883"><ele>79.93</ele><time>2026-04-22T11:54:22Z</time></trkpt><trkpt lat="59.0795379784" lon="29.9957081862"><ele>79.93</ele><time>2026-04-22T11:54:32Z</time></trkpt><trkpt lat="59.0796085540" lon="29.9956527818"><ele>79.93</ele><time>2026-04-22T11:54:41Z</time></trkpt><trkpt lat="59.0796728432" lon="29.9956350960"><ele>79.93</ele><time>2026-04-22T11:54:51Z</time></trkpt><trkpt lat="59.0797651280" lon="29.9955355190"><ele>79.93</ele><time>2026-04-22T11:55:03Z</time></trkpt><trkpt lat="59.0798393078" lon="29.9954399653"><ele>79.93</ele><time>2026-04-22T11:55:17Z</time></trkpt><trkpt lat="59.0800533816" lon="29.9952281546"><ele>79.45</ele><time>2026-04-22T11:55:32Z</time></trkpt><trkpt lat="59.0801098756" lon="29.9952472653"><ele>79.45</ele><time>2026-04-22T11:55:43Z</time></trkpt><trkpt lat="59.0801101271" lon="29.9953476805"><ele>79.45</ele><time>2026-04-22T11:55:49Z</time></trkpt><trkpt lat="59.0800803714" lon="29.9954188429"><ele>79.45</ele><time>2026-04-22T11:56:01Z</time></trkpt><trkpt lat="59.0801560599" lon="29.9955529533"><ele>79.45</ele><time>2026-04-22T11:56:14Z</time></trkpt><trkpt lat="59.0802392922" lon="29.9955774285"><ele>79.45</ele><time>2026-04-22T11:56:23Z</time></trkpt><trkpt lat="59.0802909248" lon="29.9956379458"><ele>79.45</ele><time>2026-04-22T11:56:34Z</time></trkpt><trkpt lat="59.0803393722" lon="29.9956418853"><ele>79.45</ele><time>2026-04-22T11:56:44Z</time></trkpt><trkpt lat="59.0803875681" lon="29.9956442323"><ele>79.45</ele><time>2026-04-22T11:56:57Z</time></trkpt><trkpt lat="59.0804875642" lon="29.9955620058"><ele>78.97</ele><time>2026-04-22T11:57:10Z</time></trkpt><trkpt lat="59.0805180743" lon="29.9955386203"><ele>78.97</ele><time>2026-04-22T11:57:13Z</time></trkpt><trkpt lat="59.0806053299" lon="29.9955521990"><ele>78.97</ele><time>2026-04-22T11:57:24Z</time></trkpt><trkpt lat="59.0806702059" lon="29.9955345970"><ele>78.97</ele><time>2026-04-22T11:57:36Z</time></trkpt><trkpt lat="59.0807037335" lon="29.9954957049"><ele>78.97</ele><time>2026-04-22T11:57:42Z</time></trkpt><trkpt lat="59.0807733871" lon="29.9953580741"><ele>78.48</ele><time>2026-04-22T11:57:55Z</time></trkpt><trkpt lat="59.0808031429" lon="29.9953028373"><ele>78.48</ele><time>2026-04-22T11:57:59Z</time></trkpt><trkpt lat="59.0808651689" lon="29.9951607641"><ele>78.48</ele><time>2026-04-22T11:58:11Z</time></trkpt><trkpt lat="59.0808548592" lon="29.9950169306"><ele>78.48</ele><time>2026-04-22T11:58:23Z</time></trkpt><trkpt lat="59.0808608942" lon="29.9949465226"><ele>78.48</ele><time>2026-04-22T11:58:35Z</time></trkpt><trkpt lat="59.0808784124" lon="29.9948966503"><ele>77.52</ele><time>2026-04-22T11:58:49Z</time></trkpt><trkpt lat="59.0808986966" lon="29.9947657250"><ele>77.52</ele><time>2026-04-22T11:59:00Z</time></trkpt><trkpt lat="59.0809567831" lon="29.9946730211"><ele>77.52</ele><time>2026-04-22T11:59:12Z</time></trkpt><trkpt lat="59.0810211562" lon="29.9945436046"><ele>77.52</ele><time>2026-04-22T11:59:24Z</time></trkpt><trkpt lat="59.0811514109" lon="29.9944710173"><ele>77.52</ele><time>2026-04-22T11:59:35Z</time></trkpt><trkpt lat="59.0812121797" lon="29.9943804927"><ele>77.04</ele><time>2026-04-22T11:59:46Z</time></trkpt><trkpt lat="59.0812669136" lon="29.9942955002"><ele>77.04</ele><time>2026-04-22T11:59:57Z</time></trkpt><trkpt lat="59.0812681708" lon="29.9942793231"><ele>77.04</ele><time>2026-04-22T12:00:22Z</time></trkpt><trkpt lat="59.0812775586" lon="29.9941070750"><ele>77.04</ele><time>2026-04-22T12:00:38Z</time></trkpt><trkpt lat="59.0812537540" lon="29.9938619882"><ele>77.04</ele><time>2026-04-22T12:00:49Z</time></trkpt><trkpt lat="59.0812517423" lon="29.9937625788"><ele>77.04</ele><time>2026-04-22T12:00:55Z</time></trkpt><trkpt lat="59.0811881237" lon="29.9936149735"><ele>77.04</ele><time>2026-04-22T12:01:08Z</time></trkpt><trkpt lat="59.0811937395" lon="29.9935762491"><ele>77.04</ele><time>2026-04-22T12:01:28Z</time></trkpt><trkpt lat="59.0811969247" lon="29.9935457390"><ele>77.04</ele><time>2026-04-22T12:01:54Z</time></trkpt><trkpt lat="59.0811938234" lon="29.9935364351"><ele>77.04</ele><time>2026-04-22T12:02:22Z</time></trkpt><trkpt lat="59.0811956674" lon="29.9934923463"><ele>76.56</ele><time>2026-04-22T12:02:44Z</time></trkpt><trkpt lat="59.0811956674" lon="29.9934914242"><ele>76.56</ele><time>2026-04-22T12:03:10Z</time></trkpt><trkpt lat="59.0811993554" lon="29.9934841320"><ele>77.52</ele><time>2026-04-22T12:03:33Z</time></trkpt><trkpt lat="59.0812037140" lon="29.9934798572"><ele>77.52</ele><time>2026-04-22T12:03:57Z</time></trkpt><trkpt lat="59.0811990201" lon="29.9934795219"><ele>77.52</ele><time>2026-04-22T12:04:18Z</time></trkpt><trkpt lat="59.0811920632" lon="29.9934677873"><ele>76.08</ele><time>2026-04-22T12:04:30Z</time></trkpt><trkpt lat="59.0811763052" lon="29.9933097046"><ele>76.08</ele><time>2026-04-22T12:04:43Z</time></trkpt><trkpt lat="59.0811761376" lon="29.9931429885"><ele>77.04</ele><time>2026-04-22T12:04:55Z</time></trkpt><trkpt lat="59.0811613016" lon="29.9930704013"><ele>77.04</ele><time>2026-04-22T12:05:13Z</time></trkpt><trkpt lat="59.0811580326" lon="29.9930780288"><ele>77.04</ele><time>2026-04-22T12:05:38Z</time></trkpt><trkpt lat="59.0811431967" lon="29.9930618517"><ele>77.04</ele><time>2026-04-22T12:05:53Z</time></trkpt><trkpt lat="59.0811314620" lon="29.9930470157"><ele>77.04</ele><time>2026-04-22T12:06:09Z</time></trkpt><trkpt lat="59.0811312106" lon="29.9930464290"><ele>77.04</ele><time>2026-04-22T12:06:36Z</time></trkpt><trkpt lat="59.0811250079" lon="29.9930462614"><ele>77.04</ele><time>2026-04-22T12:06:58Z</time></trkpt><trkpt lat="59.0811160393" lon="29.9930525478"><ele>77.04</ele><time>2026-04-22T12:07:20Z</time></trkpt><trkpt lat="59.0811163746" lon="29.9930605944"><ele>77.04</ele><time>2026-04-22T12:07:39Z</time></trkpt><trkpt lat="59.0810975991" lon="29.9930632766"><ele>77.04</ele><time>2026-04-22T12:07:42Z</time></trkpt><trkpt lat="59.0810752194" lon="29.9930573255"><ele>77.04</ele><time>2026-04-22T12:07:44Z</time></trkpt><trkpt lat="59.0810634848" lon="29.9930590019"><ele>77.04</ele><time>2026-04-22T12:07:46Z</time></trkpt><trkpt lat="59.0810268559" lon="29.9930658750"><ele>77.04</ele><time>2026-04-22T12:07:54Z</time></trkpt><trkpt lat="59.0809974354" lon="29.9930631090"><ele>77.04</ele><time>2026-04-22T12:07:57Z</time></trkpt><trkpt lat="59.0808772389" lon="29.9930636957"><ele>77.04</ele><time>2026-04-22T12:08:09Z</time></trkpt><trkpt lat="59.0808484051" lon="29.9930388853"><ele>77.04</ele><time>2026-04-22T12:08:23Z</time></trkpt><trkpt lat="59.0808283724" lon="29.9930170085"><ele>77.04</ele><time>2026-04-22T12:08:27Z</time></trkpt><trkpt lat="59.0807821881" lon="29.9930018373"><ele>77.52</ele><time>2026-04-22T12:08:39Z</time></trkpt><trkpt lat="59.0806784201" lon="29.9929725844"><ele>77.52</ele><time>2026-04-22T12:08:51Z</time></trkpt><trkpt lat="59.0806178190" lon="29.9928972311"><ele>76.56</ele><time>2026-04-22T12:09:03Z</time></trkpt><trkpt lat="59.0805663541" lon="29.9929269869"><ele>76.56</ele><time>2026-04-22T12:09:13Z</time></trkpt><trkpt lat="59.0805373527" lon="29.9930163380"><ele>76.56</ele><time>2026-04-22T12:09:23Z</time></trkpt><trkpt lat="59.0805359278" lon="29.9931059405"><ele>76.56</ele><time>2026-04-22T12:09:31Z</time></trkpt><trkpt lat="59.0805082675" lon="29.9932469241"><ele>76.56</ele><time>2026-04-22T12:09:41Z</time></trkpt><trkpt lat="59.0804956108" lon="29.9932969641"><ele>76.56</ele><time>2026-04-22T12:09:46Z</time></trkpt><trkpt lat="59.0804698784" lon="29.9934190884"><ele>76.56</ele><time>2026-04-22T12:09:58Z</time></trkpt><trkpt lat="59.0804558806" lon="29.9935656041"><ele>76.56</ele><time>2026-04-22T12:10:09Z</time></trkpt><trkpt lat="59.0804316569" lon="29.9936473276"><ele>76.56</ele><time>2026-04-22T12:10:21Z</time></trkpt><trkpt lat="59.0804136358" lon="29.9937431328"><ele>76.56</ele><time>2026-04-22T12:10:31Z</time></trkpt><trkpt lat="59.0803781804" lon="29.9937805999"><ele>76.56</ele><time>2026-04-22T12:10:43Z</time></trkpt><trkpt lat="59.0803425573" lon="29.9937812705"><ele>76.56</ele><time>2026-04-22T12:10:55Z</time></trkpt><trkpt lat="59.0803254582" lon="29.9937650096"><ele>76.56</ele><time>2026-04-22T12:10:58Z</time></trkpt><trkpt lat="59.0802366938" lon="29.9936831184"><ele>76.08</ele><time>2026-04-22T12:11:12Z</time></trkpt><trkpt lat="59.0802049264" lon="29.9936671089"><ele>76.08</ele><time>2026-04-22T12:11:24Z</time></trkpt><trkpt lat="59.0801693033" lon="29.9937208369"><ele>76.08</ele><time>2026-04-22T12:11:36Z</time></trkpt><trkpt lat="59.0801714826" lon="29.9937184062"><ele>76.08</ele><time>2026-04-22T12:11:50Z</time></trkpt><trkpt lat="59.0801695548" lon="29.9938274547"><ele>76.08</ele><time>2026-04-22T12:12:02Z</time></trkpt><trkpt lat="59.0801310819" lon="29.9939874653"><ele>76.08</ele><time>2026-04-22T12:12:15Z</time></trkpt><trkpt lat="59.0801139828" lon="29.9940222502"><ele>76.08</ele><time>2026-04-22T12:12:19Z</time></trkpt><trkpt lat="59.0800593328" lon="29.9940993637"><ele>76.08</ele><time>2026-04-22T12:12:30Z</time></trkpt><trkpt lat="59.0800082032" lon="29.9941172171"><ele>76.08</ele><time>2026-04-22T12:12:40Z</time></trkpt><trkpt lat="59.0799404774" lon="29.9941188935"><ele>76.08</ele><time>2026-04-22T12:12:51Z</time></trkpt><trkpt lat="59.0799132362" lon="29.9941274431"><ele>76.08</ele><time>2026-04-22T12:12:59Z</time></trkpt><trkpt lat="59.0798267350" lon="29.9941020459"><ele>76.08</ele><time>2026-04-22T12:13:11Z</time></trkpt><trkpt lat="59.0797820594" lon="29.9940858688"><ele>76.08</ele><time>2026-04-22T12:13:27Z</time></trkpt><trkpt lat="59.0797163453" lon="29.9941043090"><ele>76.08</ele><time>2026-04-22T12:13:40Z</time></trkpt><trkpt lat="59.0796402376" lon="29.9941073265"><ele>76.08</ele><time>2026-04-22T12:13:50Z</time></trkpt><trkpt lat="59.0795638785" lon="29.9940504134"><ele>76.08</ele><time>2026-04-22T12:14:01Z</time></trkpt><trkpt lat="59.0795565024" lon="29.9940314703"><ele>76.08</ele><time>2026-04-22T12:14:02Z</time></trkpt><trkpt lat="59.0794943925" lon="29.9939883035"><ele>77.04</ele><time>2026-04-22T12:14:06Z</time></trkpt><trkpt lat="59.0794136748" lon="29.9938434642"><ele>77.04</ele><time>2026-04-22T12:14:17Z</time></trkpt><trkpt lat="59.0793469548" lon="29.9937962741"><ele>77.04</ele><time>2026-04-22T12:14:30Z</time></trkpt><trkpt lat="59.0792934783" lon="29.9938037340"><ele>77.04</ele><time>2026-04-22T12:14:41Z</time></trkpt><trkpt lat="59.0792812407" lon="29.9938007165"><ele>77.04</ele><time>2026-04-22T12:14:42Z</time></trkpt><trkpt lat="59.0791908838" lon="29.9938218389"><ele>77.52</ele><time>2026-04-22T12:14:52Z</time></trkpt><trkpt lat="59.0790386684" lon="29.9938676879"><ele>77.52</ele><time>2026-04-22T12:15:03Z</time></trkpt><trkpt lat="59.0789647400" lon="29.9939081725"><ele>77.52</ele><time>2026-04-22T12:15:14Z</time></trkpt><trkpt lat="59.0788904764" lon="29.9939085916"><ele>77.52</ele><time>2026-04-22T12:15:25Z</time></trkpt><trkpt lat="59.0787844453" lon="29.9938987009"><ele>77.52</ele><time>2026-04-22T12:15:36Z</time></trkpt><trkpt lat="59.0787288733" lon="29.9938325677"><ele>77.52</ele><time>2026-04-22T12:15:41Z</time></trkpt><trkpt lat="59.0787082538" lon="29.9937999621"><ele>77.52</ele><time>2026-04-22T12:15:43Z</time></trkpt><trkpt lat="59.0786265302" lon="29.9937469885"><ele>77.52</ele><time>2026-04-22T12:15:54Z</time></trkpt><trkpt lat="59.0785976965" lon="29.9936868902"><ele>77.52</ele><time>2026-04-22T12:16:01Z</time></trkpt><trkpt lat="59.0785740595" lon="29.9936814420"><ele>77.52</ele><time>2026-04-22T12:16:14Z</time></trkpt><trkpt lat="59.0785031486" lon="29.9937709607"><ele>77.52</ele><time>2026-04-22T12:16:25Z</time></trkpt><trkpt lat="59.0784225147" lon="29.9938805122"><ele>77.52</ele><time>2026-04-22T12:16:35Z</time></trkpt><trkpt lat="59.0783772524" lon="29.9939492438"><ele>77.52</ele><time>2026-04-22T12:16:41Z</time></trkpt><trkpt lat="59.0783089399" lon="29.9940169696"><ele>77.52</ele><time>2026-04-22T12:16:55Z</time></trkpt><trkpt lat="59.0782463271" lon="29.9940290395"><ele>77.52</ele><time>2026-04-22T12:17:05Z</time></trkpt><trkpt lat="59.0782081895" lon="29.9940563645"><ele>78.00</ele><time>2026-04-22T12:17:16Z</time></trkpt><trkpt lat="59.0781982150" lon="29.9940831866"><ele>78.00</ele><time>2026-04-22T12:17:42Z</time></trkpt><trkpt lat="59.0781903360" lon="29.9940589629"><ele>78.00</ele><time>2026-04-22T12:17:59Z</time></trkpt><trkpt lat="59.0781882405" lon="29.9940577056"><ele>78.00</ele><time>2026-04-22T12:18:00Z</time></trkpt><trkpt lat="59.0781730693" lon="29.9940354936"><ele>78.00</ele><time>2026-04-22T12:18:02Z</time></trkpt><trkpt lat="59.0781201795" lon="29.9939586315"><ele>78.00</ele><time>2026-04-22T12:18:14Z</time></trkpt><trkpt lat="59.0780579858" lon="29.9938495830"><ele>78.00</ele><time>2026-04-22T12:18:27Z</time></trkpt><trkpt lat="59.0779895056" lon="29.9936343357"><ele>77.52</ele><time>2026-04-22T12:18:43Z</time></trkpt><trkpt lat="59.0779950377" lon="29.9936274625"><ele>76.56</ele><time>2026-04-22T12:19:03Z</time></trkpt><trkpt lat="59.0780004021" lon="29.9935963657"><ele>76.56</ele><time>2026-04-22T12:19:24Z</time></trkpt><trkpt lat="59.0780412219" lon="29.9934019055"><ele>76.56</ele><time>2026-04-22T12:19:39Z</time></trkpt><trkpt lat="59.0780329239" lon="29.9933585711"><ele>76.56</ele><time>2026-04-22T12:19:41Z</time></trkpt><trkpt lat="59.0780159086" lon="29.9932560604"><ele>76.56</ele><time>2026-04-22T12:19:51Z</time></trkpt><trkpt lat="59.0779978875" lon="29.9930286594"><ele>76.56</ele><time>2026-04-22T12:20:01Z</time></trkpt><trkpt lat="59.0779942833" lon="29.9930025078"><ele>76.56</ele><time>2026-04-22T12:20:02Z</time></trkpt><trkpt lat="59.0779968817" lon="29.9927152600"><ele>76.56</ele><time>2026-04-22T12:20:14Z</time></trkpt><trkpt lat="59.0779998992" lon="29.9926666450"><ele>76.56</ele><time>2026-04-22T12:20:16Z</time></trkpt><trkpt lat="59.0779832192" lon="29.9925449397"><ele>76.56</ele><time>2026-04-22T12:20:28Z</time></trkpt><trkpt lat="59.0779755916" lon="29.9924860150"><ele>76.56</ele><time>2026-04-22T12:20:39Z</time></trkpt><trkpt lat="59.0779964626" lon="29.9924367294"><ele>76.56</ele><time>2026-04-22T12:21:00Z</time></trkpt><trkpt lat="59.0779945347" lon="29.9924251623"><ele>76.56</ele><time>2026-04-22T12:21:21Z</time></trkpt><trkpt lat="59.0779997315" lon="29.9924165290"><ele>76.56</ele><time>2026-04-22T12:21:34Z</time></trkpt><trkpt lat="59.0780071076" lon="29.9924173672"><ele>76.56</ele><time>2026-04-22T12:21:46Z</time></trkpt><trkpt lat="59.0780268889" lon="29.9924013577"><ele>76.56</ele><time>2026-04-22T12:22:00Z</time></trkpt><trkpt lat="59.0780699719" lon="29.9923917186"><ele>76.56</ele><time>2026-04-22T12:22:18Z</time></trkpt><trkpt lat="59.0780775156" lon="29.9923813250"><ele>76.56</ele><time>2026-04-22T12:22:28Z</time></trkpt><trkpt lat="59.0780946147" lon="29.9923670758"><ele>76.56</ele><time>2026-04-22T12:22:37Z</time></trkpt><trkpt lat="59.0781073552" lon="29.9923594482"><ele>76.56</ele><time>2026-04-22T12:22:50Z</time></trkpt><trkpt lat="59.0781443194" lon="29.9923356436"><ele>76.56</ele><time>2026-04-22T12:23:00Z</time></trkpt><trkpt lat="59.0782029089" lon="29.9923209753"><ele>76.56</ele><time>2026-04-22T12:23:11Z</time></trkpt><trkpt lat="59.0782701317" lon="29.9922811612"><ele>76.56</ele><time>2026-04-22T12:23:23Z</time></trkpt><trkpt lat="59.0783847962" lon="29.9922371563"><ele>77.52</ele><time>2026-04-22T12:23:43Z</time></trkpt><trkpt lat="59.0784477443" lon="29.9922432750"><ele>77.52</ele><time>2026-04-22T12:23:56Z</time></trkpt><trkpt lat="59.0784882288" lon="29.9922616314"><ele>77.52</ele><time>2026-04-22T12:24:11Z</time></trkpt><trkpt lat="59.0785521828" lon="29.9922866933"><ele>77.52</ele><time>2026-04-22T12:24:24Z</time></trkpt><trkpt lat="59.0785883926" lon="29.9923240766"><ele>77.04</ele><time>2026-04-22T12:24:38Z</time></trkpt><trkpt lat="59.0786543582" lon="29.9923529103"><ele>77.04</ele><time>2026-04-22T12:24:52Z</time></trkpt><trkpt lat="59.0786752291" lon="29.9924084824"><ele>77.04</ele><time>2026-04-22T12:25:04Z</time></trkpt><trkpt lat="59.0787012130" lon="29.9924582709"><ele>77.04</ele><time>2026-04-22T12:25:20Z</time></trkpt><trkpt lat="59.0787163842" lon="29.9925021920"><ele>77.04</ele><time>2026-04-22T12:25:33Z</time></trkpt><trkpt lat="59.0787436254" lon="29.9925731029"><ele>77.04</ele><time>2026-04-22T12:25:44Z</time></trkpt><trkpt lat="59.0787831880" lon="29.9926491268"><ele>77.04</ele><time>2026-04-22T12:25:56Z</time></trkpt><trkpt lat="59.0788204875" lon="29.9927363824"><ele>77.04</ele><time>2026-04-22T12:26:09Z</time></trkpt><trkpt lat="59.0788292047" lon="29.9927933794"><ele>77.52</ele><time>2026-04-22T12:26:22Z</time></trkpt><trkpt lat="59.0788284503" lon="29.9929052778"><ele>77.52</ele><time>2026-04-22T12:26:33Z</time></trkpt><trkpt lat="59.0788737964" lon="29.9929447565"><ele>77.04</ele><time>2026-04-22T12:26:46Z</time></trkpt><trkpt lat="59.0788976010" lon="29.9930735864"><ele>77.04</ele><time>2026-04-22T12:26:59Z</time></trkpt><trkpt lat="59.0789070725" lon="29.9930838123"><ele>77.04</ele><time>2026-04-22T12:27:00Z</time></trkpt><trkpt lat="59.0789282788" lon="29.9931136519"><ele>77.04</ele><time>2026-04-22T12:27:12Z</time></trkpt><trkpt lat="59.0789386723" lon="29.9930440821"><ele>77.04</ele><time>2026-04-22T12:27:22Z</time></trkpt><trkpt lat="59.0789732896" lon="29.9930515420"><ele>77.04</ele><time>2026-04-22T12:27:36Z</time></trkpt><trkpt lat="59.0789864492" lon="29.9930754304"><ele>77.04</ele><time>2026-04-22T12:27:51Z</time></trkpt><trkpt lat="59.0790084936" lon="29.9931175075"><ele>77.04</ele><time>2026-04-22T12:28:03Z</time></trkpt><trkpt lat="59.0791357309" lon="29.9931610934"><ele>77.04</ele><time>2026-04-22T12:28:17Z</time></trkpt><trkpt lat="59.0792143531" lon="29.9932144862"><ele>77.04</ele><time>2026-04-22T12:28:34Z</time></trkpt><trkpt lat="59.0792700090" lon="29.9932351895"><ele>77.04</ele><time>2026-04-22T12:28:45Z</time></trkpt><trkpt lat="59.0793315321" lon="29.9932869058"><ele>75.60</ele><time>2026-04-22T12:29:02Z</time></trkpt><trkpt lat="59.0793653112" lon="29.9933256302"><ele>76.56</ele><time>2026-04-22T12:29:14Z</time></trkpt><trkpt lat="59.0794472862" lon="29.9934909213"><ele>77.04</ele><time>2026-04-22T12:29:28Z</time></trkpt><trkpt lat="59.0795471147" lon="29.9936355092"><ele>77.04</ele><time>2026-04-22T12:29:42Z</time></trkpt><trkpt lat="59.0795953944" lon="29.9936942663"><ele>76.56</ele><time>2026-04-22T12:29:53Z</time></trkpt><trkpt lat="59.0796632040" lon="29.9937864672"><ele>76.56</ele><time>2026-04-22T12:30:13Z</time></trkpt><trkpt lat="59.0796780400" lon="29.9937443901"><ele>76.56</ele><time>2026-04-22T12:30:29Z</time></trkpt><trkpt lat="59.0797360428" lon="29.9936547875"><ele>76.56</ele><time>2026-04-22T12:30:41Z</time></trkpt><trkpt lat="59.0798993222" lon="29.9934844673"><ele>76.56</ele><time>2026-04-22T12:30:51Z</time></trkpt><trkpt lat="59.0799585823" lon="29.9934229441"><ele>76.56</ele><time>2026-04-22T12:31:04Z</time></trkpt><trkpt lat="59.0800859872" lon="29.9933227804"><ele>76.56</ele><time>2026-04-22T12:31:14Z</time></trkpt><trkpt lat="59.0801322553" lon="29.9932631012"><ele>76.56</ele><time>2026-04-22T12:31:27Z</time></trkpt><trkpt lat="59.0801366139" lon="29.9932301603"><ele>76.56</ele><time>2026-04-22T12:31:40Z</time></trkpt><trkpt lat="59.0801665373" lon="29.9931549747"><ele>76.56</ele><time>2026-04-22T12:31:49Z</time></trkpt><trkpt lat="59.0801670402" lon="29.9929607660"><ele>76.56</ele><time>2026-04-22T12:32:02Z</time></trkpt><trkpt lat="59.0801974665" lon="29.9928411562"><ele>76.56</ele><time>2026-04-22T12:32:20Z</time></trkpt><trkpt lat="59.0801912639" lon="29.9927651323"><ele>77.04</ele><time>2026-04-22T12:32:31Z</time></trkpt><trkpt lat="59.0802304912" lon="29.9926346261"><ele>77.04</ele><time>2026-04-22T12:32:42Z</time></trkpt><trkpt lat="59.0802774299" lon="29.9924261682"><ele>77.04</ele><time>2026-04-22T12:32:54Z</time></trkpt><trkpt lat="59.0803205129" lon="29.9922772218"><ele>77.04</ele><time>2026-04-22T12:33:06Z</time></trkpt><trkpt lat="59.0803505201" lon="29.9921786506"><ele>77.04</ele><time>2026-04-22T12:33:20Z</time></trkpt><trkpt lat="59.0803494304" lon="29.9921779800"><ele>77.04</ele><time>2026-04-22T12:33:38Z</time></trkpt><trkpt lat="59.0802897513" lon="29.9921095837"><ele>77.04</ele><time>2026-04-22T12:33:50Z</time></trkpt><trkpt lat="59.0802286472" lon="29.9920265190"><ele>77.04</ele><time>2026-04-22T12:33:58Z</time></trkpt><trkpt lat="59.0801849775" lon="29.9920121860"><ele>77.04</ele><time>2026-04-22T12:34:01Z</time></trkpt><trkpt lat="59.0801144019" lon="29.9919719528"><ele>77.04</ele><time>2026-04-22T12:34:11Z</time></trkpt><trkpt lat="59.0800784435" lon="29.9919753894"><ele>77.04</ele><time>2026-04-22T12:34:21Z</time></trkpt><trkpt lat="59.0799588338" lon="29.9919633195"><ele>77.52</ele><time>2026-04-22T12:34:33Z</time></trkpt><trkpt lat="59.0798806306" lon="29.9919668399"><ele>77.52</ele><time>2026-04-22T12:34:44Z</time></trkpt><trkpt lat="59.0798326861" lon="29.9919515848"><ele>77.52</ele><time>2026-04-22T12:34:55Z</time></trkpt><trkpt lat="59.0797784552" lon="29.9919433706"><ele>77.52</ele><time>2026-04-22T12:35:07Z</time></trkpt><trkpt lat="59.0797248110" lon="29.9919625651"><ele>77.04</ele><time>2026-04-22T12:35:25Z</time></trkpt><trkpt lat="59.0796549059" lon="29.9919103459"><ele>77.04</ele><time>2026-04-22T12:35:35Z</time></trkpt><trkpt lat="59.0796202049" lon="29.9918970186"><ele>77.04</ele><time>2026-04-22T12:35:47Z</time></trkpt><trkpt lat="59.0795619506" lon="29.9919160455"><ele>77.04</ele><time>2026-04-22T12:36:01Z</time></trkpt><trkpt lat="59.0795250703" lon="29.9919053167"><ele>77.04</ele><time>2026-04-22T12:36:13Z</time></trkpt><trkpt lat="59.0794441011" lon="29.9918846972"><ele>77.04</ele><time>2026-04-22T12:36:24Z</time></trkpt><trkpt lat="59.0793594439" lon="29.9918901455"><ele>77.04</ele><time>2026-04-22T12:36:36Z</time></trkpt><trkpt lat="59.0793306101" lon="29.9918794166"><ele>77.04</ele><time>2026-04-22T12:36:56Z</time></trkpt><trkpt lat="59.0793223120" lon="29.9918779079"><ele>77.04</ele><time>2026-04-22T12:36:58Z</time></trkpt><trkpt lat="59.0793014411" lon="29.9918707833"><ele>77.52</ele><time>2026-04-22T12:37:00Z</time></trkpt><trkpt lat="59.0792434383" lon="29.9918639939"><ele>77.52</ele><time>2026-04-22T12:37:05Z</time></trkpt><trkpt lat="59.0791747905" lon="29.9918860383"><ele>77.52</ele><time>2026-04-22T12:37:14Z</time></trkpt><trkpt lat="59.0791034605" lon="29.9918738846"><ele>77.52</ele><time>2026-04-22T12:37:23Z</time></trkpt><trkpt lat="59.0790266823" lon="29.9918918218"><ele>77.52</ele><time>2026-04-22T12:37:34Z</time></trkpt><trkpt lat="59.0789584536" lon="29.9918839429"><ele>77.52</ele><time>2026-04-22T12:37:44Z</time></trkpt><trkpt lat="59.0789526701" lon="29.9918887205"><ele>77.52</ele><time>2026-04-22T12:37:45Z</time></trkpt><trkpt lat="59.0788696893" lon="29.9918862060"><ele>77.52</ele><time>2026-04-22T12:37:56Z</time></trkpt><trkpt lat="59.0788577870" lon="29.9918721244"><ele>77.52</ele><time>2026-04-22T12:37:58Z</time></trkpt><trkpt lat="59.0787756443" lon="29.9917986151"><ele>77.52</ele><time>2026-04-22T12:38:10Z</time></trkpt><trkpt lat="59.0787367523" lon="29.9917883892"><ele>77.52</ele><time>2026-04-22T12:38:22Z</time></trkpt><trkpt lat="59.0786479041" lon="29.9917384330"><ele>77.52</ele><time>2026-04-22T12:38:33Z</time></trkpt><trkpt lat="59.0786181483" lon="29.9917313084"><ele>77.52</ele><time>2026-04-22T12:38:36Z</time></trkpt><trkpt lat="59.0785686951" lon="29.9917122815"><ele>77.52</ele><time>2026-04-22T12:38:45Z</time></trkpt><trkpt lat="59.0785081778" lon="29.9916520994"><ele>77.52</ele><time>2026-04-22T12:38:51Z</time></trkpt><trkpt lat="59.0784673579" lon="29.9916560389"><ele>77.52</ele><time>2026-04-22T12:38:57Z</time></trkpt><trkpt lat="59.0784013085" lon="29.9916290492"><ele>77.52</ele><time>2026-04-22T12:39:08Z</time></trkpt><trkpt lat="59.0783909149" lon="29.9916330725"><ele>77.52</ele><time>2026-04-22T12:39:10Z</time></trkpt><trkpt lat="59.0783170704" lon="29.9916049093"><ele>77.52</ele><time>2026-04-22T12:39:22Z</time></trkpt><trkpt lat="59.0783117898" lon="29.9915959407"><ele>77.52</ele><time>2026-04-22T12:39:40Z</time></trkpt><trkpt lat="59.0783183277" lon="29.9915762432"><ele>77.04</ele><time>2026-04-22T12:40:03Z</time></trkpt><trkpt lat="59.0783088561" lon="29.9915678613"><ele>77.04</ele><time>2026-04-22T12:40:15Z</time></trkpt><trkpt lat="59.0782852191" lon="29.9915140495"><ele>77.04</ele><time>2026-04-22T12:40:33Z</time></trkpt><trkpt lat="59.0782891586" lon="29.9914859701"><ele>77.52</ele><time>2026-04-22T12:40:46Z</time></trkpt><trkpt lat="59.0782878175" lon="29.9914393667"><ele>77.52</ele><time>2026-04-22T12:40:57Z</time></trkpt><trkpt lat="59.0782777593" lon="29.9913635943"><ele>77.52</ele><time>2026-04-22T12:41:10Z</time></trkpt><trkpt lat="59.0782713890" lon="29.9912954494"><ele>77.52</ele><time>2026-04-22T12:41:26Z</time></trkpt><trkpt lat="59.0782683715" lon="29.9912274722"><ele>77.04</ele><time>2026-04-22T12:41:38Z</time></trkpt><trkpt lat="59.0782540385" lon="29.9912000634"><ele>77.04</ele><time>2026-04-22T12:41:49Z</time></trkpt><trkpt lat="59.0782780945" lon="29.9911253806"><ele>77.04</ele><time>2026-04-22T12:42:01Z</time></trkpt><trkpt lat="59.0782920085" lon="29.9909768533"><ele>77.04</ele><time>2026-04-22T12:42:13Z</time></trkpt><trkpt lat="59.0783170704" lon="29.9909001589"><ele>77.04</ele><time>2026-04-22T12:42:20Z</time></trkpt><trkpt lat="59.0783684514" lon="29.9908144120"><ele>77.04</ele><time>2026-04-22T12:42:32Z</time></trkpt><trkpt lat="59.0783913340" lon="29.9907558225"><ele>77.04</ele><time>2026-04-22T12:42:43Z</time></trkpt><trkpt lat="59.0784293041" lon="29.9906471930"><ele>77.04</ele><time>2026-04-22T12:42:56Z</time></trkpt><trkpt lat="59.0784493368" lon="29.9905444309"><ele>77.04</ele><time>2026-04-22T12:43:09Z</time></trkpt><trkpt lat="59.0784681961" lon="29.9904749449"><ele>77.04</ele><time>2026-04-22T12:43:18Z</time></trkpt><trkpt lat="59.0784713812" lon="29.9904694967"><ele>77.04</ele><time>2026-04-22T12:43:19Z</time></trkpt><trkpt lat="59.0784959402" lon="29.9903750326"><ele>75.60</ele><time>2026-04-22T12:43:30Z</time></trkpt><trkpt lat="59.0785286296" lon="29.9903362244"><ele>75.60</ele><time>2026-04-22T12:43:42Z</time></trkpt><trkpt lat="59.0785722155" lon="29.9903161079"><ele>76.56</ele><time>2026-04-22T12:43:54Z</time></trkpt><trkpt lat="59.0785764903" lon="29.9903152697"><ele>76.56</ele><time>2026-04-22T12:43:59Z</time></trkpt><trkpt lat="59.0786033124" lon="29.9902511481"><ele>76.56</ele><time>2026-04-22T12:44:09Z</time></trkpt><trkpt lat="59.0786391031" lon="29.9902623799"><ele>76.56</ele><time>2026-04-22T12:44:30Z</time></trkpt><trkpt lat="59.0786959324" lon="29.9902943987"><ele>76.56</ele><time>2026-04-22T12:44:41Z</time></trkpt><trkpt lat="59.0787924919" lon="29.9903417565"><ele>76.56</ele><time>2026-04-22T12:44:53Z</time></trkpt><trkpt lat="59.0788315516" lon="29.9903687462"><ele>76.56</ele><time>2026-04-22T12:45:07Z</time></trkpt><trkpt lat="59.0788609721" lon="29.9904021900"><ele>76.56</ele><time>2026-04-22T12:45:26Z</time></trkpt><trkpt lat="59.0789490659" lon="29.9903657287"><ele>77.04</ele><time>2026-04-22T12:45:38Z</time></trkpt><trkpt lat="59.0790234134" lon="29.9904077221"><ele>77.04</ele><time>2026-04-22T12:45:56Z</time></trkpt><trkpt lat="59.0790458769" lon="29.9904068839"><ele>77.04</ele><time>2026-04-22T12:46:08Z</time></trkpt><trkpt lat="59.0790951625" lon="29.9904690776"><ele>77.04</ele><time>2026-04-22T12:46:20Z</time></trkpt><trkpt lat="59.0791232418" lon="29.9904651381"><ele>77.04</ele><time>2026-04-22T12:46:35Z</time></trkpt><trkpt lat="59.0792024508" lon="29.9903889466"><ele>77.04</ele><time>2026-04-22T12:46:48Z</time></trkpt><trkpt lat="59.0792620461" lon="29.9903663993"><ele>77.04</ele><time>2026-04-22T12:47:00Z</time></trkpt><trkpt lat="59.0793001000" lon="29.9904000945"><ele>77.04</ele><time>2026-04-22T12:47:10Z</time></trkpt><trkpt lat="59.0793133434" lon="29.9904515594"><ele>77.04</ele><time>2026-04-22T12:47:22Z</time></trkpt><trkpt lat="59.0793327056" lon="29.9904701672"><ele>77.04</ele><time>2026-04-22T12:47:39Z</time></trkpt><trkpt lat="59.0793345496" lon="29.9904821534"><ele>77.04</ele><time>2026-04-22T12:47:43Z</time></trkpt><trkpt lat="59.0793728549" lon="29.9905497953"><ele>77.04</ele><time>2026-04-22T12:47:54Z</time></trkpt><trkpt lat="59.0794129204" lon="29.9905887712"><ele>77.04</ele><time>2026-04-22T12:48:06Z</time></trkpt><trkpt lat="59.0794647206" lon="29.9906320218"><ele>77.04</ele><time>2026-04-22T12:48:16Z</time></trkpt><trkpt lat="59.0794838313" lon="29.9906512164"><ele>77.04</ele><time>2026-04-22T12:48:29Z</time></trkpt><trkpt lat="59.0795336198" lon="29.9906678963"><ele>77.04</ele><time>2026-04-22T12:48:39Z</time></trkpt><trkpt lat="59.0795977414" lon="29.9906530604"><ele>77.04</ele><time>2026-04-22T12:48:50Z</time></trkpt><trkpt lat="59.0796330292" lon="29.9906442594"><ele>77.04</ele><time>2026-04-22T12:49:03Z</time></trkpt><trkpt lat="59.0796506312" lon="29.9906663876"><ele>76.08</ele><time>2026-04-22T12:49:16Z</time></trkpt><trkpt lat="59.0796996653" lon="29.9907103088"><ele>77.52</ele><time>2026-04-22T12:49:30Z</time></trkpt><trkpt lat="59.0797388088" lon="29.9907599296"><ele>77.52</ele><time>2026-04-22T12:49:43Z</time></trkpt><trkpt lat="59.0797824785" lon="29.9907727540"><ele>77.52</ele><time>2026-04-22T12:49:58Z</time></trkpt><trkpt lat="59.0798429120" lon="29.9907696526"><ele>77.52</ele><time>2026-04-22T12:50:13Z</time></trkpt><trkpt lat="59.0798730869" lon="29.9907857459"><ele>77.52</ele><time>2026-04-22T12:50:30Z</time></trkpt><trkpt lat="59.0798740089" lon="29.9907855783"><ele>77.52</ele><time>2026-04-22T12:50:31Z</time></trkpt><trkpt lat="59.0799332689" lon="29.9907868356"><ele>77.52</ele><time>2026-04-22T12:50:42Z</time></trkpt><trkpt lat="59.0799473505" lon="29.9907905236"><ele>77.52</ele><time>2026-04-22T12:50:56Z</time></trkpt><trkpt lat="59.0800532978" lon="29.9908283260"><ele>78.48</ele><time>2026-04-22T12:51:10Z</time></trkpt><trkpt lat="59.0801190957" lon="29.9908344448"><ele>78.48</ele><time>2026-04-22T12:51:22Z</time></trkpt><trkpt lat="59.0801553056" lon="29.9908766896"><ele>78.48</ele><time>2026-04-22T12:51:35Z</time></trkpt><trkpt lat="59.0801882464" lon="29.9908895139"><ele>78.48</ele><time>2026-04-22T12:51:47Z</time></trkpt><trkpt lat="59.0801964607" lon="29.9909224547"><ele>78.48</ele><time>2026-04-22T12:51:58Z</time></trkpt><trkpt lat="59.0802059323" lon="29.9909766857"><ele>78.48</ele><time>2026-04-22T12:52:11Z</time></trkpt><trkpt lat="59.0802128054" lon="29.9910690542"><ele>78.48</ele><time>2026-04-22T12:52:24Z</time></trkpt><trkpt lat="59.0802351851" lon="29.9911553878"><ele>78.97</ele><time>2026-04-22T12:52:35Z</time></trkpt><trkpt lat="59.0802516975" lon="29.9912919290"><ele>78.97</ele><time>2026-04-22T12:52:48Z</time></trkpt><trkpt lat="59.0802808665" lon="29.9913679529"><ele>78.97</ele><time>2026-04-22T12:53:03Z</time></trkpt><trkpt lat="59.0802760050" lon="29.9913946912"><ele>78.97</ele><time>2026-04-22T12:53:05Z</time></trkpt><trkpt lat="59.0802638512" lon="29.9915341660"><ele>78.97</ele><time>2026-04-22T12:53:12Z</time></trkpt><trkpt lat="59.0802610014" lon="29.9916541949"><ele>78.48</ele><time>2026-04-22T12:53:26Z</time></trkpt><trkpt lat="59.0802806150" lon="29.9917367566"><ele>78.48</ele><time>2026-04-22T12:53:38Z</time></trkpt><trkpt lat="59.0802892484" lon="29.9919204041"><ele>78.48</ele><time>2026-04-22T12:53:48Z</time></trkpt><trkpt lat="59.0802895837" lon="29.9919506628"><ele>78.48</ele><time>2026-04-22T12:54:04Z</time></trkpt><trkpt lat="59.0803115442" lon="29.9920158740"><ele>78.48</ele><time>2026-04-22T12:54:17Z</time></trkpt><trkpt lat="59.0803731512" lon="29.9920862820"><ele>78.48</ele><time>2026-04-22T12:54:29Z</time></trkpt><trkpt lat="59.0803789347" lon="29.9920876231"><ele>78.48</ele><time>2026-04-22T12:54:39Z</time></trkpt><trkpt lat="59.0804019012" lon="29.9921599589"><ele>78.48</ele><time>2026-04-22T12:54:51Z</time></trkpt><trkpt lat="59.0804303996" lon="29.9922348093"><ele>78.48</ele><time>2026-04-22T12:55:03Z</time></trkpt><trkpt lat="59.0804371890" lon="29.9922513217"><ele>78.48</ele><time>2026-04-22T12:55:05Z</time></trkpt><trkpt lat="59.0805101953" lon="29.9923332129"><ele>78.48</ele><time>2026-04-22T12:55:18Z</time></trkpt><trkpt lat="59.0805946011" lon="29.9923462048"><ele>78.00</ele><time>2026-04-22T12:55:28Z</time></trkpt><trkpt lat="59.0806431323" lon="29.9924056325"><ele>78.00</ele><time>2026-04-22T12:55:37Z</time></trkpt><trkpt lat="59.0807522647" lon="29.9924953189"><ele>78.00</ele><time>2026-04-22T12:55:49Z</time></trkpt><trkpt lat="59.0808284562" lon="29.9925325345"><ele>78.00</ele><time>2026-04-22T12:55:58Z</time></trkpt><trkpt lat="59.0810395963" lon="29.9924480449"><ele>78.00</ele><time>2026-04-22T12:56:13Z</time></trkpt><trkpt lat="59.0810924862" lon="29.9924333766"><ele>78.00</ele><time>2026-04-22T12:56:26Z</time></trkpt><trkpt lat="59.0811349824" lon="29.9924177025"><ele>77.52</ele><time>2026-04-22T12:56:43Z</time></trkpt><trkpt lat="59.0811501537" lon="29.9923754577"><ele>77.52</ele><time>2026-04-22T12:57:01Z</time></trkpt><trkpt lat="59.0811595414" lon="29.9922572728"><ele>77.52</ele><time>2026-04-22T12:57:13Z</time></trkpt><trkpt lat="59.0811874531" lon="29.9920961726"><ele>77.52</ele><time>2026-04-22T12:57:27Z</time></trkpt><trkpt lat="59.0811708570" lon="29.9919946678"><ele>78.00</ele><time>2026-04-22T12:57:45Z</time></trkpt><trkpt lat="59.0812018700" lon="29.9918521754"><ele>78.00</ele><time>2026-04-22T12:57:57Z</time></trkpt><trkpt lat="59.0812157001" lon="29.9917775765"><ele>78.00</ele><time>2026-04-22T12:58:06Z</time></trkpt><trkpt lat="59.0812614653" lon="29.9916059989"><ele>78.00</ele><time>2026-04-22T12:58:16Z</time></trkpt><trkpt lat="59.0812762175" lon="29.9914863892"><ele>77.52</ele><time>2026-04-22T12:58:30Z</time></trkpt><trkpt lat="59.0812996868" lon="29.9914046656"><ele>77.52</ele><time>2026-04-22T12:58:41Z</time></trkpt><trkpt lat="59.0813644789" lon="29.9913559668"><ele>77.52</ele><time>2026-04-22T12:58:58Z</time></trkpt><trkpt lat="59.0814459510" lon="29.9913241994"><ele>77.52</ele><time>2026-04-22T12:59:14Z</time></trkpt><trkpt lat="59.0815002657" lon="29.9913580623"><ele>78.00</ele><time>2026-04-22T12:59:38Z</time></trkpt><trkpt lat="59.0815055463" lon="29.9913669471"><ele>78.00</ele><time>2026-04-22T12:59:55Z</time></trkpt><trkpt lat="59.0815200470" lon="29.9913676176"><ele>78.00</ele><time>2026-04-22T13:00:19Z</time></trkpt><trkpt lat="59.0815215558" lon="29.9913707189"><ele>78.00</ele><time>2026-04-22T13:00:35Z</time></trkpt><trkpt lat="59.0815269202" lon="29.9913577270"><ele>78.00</ele><time>2026-04-22T13:01:03Z</time></trkpt><trkpt lat="59.0815376490" lon="29.9913524464"><ele>78.00</ele><time>2026-04-22T13:01:18Z</time></trkpt><trkpt lat="59.0815340448" lon="29.9913987983"><ele>78.00</ele><time>2026-04-22T13:01:48Z</time></trkpt><trkpt lat="59.0815697517" lon="29.9913341738"><ele>78.00</ele><time>2026-04-22T13:02:04Z</time></trkpt><trkpt lat="59.0815803129" lon="29.9913060945"><ele>78.00</ele><time>2026-04-22T13:02:10Z</time></trkpt><trkpt lat="59.0816883557" lon="29.9910636060"><ele>78.00</ele><time>2026-04-22T13:02:23Z</time></trkpt><trkpt lat="59.0817132499" lon="29.9910622649"><ele>78.00</ele><time>2026-04-22T13:02:29Z</time></trkpt><trkpt lat="59.0817387309" lon="29.9910848960"><ele>78.00</ele><time>2026-04-22T13:02:32Z</time></trkpt><trkpt lat="59.0817825682" lon="29.9910779390"><ele>78.00</ele><time>2026-04-22T13:02:37Z</time></trkpt><trkpt lat="59.0818724222" lon="29.9909965508"><ele>78.00</ele><time>2026-04-22T13:02:47Z</time></trkpt><trkpt lat="59.0819458477" lon="29.9908229616"><ele>78.00</ele><time>2026-04-22T13:02:55Z</time></trkpt><trkpt lat="59.0820099693" lon="29.9907791242"><ele>78.48</ele><time>2026-04-22T13:03:01Z</time></trkpt><trkpt lat="59.0821574070" lon="29.9908423238"><ele>78.00</ele><time>2026-04-22T13:03:14Z</time></trkpt><trkpt lat="59.0821806248" lon="29.9908682238"><ele>78.00</ele><time>2026-04-22T13:03:16Z</time></trkpt><trkpt lat="59.0822489373" lon="29.9908671342"><ele>78.00</ele><time>2026-04-22T13:03:22Z</time></trkpt><trkpt lat="59.0822964627" lon="29.9908625241"><ele>78.00</ele><time>2026-04-22T13:03:26Z</time></trkpt><trkpt lat="59.0823540464" lon="29.9909202754"><ele>78.00</ele><time>2026-04-22T13:03:32Z</time></trkpt><trkpt lat="59.0824008174" lon="29.9909827206"><ele>78.00</ele><time>2026-04-22T13:03:44Z</time></trkpt><trkpt lat="59.0824168269" lon="29.9909698963"><ele>78.00</ele><time>2026-04-22T13:03:49Z</time></trkpt><trkpt lat="59.0824935213" lon="29.9909877498"><ele>78.00</ele><time>2026-04-22T13:04:00Z</time></trkpt><trkpt lat="59.0826024022" lon="29.9910630193"><ele>78.00</ele><time>2026-04-22T13:04:12Z</time></trkpt><trkpt lat="59.0827045776" lon="29.9911366124"><ele>76.56</ele><time>2026-04-22T13:04:21Z</time></trkpt><trkpt lat="59.0827388596" lon="29.9911331758"><ele>76.56</ele><time>2026-04-22T13:04:23Z</time></trkpt><trkpt lat="59.0827750694" lon="29.9911294878"><ele>76.56</ele><time>2026-04-22T13:04:26Z</time></trkpt><trkpt lat="59.0828589723" lon="29.9911675416"><ele>76.56</ele><time>2026-04-22T13:04:36Z</time></trkpt><trkpt lat="59.0829289611" lon="29.9911812879"><ele>76.56</ele><time>2026-04-22T13:04:40Z</time></trkpt><trkpt lat="59.0829572082" lon="29.9911958724"><ele>76.56</ele><time>2026-04-22T13:04:42Z</time></trkpt><trkpt lat="59.0830490738" lon="29.9911857303"><ele>75.60</ele><time>2026-04-22T13:04:47Z</time></trkpt><trkpt lat="59.0832055639" lon="29.9911834672"><ele>75.60</ele><time>2026-04-22T13:05:00Z</time></trkpt><trkpt lat="59.0832507424" lon="29.9911707267"><ele>75.12</ele><time>2026-04-22T13:05:11Z</time></trkpt><trkpt lat="59.0833068173" lon="29.9911572319"><ele>76.56</ele><time>2026-04-22T13:05:14Z</time></trkpt><trkpt lat="59.0833420213" lon="29.9911715649"><ele>77.04</ele><time>2026-04-22T13:05:17Z</time></trkpt><trkpt lat="59.0833560191" lon="29.9911945313"><ele>77.04</ele><time>2026-04-22T13:05:19Z</time></trkpt><trkpt lat="59.0834498126" lon="29.9912482593"><ele>77.04</ele><time>2026-04-22T13:05:30Z</time></trkpt><trkpt lat="59.0834993497" lon="29.9911734089"><ele>77.04</ele><time>2026-04-22T13:05:41Z</time></trkpt><trkpt lat="59.0835215617" lon="29.9911978003"><ele>76.08</ele><time>2026-04-22T13:05:46Z</time></trkpt><trkpt lat="59.0835634712" lon="29.9912723992"><ele>76.08</ele><time>2026-04-22T13:05:54Z</time></trkpt><trkpt lat="59.0836827457" lon="29.9913014006"><ele>76.08</ele><time>2026-04-22T13:06:05Z</time></trkpt><trkpt lat="59.0837162733" lon="29.9913291447"><ele>76.08</ele><time>2026-04-22T13:06:07Z</time></trkpt><trkpt lat="59.0837541595" lon="29.9913495965"><ele>76.08</ele><time>2026-04-22T13:06:10Z</time></trkpt><trkpt lat="59.0837891959" lon="29.9913662765"><ele>76.08</ele><time>2026-04-22T13:06:14Z</time></trkpt><trkpt lat="59.0838287584" lon="29.9914060906"><ele>75.60</ele><time>2026-04-22T13:06:18Z</time></trkpt><trkpt lat="59.0838691592" lon="29.9914276320"><ele>75.60</ele><time>2026-04-22T13:06:21Z</time></trkpt><trkpt lat="59.0839146730" lon="29.9914548732"><ele>75.60</ele><time>2026-04-22T13:06:25Z</time></trkpt><trkpt lat="59.0839624498" lon="29.9914284702"><ele>75.60</ele><time>2026-04-22T13:06:29Z</time></trkpt><trkpt lat="59.0840559918" lon="29.9915080983"><ele>75.60</ele><time>2026-04-22T13:06:40Z</time></trkpt><trkpt lat="59.0840657987" lon="29.9915071763"><ele>75.60</ele><time>2026-04-22T13:06:41Z</time></trkpt><trkpt lat="59.0841221251" lon="29.9915300589"><ele>75.60</ele><time>2026-04-22T13:06:46Z</time></trkpt><trkpt lat="59.0842017531" lon="29.9915924203"><ele>75.12</ele><time>2026-04-22T13:06:58Z</time></trkpt><trkpt lat="59.0842295811" lon="29.9916389398"><ele>74.64</ele><time>2026-04-22T13:07:02Z</time></trkpt><trkpt lat="59.0842444170" lon="29.9916927516"><ele>73.68</ele><time>2026-04-22T13:07:05Z</time></trkpt><trkpt lat="59.0842650365" lon="29.9917064141"><ele>73.68</ele><time>2026-04-22T13:07:07Z</time></trkpt><trkpt lat="59.0843149088" lon="29.9917513411"><ele>73.68</ele><time>2026-04-22T13:07:10Z</time></trkpt><trkpt lat="59.0844671242" lon="29.9918034766"><ele>73.68</ele><time>2026-04-22T13:07:21Z</time></trkpt><trkpt lat="59.0845539607" lon="29.9918567017"><ele>73.68</ele><time>2026-04-22T13:07:31Z</time></trkpt><trkpt lat="59.0845921822" lon="29.9918754771"><ele>73.68</ele><time>2026-04-22T13:07:41Z</time></trkpt><trkpt lat="59.0846006479" lon="29.9918665923"><ele>73.20</ele><time>2026-04-22T13:07:47Z</time></trkpt><trkpt lat="59.0846353490" lon="29.9918840267"><ele>73.20</ele><time>2026-04-22T13:07:52Z</time></trkpt><trkpt lat="59.0846701339" lon="29.9919408560"><ele>73.20</ele><time>2026-04-22T13:08:02Z</time></trkpt><trkpt lat="59.0847570542" lon="29.9919911474"><ele>73.20</ele><time>2026-04-22T13:08:14Z</time></trkpt><trkpt lat="59.0849357564" lon="29.9920010380"><ele>74.16</ele><time>2026-04-22T13:08:25Z</time></trkpt><trkpt lat="59.0850505885" lon="29.9920031335"><ele>74.16</ele><time>2026-04-22T13:08:32Z</time></trkpt><trkpt lat="59.0852106828" lon="29.9920333084"><ele>74.16</ele><time>2026-04-22T13:08:42Z</time></trkpt><trkpt lat="59.0852351580" lon="29.9920521677"><ele>74.16</ele><time>2026-04-22T13:08:45Z</time></trkpt><trkpt lat="59.0852701105" lon="29.9920554366"><ele>74.16</ele><time>2026-04-22T13:08:49Z</time></trkpt><trkpt lat="59.0853058174" lon="29.9920790736"><ele>74.16</ele><time>2026-04-22T13:08:53Z</time></trkpt><trkpt lat="59.0853264369" lon="29.9920699373"><ele>74.16</ele><time>2026-04-22T13:08:55Z</time></trkpt><trkpt lat="59.0853923187" lon="29.9920923170"><ele>74.16</ele><time>2026-04-22T13:09:01Z</time></trkpt><trkpt lat="59.0854425263" lon="29.9921029620"><ele>74.16</ele><time>2026-04-22T13:09:05Z</time></trkpt><trkpt lat="59.0855364874" lon="29.9921388365"><ele>73.68</ele><time>2026-04-22T13:09:13Z</time></trkpt><trkpt lat="59.0855752956" lon="29.9921392556"><ele>73.68</ele><time>2026-04-22T13:09:17Z</time></trkpt><trkpt lat="59.0856894571" lon="29.9921483919"><ele>73.68</ele><time>2026-04-22T13:09:28Z</time></trkpt><trkpt lat="59.0857629664" lon="29.9921675026"><ele>73.68</ele><time>2026-04-22T13:09:37Z</time></trkpt><trkpt lat="59.0858248249" lon="29.9921881221"><ele>73.68</ele><time>2026-04-22T13:09:42Z</time></trkpt><trkpt lat="59.0859306883" lon="29.9922232423"><ele>73.68</ele><time>2026-04-22T13:09:52Z</time></trkpt><trkpt lat="59.0859827399" lon="29.9922106694"><ele>73.68</ele><time>2026-04-22T13:09:57Z</time></trkpt><trkpt lat="59.0860284213" lon="29.9921802431"><ele>72.72</ele><time>2026-04-22T13:10:03Z</time></trkpt><trkpt lat="59.0860963147" lon="29.9921205640"><ele>72.72</ele><time>2026-04-22T13:10:09Z</time></trkpt><trkpt lat="59.0861778706" lon="29.9920770619"><ele>72.72</ele><time>2026-04-22T13:10:18Z</time></trkpt><trkpt lat="59.0862428304" lon="29.9921184685"><ele>72.72</ele><time>2026-04-22T13:10:24Z</time></trkpt><trkpt lat="59.0863809641" lon="29.9921270180"><ele>72.24</ele><time>2026-04-22T13:10:35Z</time></trkpt><trkpt lat="59.0864980593" lon="29.9921560194"><ele>72.24</ele><time>2026-04-22T13:10:42Z</time></trkpt><trkpt lat="59.0865989774" lon="29.9921815842"><ele>72.24</ele><time>2026-04-22T13:10:47Z</time></trkpt><trkpt lat="59.0867844690" lon="29.9922391679"><ele>72.24</ele><time>2026-04-22T13:10:59Z</time></trkpt><trkpt lat="59.0868806932" lon="29.9922676664"><ele>72.24</ele><time>2026-04-22T13:11:06Z</time></trkpt><trkpt lat="59.0870386083" lon="29.9922907166"><ele>73.68</ele><time>2026-04-22T13:11:18Z</time></trkpt><trkpt lat="59.0871567093" lon="29.9923178740"><ele>73.68</ele><time>2026-04-22T13:11:28Z</time></trkpt><trkpt lat="59.0872540232" lon="29.9923298601"><ele>73.68</ele><time>2026-04-22T13:11:39Z</time></trkpt><trkpt lat="59.0873598866" lon="29.9924025312"><ele>73.68</ele><time>2026-04-22T13:11:50Z</time></trkpt><trkpt lat="59.0874879621" lon="29.9924384058"><ele>73.68</ele><time>2026-04-22T13:12:01Z</time></trkpt><trkpt lat="59.0875276923" lon="29.9924467877"><ele>73.68</ele><time>2026-04-22T13:12:03Z</time></trkpt><trkpt lat="59.0876996052" lon="29.9924668204"><ele>73.68</ele><time>2026-04-22T13:12:17Z</time></trkpt><trkpt lat="59.0878211427" lon="29.9925160222"><ele>73.68</ele><time>2026-04-22T13:12:28Z</time></trkpt><trkpt lat="59.0878296085" lon="29.9925242364"><ele>73.68</ele><time>2026-04-22T13:12:29Z</time></trkpt><trkpt lat="59.0879582707" lon="29.9925704207"><ele>73.68</ele><time>2026-04-22T13:12:39Z</time></trkpt><trkpt lat="59.0879772138" lon="29.9925843347"><ele>73.68</ele><time>2026-04-22T13:12:41Z</time></trkpt><trkpt lat="59.0880412515" lon="29.9925687443"><ele>73.68</ele><time>2026-04-22T13:12:50Z</time></trkpt><trkpt lat="59.0880507231" lon="29.9925669841"><ele>73.68</ele><time>2026-04-22T13:12:51Z</time></trkpt><trkpt lat="59.0881440975" lon="29.9925741088"><ele>73.68</ele><time>2026-04-22T13:12:59Z</time></trkpt><trkpt lat="59.0882580075" lon="29.9925774615"><ele>73.68</ele><time>2026-04-22T13:13:10Z</time></trkpt><trkpt lat="59.0883813053" lon="29.9926455226"><ele>73.68</ele><time>2026-04-22T13:13:21Z</time></trkpt><trkpt lat="59.0884082112" lon="29.9926824030"><ele>74.16</ele><time>2026-04-22T13:13:24Z</time></trkpt><trkpt lat="59.0884541441" lon="29.9926917907"><ele>74.16</ele><time>2026-04-22T13:13:28Z</time></trkpt><trkpt lat="59.0885400586" lon="29.9927658029"><ele>74.16</ele><time>2026-04-22T13:13:36Z</time></trkpt><trkpt lat="59.0885958821" lon="29.9927736819"><ele>74.16</ele><time>2026-04-22T13:13:41Z</time></trkpt><trkpt lat="59.0887552220" lon="29.9928588420"><ele>74.16</ele><time>2026-04-22T13:13:54Z</time></trkpt><trkpt lat="59.0888819564" lon="29.9929320998"><ele>74.16</ele><time>2026-04-22T13:14:06Z</time></trkpt><trkpt lat="59.0889976267" lon="29.9929559045"><ele>73.68</ele><time>2026-04-22T13:14:18Z</time></trkpt><trkpt lat="59.0891018976" lon="29.9930616841"><ele>73.68</ele><time>2026-04-22T13:14:29Z</time></trkpt><trkpt lat="59.0891355928" lon="29.9931109697"><ele>73.68</ele><time>2026-04-22T13:14:32Z</time></trkpt><trkpt lat="59.0892441384" lon="29.9931308348"><ele>73.68</ele><time>2026-04-22T13:14:41Z</time></trkpt><trkpt lat="59.0893623233" lon="29.9931794498"><ele>73.68</ele><time>2026-04-22T13:14:49Z</time></trkpt><trkpt lat="59.0893952642" lon="29.9931982253"><ele>73.68</ele><time>2026-04-22T13:14:52Z</time></trkpt><trkpt lat="59.0895226691" lon="29.9931153283"><ele>73.68</ele><time>2026-04-22T13:15:03Z</time></trkpt><trkpt lat="59.0895474795" lon="29.9931421503"><ele>73.68</ele><time>2026-04-22T13:15:05Z</time></trkpt><trkpt lat="59.0896605514" lon="29.9931444973"><ele>72.72</ele><time>2026-04-22T13:15:14Z</time></trkpt><trkpt lat="59.0897514112" lon="29.9931569025"><ele>72.72</ele><time>2026-04-22T13:15:21Z</time></trkpt><trkpt lat="59.0897943266" lon="29.9931610934"><ele>72.72</ele><time>2026-04-22T13:15:25Z</time></trkpt><trkpt lat="59.0898371581" lon="29.9932009913"><ele>72.72</ele><time>2026-04-22T13:15:28Z</time></trkpt><trkpt lat="59.0899247490" lon="29.9932314176"><ele>72.72</ele><time>2026-04-22T13:15:37Z</time></trkpt><trkpt lat="59.0900170337" lon="29.9932881631"><ele>71.76</ele><time>2026-04-22T13:15:46Z</time></trkpt><trkpt lat="59.0900582727" lon="29.9933327548"><ele>71.27</ele><time>2026-04-22T13:15:54Z</time></trkpt><trkpt lat="59.0900892857" lon="29.9933418911"><ele>71.27</ele><time>2026-04-22T13:15:58Z</time></trkpt><trkpt lat="59.0901619568" lon="29.9933773465"><ele>70.79</ele><time>2026-04-22T13:16:09Z</time></trkpt><trkpt lat="59.0902673174" lon="29.9933900870"><ele>70.79</ele><time>2026-04-22T13:16:19Z</time></trkpt><trkpt lat="59.0903592668" lon="29.9934489280"><ele>70.79</ele><time>2026-04-22T13:16:27Z</time></trkpt><trkpt lat="59.0904870071" lon="29.9935287237"><ele>70.79</ele><time>2026-04-22T13:16:39Z</time></trkpt><trkpt lat="59.0905226301" lon="29.9935310706"><ele>70.79</ele><time>2026-04-22T13:16:42Z</time></trkpt><trkpt lat="59.0907248016" lon="29.9936159793"><ele>70.79</ele><time>2026-04-22T13:16:53Z</time></trkpt><trkpt lat="59.0908559784" lon="29.9936584756"><ele>70.79</ele><time>2026-04-22T13:17:04Z</time></trkpt><trkpt lat="59.0908796154" lon="29.9936622474"><ele>70.79</ele><time>2026-04-22T13:17:07Z</time></trkpt><trkpt lat="59.0909298230" lon="29.9936897401"><ele>70.31</ele><time>2026-04-22T13:17:13Z</time></trkpt><trkpt lat="59.0909889154" lon="29.9936894048"><ele>70.31</ele><time>2026-04-22T13:17:17Z</time></trkpt><trkpt lat="59.0910368599" lon="29.9937683623"><ele>70.31</ele><time>2026-04-22T13:17:22Z</time></trkpt><trkpt lat="59.0911149792" lon="29.9938471522"><ele>70.31</ele><time>2026-04-22T13:17:30Z</time></trkpt><trkpt lat="59.0912350919" lon="29.9939393532"><ele>70.31</ele><time>2026-04-22T13:17:42Z</time></trkpt><trkpt lat="59.0912415460" lon="29.9939313903"><ele>70.31</ele><time>2026-04-22T13:17:43Z</time></trkpt><trkpt lat="59.0912817791" lon="29.9938581325"><ele>70.31</ele><time>2026-04-22T13:17:47Z</time></trkpt><trkpt lat="59.0913072601" lon="29.9938491639"><ele>70.31</ele><time>2026-04-22T13:17:49Z</time></trkpt><trkpt lat="59.0914137103" lon="29.9939092621"><ele>70.31</ele><time>2026-04-22T13:17:58Z</time></trkpt><trkpt lat="59.0914370120" lon="29.9939044844"><ele>70.31</ele><time>2026-04-22T13:18:00Z</time></trkpt><trkpt lat="59.0914940927" lon="29.9939164706"><ele>70.31</ele><time>2026-04-22T13:18:04Z</time></trkpt><trkpt lat="59.0915541910" lon="29.9939562846"><ele>70.31</ele><time>2026-04-22T13:18:07Z</time></trkpt><trkpt lat="59.0916023869" lon="29.9939960986"><ele>70.31</ele><time>2026-04-22T13:18:11Z</time></trkpt><trkpt lat="59.0917986073" lon="29.9940199032"><ele>70.31</ele><time>2026-04-22T13:18:25Z</time></trkpt><trkpt lat="59.0919013694" lon="29.9940699432"><ele>69.83</ele><time>2026-04-22T13:18:35Z</time></trkpt><trkpt lat="59.0919664968" lon="29.9940965138"><ele>69.35</ele><time>2026-04-22T13:18:46Z</time></trkpt><trkpt lat="59.0919663291" lon="29.9941022974"><ele>70.31</ele><time>2026-04-22T13:19:04Z</time></trkpt><trkpt lat="59.0919665806" lon="29.9941098411"><ele>70.79</ele><time>2026-04-22T13:19:24Z</time></trkpt><trkpt lat="59.0920099989" lon="29.9941283651"><ele>70.79</ele><time>2026-04-22T13:19:35Z</time></trkpt><trkpt lat="59.0920576081" lon="29.9941658322"><ele>69.83</ele><time>2026-04-22T13:19:41Z</time></trkpt><trkpt lat="59.0921715181" lon="29.9941593781"><ele>69.35</ele><time>2026-04-22T13:19:53Z</time></trkpt><trkpt lat="59.0922015253" lon="29.9941473082"><ele>69.35</ele><time>2026-04-22T13:19:56Z</time></trkpt><trkpt lat="59.0922954027" lon="29.9940964300"><ele>69.35</ele><time>2026-04-22T13:20:08Z</time></trkpt><trkpt lat="59.0924089774" lon="29.9942648225"><ele>69.35</ele><time>2026-04-22T13:20:24Z</time></trkpt><trkpt lat="59.0925062913" lon="29.9943030439"><ele>70.31</ele><time>2026-04-22T13:20:35Z</time></trkpt><trkpt lat="59.0925122425" lon="29.9943107553"><ele>70.31</ele><time>2026-04-22T13:20:36Z</time></trkpt><trkpt lat="59.0925575886" lon="29.9943398405"><ele>70.31</ele><time>2026-04-22T13:20:41Z</time></trkpt><trkpt lat="59.0926751029" lon="29.9943561852"><ele>70.31</ele><time>2026-04-22T13:20:51Z</time></trkpt><trkpt lat="59.0926946327" lon="29.9943563528"><ele>70.31</ele><time>2026-04-22T13:20:53Z</time></trkpt><trkpt lat="59.0927893482" lon="29.9944275990"><ele>70.31</ele><time>2026-04-22T13:21:01Z</time></trkpt><trkpt lat="59.0928462613" lon="29.9944200553"><ele>70.31</ele><time>2026-04-22T13:21:06Z</time></trkpt><trkpt lat="59.0929390490" lon="29.9944528285"><ele>70.31</ele><time>2026-04-22T13:21:14Z</time></trkpt><trkpt lat="59.0930030029" lon="29.9944602046"><ele>70.31</ele><time>2026-04-22T13:21:22Z</time></trkpt><trkpt lat="59.0930770990" lon="29.9944958277"><ele>70.31</ele><time>2026-04-22T13:21:28Z</time></trkpt><trkpt lat="59.0931682102" lon="29.9944747053"><ele>70.31</ele><time>2026-04-22T13:21:35Z</time></trkpt><trkpt lat="59.0931967925" lon="29.9944823328"><ele>70.31</ele><time>2026-04-22T13:21:37Z</time></trkpt><trkpt lat="59.0933982097" lon="29.9945097417"><ele>70.31</ele><time>2026-04-22T13:21:49Z</time></trkpt><trkpt lat="59.0934233554" lon="29.9945258349"><ele>70.31</ele><time>2026-04-22T13:21:51Z</time></trkpt><trkpt lat="59.0935676917" lon="29.9945665710"><ele>70.31</ele><time>2026-04-22T13:22:02Z</time></trkpt><trkpt lat="59.0936386026" lon="29.9944965821"><ele>70.31</ele><time>2026-04-22T13:22:12Z</time></trkpt><trkpt lat="59.0936426260" lon="29.9944477156"><ele>70.31</ele><time>2026-04-22T13:22:14Z</time></trkpt><trkpt lat="59.0936510917" lon="29.9942961708"><ele>70.31</ele><time>2026-04-22T13:22:26Z</time></trkpt><trkpt lat="59.0936677717" lon="29.9941484816"><ele>70.31</ele><time>2026-04-22T13:22:38Z</time></trkpt><trkpt lat="59.0936684422" lon="29.9941205699"><ele>70.31</ele><time>2026-04-22T13:22:39Z</time></trkpt><trkpt lat="59.0936302207" lon="29.9939402752"><ele>70.31</ele><time>2026-04-22T13:22:46Z</time></trkpt><trkpt lat="59.0936009679" lon="29.9938325677"><ele>70.31</ele><time>2026-04-22T13:22:50Z</time></trkpt><trkpt lat="59.0935956035" lon="29.9937914964"><ele>70.31</ele><time>2026-04-22T13:22:51Z</time></trkpt><trkpt lat="59.0935374331" lon="29.9935982097"><ele>70.31</ele><time>2026-04-22T13:23:00Z</time></trkpt><trkpt lat="59.0934797656" lon="29.9933910090"><ele>70.31</ele><time>2026-04-22T13:23:10Z</time></trkpt><trkpt lat="59.0934525244" lon="29.9932768475"><ele>70.31</ele><time>2026-04-22T13:23:17Z</time></trkpt><trkpt lat="59.0934375208" lon="29.9932132289"><ele>70.79</ele><time>2026-04-22T13:23:20Z</time></trkpt><trkpt lat="59.0934274625" lon="29.9931752589"><ele>70.79</ele><time>2026-04-22T13:23:21Z</time></trkpt><trkpt lat="59.0934029035" lon="29.9930617679"><ele>70.79</ele><time>2026-04-22T13:23:23Z</time></trkpt><trkpt lat="59.0934001375" lon="29.9930165894"><ele>70.79</ele><time>2026-04-22T13:23:24Z</time></trkpt><trkpt lat="59.0933903307" lon="29.9928746000"><ele>71.27</ele><time>2026-04-22T13:23:30Z</time></trkpt><trkpt lat="59.0933835413" lon="29.9928408209"><ele>71.27</ele><time>2026-04-22T13:23:31Z</time></trkpt><trkpt lat="59.0933472477" lon="29.9925958179"><ele>71.27</ele><time>2026-04-22T13:23:41Z</time></trkpt><trkpt lat="59.0933048353" lon="29.9923840910"><ele>71.27</ele><time>2026-04-22T13:23:52Z</time></trkpt><trkpt lat="59.0932940226" lon="29.9922781438"><ele>71.27</ele><time>2026-04-22T13:23:57Z</time></trkpt><trkpt lat="59.0932964534" lon="29.9922510702"><ele>71.27</ele><time>2026-04-22T13:23:58Z</time></trkpt><trkpt lat="59.0932493471" lon="29.9920685962"><ele>71.27</ele><time>2026-04-22T13:24:08Z</time></trkpt><trkpt lat="59.0932222735" lon="29.9919709470"><ele>71.27</ele><time>2026-04-22T13:24:12Z</time></trkpt><trkpt lat="59.0932005644" lon="29.9918763991"><ele>71.27</ele><time>2026-04-22T13:24:25Z</time></trkpt><trkpt lat="59.0932171606" lon="29.9918920733"><ele>71.27</ele><time>2026-04-22T13:24:50Z</time></trkpt><trkpt lat="59.0932236146" lon="29.9919088371"><ele>71.27</ele><time>2026-04-22T13:25:08Z</time></trkpt><trkpt lat="59.0932542086" lon="29.9920478091"><ele>71.27</ele><time>2026-04-22T13:25:19Z</time></trkpt><trkpt lat="59.0932338405" lon="29.9919831846"><ele>71.27</ele><time>2026-04-22T13:25:30Z</time></trkpt><trkpt lat="59.0932570584" lon="29.9920694344"><ele>71.27</ele><time>2026-04-22T13:25:35Z</time></trkpt><trkpt lat="59.0932862274" lon="29.9921696819"><ele>71.27</ele><time>2026-04-22T13:25:40Z</time></trkpt><trkpt lat="59.0932936035" lon="29.9921970908"><ele>71.27</ele><time>2026-04-22T13:25:41Z</time></trkpt><trkpt lat="59.0933366027" lon="29.9923530780"><ele>71.27</ele><time>2026-04-22T13:25:52Z</time></trkpt><trkpt lat="59.0933585633" lon="29.9924807344"><ele>71.27</ele><time>2026-04-22T13:26:13Z</time></trkpt><trkpt lat="59.0933890734" lon="29.9925768748"><ele>71.27</ele><time>2026-04-22T13:26:22Z</time></trkpt><trkpt lat="59.0934796818" lon="29.9927363824"><ele>71.27</ele><time>2026-04-22T13:26:36Z</time></trkpt><trkpt lat="59.0934886504" lon="29.9927300122"><ele>71.27</ele><time>2026-04-22T13:26:52Z</time></trkpt><trkpt lat="59.0934914164" lon="29.9927207921"><ele>71.27</ele><time>2026-04-22T13:27:08Z</time></trkpt><trkpt lat="59.0934926737" lon="29.9927054532"><ele>69.83</ele><time>2026-04-22T13:27:26Z</time></trkpt><trkpt lat="59.0934962779" lon="29.9927078839"><ele>69.83</ele><time>2026-04-22T13:27:53Z</time></trkpt><trkpt lat="59.0934969485" lon="29.9927137513"><ele>69.83</ele><time>2026-04-22T13:28:17Z</time></trkpt><trkpt lat="59.0934710484" lon="29.9926883541"><ele>69.83</ele><time>2026-04-22T13:28:35Z</time></trkpt><trkpt lat="59.0934293065" lon="29.9926261604"><ele>69.83</ele><time>2026-04-22T13:28:50Z</time></trkpt><trkpt lat="59.0933934320" lon="29.9925774615"><ele>69.83</ele><time>2026-04-22T13:29:02Z</time></trkpt><trkpt lat="59.0933514386" lon="29.9925231468"><ele>69.83</ele><time>2026-04-22T13:29:15Z</time></trkpt><trkpt lat="59.0933204256" lon="29.9923895393"><ele>69.83</ele><time>2026-04-22T13:29:25Z</time></trkpt><trkpt lat="59.0933067631" lon="29.9923493061"><ele>69.83</ele><time>2026-04-22T13:29:27Z</time></trkpt><trkpt lat="59.0932626743" lon="29.9921935704"><ele>70.79</ele><time>2026-04-22T13:29:37Z</time></trkpt><trkpt lat="59.0932286438" lon="29.9920292851"><ele>70.31</ele><time>2026-04-22T13:29:45Z</time></trkpt><trkpt lat="59.0932117961" lon="29.9919548538"><ele>70.31</ele><time>2026-04-22T13:29:55Z</time></trkpt><trkpt lat="59.0932027437" lon="29.9918271974"><ele>70.31</ele><time>2026-04-22T13:30:05Z</time></trkpt><trkpt lat="59.0931744128" lon="29.9917002115"><ele>70.31</ele><time>2026-04-22T13:30:15Z</time></trkpt><trkpt lat="59.0931699704" lon="29.9916709587"><ele>70.31</ele><time>2026-04-22T13:30:16Z</time></trkpt><trkpt lat="59.0931257140" lon="29.9915202521"><ele>70.31</ele><time>2026-04-22T13:30:26Z</time></trkpt><trkpt lat="59.0931194276" lon="29.9915050808"><ele>70.31</ele><time>2026-04-22T13:30:27Z</time></trkpt><trkpt lat="59.0931093693" lon="29.9914560467"><ele>70.31</ele><time>2026-04-22T13:30:31Z</time></trkpt><trkpt lat="59.0930942819" lon="29.9913562182"><ele>70.31</ele><time>2026-04-22T13:30:35Z</time></trkpt><trkpt lat="59.0930496901" lon="29.9911905080"><ele>70.79</ele><time>2026-04-22T13:30:44Z</time></trkpt><trkpt lat="59.0930382907" lon="29.9911392946"><ele>70.79</ele><time>2026-04-22T13:30:48Z</time></trkpt><trkpt lat="59.0929996502" lon="29.9910061061"><ele>70.79</ele><time>2026-04-22T13:30:57Z</time></trkpt><trkpt lat="59.0929869935" lon="29.9909192696"><ele>70.79</ele><time>2026-04-22T13:31:01Z</time></trkpt><trkpt lat="59.0929459222" lon="29.9907037709"><ele>70.79</ele><time>2026-04-22T13:31:11Z</time></trkpt><trkpt lat="59.0929491911" lon="29.9907201994"><ele>70.79</ele><time>2026-04-22T13:31:32Z</time></trkpt><trkpt lat="59.0929599199" lon="29.9907102250"><ele>70.79</ele><time>2026-04-22T13:31:56Z</time></trkpt><trkpt lat="59.0929712355" lon="29.9907057825"><ele>70.79</ele><time>2026-04-22T13:32:23Z</time></trkpt><trkpt lat="59.0929757617" lon="29.9907118175"><ele>71.27</ele><time>2026-04-22T13:32:50Z</time></trkpt><trkpt lat="59.0929772705" lon="29.9907028489"><ele>71.27</ele><time>2026-04-22T13:33:19Z</time></trkpt><trkpt lat="59.0929742530" lon="29.9906968139"><ele>71.27</ele><time>2026-04-22T13:33:45Z</time></trkpt><trkpt lat="59.0929725766" lon="29.9906875100"><ele>71.27</ele><time>2026-04-22T13:34:11Z</time></trkpt><trkpt lat="59.0929674637" lon="29.9906545691"><ele>71.27</ele><time>2026-04-22T13:34:31Z</time></trkpt><trkpt lat="59.0929431561" lon="29.9905599374"><ele>71.27</ele><time>2026-04-22T13:34:43Z</time></trkpt><trkpt lat="59.0929047670" lon="29.9903715961"><ele>71.27</ele><time>2026-04-22T13:34:55Z</time></trkpt><trkpt lat="59.0928552300" lon="29.9902101606"><ele>71.27</ele><time>2026-04-22T13:35:07Z</time></trkpt><trkpt lat="59.0928228758" lon="29.9900597893"><ele>71.27</ele><time>2026-04-22T13:35:14Z</time></trkpt><trkpt lat="59.0927821398" lon="29.9898358248"><ele>71.27</ele><time>2026-04-22T13:35:24Z</time></trkpt><trkpt lat="59.0927757695" lon="29.9897484854"><ele>71.27</ele><time>2026-04-22T13:35:28Z</time></trkpt><trkpt lat="59.0927290823" lon="29.9895303044"><ele>71.27</ele><time>2026-04-22T13:35:39Z</time></trkpt><trkpt lat="59.0927185211" lon="29.9893810228"><ele>71.76</ele><time>2026-04-22T13:35:46Z</time></trkpt><trkpt lat="59.0927182697" lon="29.9891948607"><ele>71.76</ele><time>2026-04-22T13:35:55Z</time></trkpt><trkpt lat="59.0927168448" lon="29.9891745765"><ele>71.76</ele><time>2026-04-22T13:35:56Z</time></trkpt><trkpt lat="59.0927060321" lon="29.9891049229"><ele>71.76</ele><time>2026-04-22T13:35:59Z</time></trkpt><trkpt lat="59.0926946327" lon="29.9890554696"><ele>71.76</ele><time>2026-04-22T13:36:01Z</time></trkpt><trkpt lat="59.0926600154" lon="29.9888638593"><ele>71.76</ele><time>2026-04-22T13:36:11Z</time></trkpt><trkpt lat="59.0925951395" lon="29.9886932038"><ele>71.76</ele><time>2026-04-22T13:36:21Z</time></trkpt><trkpt lat="59.0925859194" lon="29.9886592571"><ele>71.76</ele><time>2026-04-22T13:36:23Z</time></trkpt><trkpt lat="59.0925401542" lon="29.9884377234"><ele>71.76</ele><time>2026-04-22T13:36:36Z</time></trkpt><trkpt lat="59.0924931318" lon="29.9882231466"><ele>71.76</ele><time>2026-04-22T13:36:47Z</time></trkpt><trkpt lat="59.0924437623" lon="29.9880345538"><ele>71.76</ele><time>2026-04-22T13:36:59Z</time></trkpt><trkpt lat="59.0924425889" lon="29.9880065583"><ele>71.76</ele><time>2026-04-22T13:37:00Z</time></trkpt><trkpt lat="59.0924097318" lon="29.9877896346"><ele>71.76</ele><time>2026-04-22T13:37:13Z</time></trkpt><trkpt lat="59.0923991706" lon="29.9876954220"><ele>71.76</ele><time>2026-04-22T13:37:18Z</time></trkpt><trkpt lat="59.0923969913" lon="29.9876418617"><ele>71.76</ele><time>2026-04-22T13:37:20Z</time></trkpt><trkpt lat="59.0923668165" lon="29.9874106888"><ele>72.24</ele><time>2026-04-22T13:37:32Z</time></trkpt><trkpt lat="59.0923228115" lon="29.9872193299"><ele>72.24</ele><time>2026-04-22T13:37:42Z</time></trkpt><trkpt lat="59.0923152678" lon="29.9872016441"><ele>72.24</ele><time>2026-04-22T13:37:43Z</time></trkpt><trkpt lat="59.0922805667" lon="29.9870417174"><ele>72.24</ele><time>2026-04-22T13:37:53Z</time></trkpt><trkpt lat="59.0922512300" lon="29.9868411385"><ele>72.24</ele><time>2026-04-22T13:38:04Z</time></trkpt><trkpt lat="59.0922409203" lon="29.9866368715"><ele>72.24</ele><time>2026-04-22T13:38:16Z</time></trkpt><trkpt lat="59.0921927243" lon="29.9863995798"><ele>72.24</ele><time>2026-04-22T13:38:30Z</time></trkpt><trkpt lat="59.0921775531" lon="29.9862064607"><ele>72.24</ele><time>2026-04-22T13:38:41Z</time></trkpt><trkpt lat="59.0921691712" lon="29.9861546606"><ele>72.24</ele><time>2026-04-22T13:38:53Z</time></trkpt><trkpt lat="59.0921742842" lon="29.9861539900"><ele>73.20</ele><time>2026-04-22T13:39:07Z</time></trkpt></trkseg></trk></gpx>